| time (UTC) | temp C | wind direction | speed KPH | gust KPH | rain 1hr cm | rain 24hr cm | rain mn cm | humidity % | barometer mb |
| 20260902134524 | 31 | 298 | 4.8 | 12.9 | 0.00 | 0.00 | 0.00 | 30 | 1017.7 |
| 20260902134503 | 31 | 308 | 3.2 | 12.9 | 0.00 | 0.00 | 0.00 | 30 | 1017.4 |
| 20260902134403 | 32 | 295 | 3.2 | 12.9 | 0.00 | 0.00 | 0.00 | 28 | 1017.4 |
| 20260902134303 | 32 | 294 | 3.2 | 12.9 | 0.00 | 0.00 | 0.00 | 28 | 1017.4 |
| 20260902134203 | 32 | 296 | 3.2 | 11.3 | 0.00 | 0.00 | 0.00 | 28 | 1017.3 |
| 20260902134103 | 32 | 308 | 3.2 | 11.3 | 0.00 | 0.00 | 0.00 | 28 | 1017.4 |
| 20260902134014 | 31 | 302 | 1.6 | 11.3 | 0.00 | 0.00 | 0.00 | 28 | 1017.6 |
| 20260902134003 | 32 | 320 | 3.2 | 11.3 | 0.00 | 0.00 | 0.00 | 28 | 1017.4 |
| 20260902133903 | 32 | 313 | 3.2 | 11.3 | 0.00 | 0.00 | 0.00 | 28 | 1017.5 |
| 20260902133803 | 32 | 305 | 3.2 | 11.3 | 0.00 | 0.00 | 0.00 | 28 | 1017.5 |
| 20260902133703 | 32 | 308 | 3.2 | 11.3 | 0.00 | 0.00 | 0.00 | 28 | 1017.5 |
| 20260902133603 | 32 | 295 | 3.2 | 11.3 | 0.00 | 0.00 | 0.00 | 29 | 1017.4 |
| 20260902133519 | 31 | 315 | 3.2 | 11.3 | 0.00 | 0.00 | 0.00 | 28 | 1017.7 |
| 20260902133503 | 32 | 293 | 3.2 | 11.3 | 0.00 | 0.00 | 0.00 | 29 | 1017.5 |
| 20260902133403 | 32 | 308 | 3.2 | 4.8 | 0.00 | 0.00 | 0.00 | 29 | 1017.4 |
| 20260902133303 | 32 | 309 | 3.2 | 4.8 | 0.00 | 0.00 | 0.00 | 30 | 1017.5 |
| 20260902133203 | 32 | 306 | 3.2 | 4.8 | 0.00 | 0.00 | 0.00 | 30 | 1017.4 |
| 20260902133103 | 32 | 307 | 3.2 | 4.8 | 0.00 | 0.00 | 0.00 | 30 | 1017.4 |
| 20260902133040 | 31 | 341 | 1.6 | 4.8 | 0.00 | 0.00 | 0.00 | 29 | 1017.7 |
| 20260902133003 | 32 | 300 | 3.2 | 4.8 | 0.00 | 0.00 | 0.00 | 30 | 1017.4 |
| 20260902132803 | 32 | 333 | 3.2 | 4.8 | 0.00 | 0.00 | 0.00 | 30 | 1017.5 |
| 20260902132703 | 32 | 102 | 3.2 | 3.2 | 0.00 | 0.00 | 0.00 | 30 | 1017.5 |
| 20260902132603 | 32 | 104 | 3.2 | 3.2 | 0.00 | 0.00 | 0.00 | 30 | 1017.5 |
| 20260902132515 | 31 | 277 | 0.0 | 4.8 | 0.00 | 0.00 | 0.00 | 29 | 1017.7 |
| 20260902132503 | 32 | 104 | 3.2 | 3.2 | 0.00 | 0.00 | 0.00 | 30 | 1017.5 |
| 20260902132403 | 32 | 110 | 3.2 | 3.2 | 0.00 | 0.00 | 0.00 | 30 | 1017.5 |
| 20260902132306 | 32 | 110 | 3.2 | 3.2 | 0.00 | 0.00 | 0.00 | 29 | 1017.4 |
| 20260902132203 | 32 | 81 | 3.2 | 6.4 | 0.00 | 0.00 | 0.00 | 29 | 1017.5 |
| 20260902132103 | 32 | 35 | 3.2 | 6.4 | 0.00 | 0.00 | 0.00 | 29 | 1017.5 |
| 20260902132003 | 32 | 311 | 3.2 | 6.4 | 0.00 | 0.00 | 0.00 | 29 | 1017.5 |
| 20260902131903 | 32 | 295 | 3.2 | 6.4 | 0.00 | 0.00 | 0.00 | 29 | 1017.5 |
| 20260902131803 | 32 | 304 | 3.2 | 6.4 | 0.00 | 0.00 | 0.00 | 29 | 1017.5 |
| 20260902131703 | 32 | 304 | 3.2 | 6.4 | 0.00 | 0.00 | 0.00 | 29 | 1017.5 |
| 20260902131603 | 32 | 304 | 3.2 | 6.4 | 0.00 | 0.00 | 0.00 | 29 | 1017.6 |
| 20260902131509 | 31 | 320 | 0.0 | 4.8 | 0.00 | 0.00 | 0.00 | 28 | 1017.8 |
| 20260902131503 | 32 | 302 | 3.2 | 6.4 | 0.00 | 0.00 | 0.00 | 29 | 1017.5 |
| 20260902131403 | 32 | 303 | 3.2 | 6.4 | 0.00 | 0.00 | 0.00 | 29 | 1017.6 |
| 20260902131203 | 32 | 300 | 3.2 | 6.4 | 0.00 | 0.00 | 0.00 | 29 | 1017.6 |
| 20260902131103 | 32 | 301 | 3.2 | 6.4 | 0.00 | 0.00 | 0.00 | 29 | 1017.6 |
| 20260902131007 | 32 | 289 | 3.2 | 6.4 | 0.00 | 0.00 | 0.00 | 28 | 1017.8 |
| 20260902131003 | 32 | 303 | 3.2 | 6.4 | 0.00 | 0.00 | 0.00 | 29 | 1017.6 |
| 20260902130903 | 32 | 307 | 3.2 | 6.4 | 0.00 | 0.00 | 0.00 | 29 | 1017.6 |
| 20260902130803 | 32 | 300 | 3.2 | 6.4 | 0.00 | 0.00 | 0.00 | 29 | 1017.6 |
| 20260902130703 | 32 | 311 | 3.2 | 6.4 | 0.00 | 0.00 | 0.00 | 29 | 1017.6 |
| 20260902130603 | 32 | 311 | 3.2 | 6.4 | 0.00 | 0.00 | 0.00 | 29 | 1017.6 |
| 20260902130507 | 31 | 267 | 1.6 | 6.4 | 0.00 | 0.00 | 0.00 | 28 | 1017.9 |
| 20260902130503 | 32 | 312 | 3.2 | 6.4 | 0.00 | 0.00 | 0.00 | 29 | 1017.6 |
| 20260902130403 | 32 | 318 | 3.2 | 6.4 | 0.00 | 0.00 | 0.00 | 28 | 1017.6 |
| 20260902130303 | 32 | 319 | 3.2 | 6.4 | 0.00 | 0.00 | 0.00 | 28 | 1017.7 |
| 20260902130203 | 32 | 337 | 3.2 | 6.4 | 0.00 | 0.00 | 0.00 | 28 | 1017.6 |
| 20260902130103 | 32 | 349 | 3.2 | 6.4 | 0.00 | 0.00 | 0.00 | 28 | 1017.7 |
| 20260902130024 | 31 | 125 | 0.0 | 6.4 | 0.00 | 0.00 | 0.00 | 28 | 1018.0 |
| 20260902130003 | 32 | 355 | 3.2 | 6.4 | 0.00 | 0.00 | 0.00 | 28 | 1017.7 |
| 20260902125803 | 32 | 353 | 3.2 | 6.4 | 0.00 | 0.00 | 0.00 | 28 | 1017.7 |
| 20260902125703 | 32 | 345 | 3.2 | 6.4 | 0.00 | 0.00 | 0.00 | 29 | 1017.7 |
| 20260902125603 | 32 | 342 | 3.2 | 6.4 | 0.00 | 0.00 | 0.00 | 29 | 1017.7 |
| 20260902125518 | 32 | 353 | 3.2 | 4.8 | 0.00 | 0.00 | 0.00 | 29 | 1017.7 |
| 20260902125510 | 31 | 305 | 1.6 | 6.4 | 0.00 | 0.00 | 0.00 | 29 | 1018.0 |
| 20260902125403 | 32 | 348 | 3.2 | 3.2 | 0.00 | 0.00 | 0.00 | 29 | 1017.7 |
| 20260902125203 | 32 | 339 | 3.2 | 3.2 | 0.00 | 0.00 | 0.00 | 29 | 1017.7 |
| 20260902125103 | 32 | 332 | 3.2 | 3.2 | 0.00 | 0.00 | 0.00 | 29 | 1017.7 |
| 20260902125011 | 31 | 101 | 1.6 | 8.0 | 0.00 | 0.00 | 0.00 | 29 | 1018.0 |
| 20260902125003 | 31 | 328 | 3.2 | 4.8 | 0.00 | 0.00 | 0.00 | 29 | 1017.7 |
| 20260902124903 | 31 | 331 | 3.2 | 11.3 | 0.00 | 0.00 | 0.00 | 29 | 1017.7 |
| 20260902124703 | 31 | 346 | 3.2 | 11.3 | 0.00 | 0.00 | 0.00 | 29 | 1017.7 |
| 20260902124603 | 31 | 334 | 3.2 | 11.3 | 0.00 | 0.00 | 0.00 | 29 | 1017.7 |
| 20260902124523 | 31 | 316 | 1.6 | 9.7 | 0.00 | 0.00 | 0.00 | 29 | 1018.0 |
| 20260902124503 | 31 | 332 | 3.2 | 11.3 | 0.00 | 0.00 | 0.00 | 29 | 1017.7 |
| 20260902124403 | 31 | 324 | 3.2 | 11.3 | 0.00 | 0.00 | 0.00 | 29 | 1017.7 |
| 20260902124303 | 31 | 315 | 3.2 | 11.3 | 0.00 | 0.00 | 0.00 | 29 | 1017.8 |
| 20260902124203 | 31 | 308 | 3.2 | 11.3 | 0.00 | 0.00 | 0.00 | 29 | 1017.7 |
| 20260902124103 | 31 | 315 | 3.2 | 11.3 | 0.00 | 0.00 | 0.00 | 29 | 1017.8 |
| 20260902124013 | 31 | 329 | 3.2 | 9.7 | 0.00 | 0.00 | 0.00 | 28 | 1018.1 |
| 20260902124003 | 31 | 315 | 3.2 | 11.3 | 0.00 | 0.00 | 0.00 | 30 | 1017.8 |
| 20260902123903 | 31 | 306 | 3.2 | 11.3 | 0.00 | 0.00 | 0.00 | 30 | 1017.8 |
| 20260902123803 | 31 | 328 | 3.2 | 9.7 | 0.00 | 0.00 | 0.00 | 30 | 1017.9 |
| 20260902123703 | 31 | 341 | 3.2 | 8.0 | 0.00 | 0.00 | 0.00 | 30 | 1017.8 |
| 20260902123603 | 31 | 351 | 3.2 | 8.0 | 0.00 | 0.00 | 0.00 | 31 | 1017.9 |
| 20260902123511 | 31 | 295 | 3.2 | 8.0 | 0.00 | 0.00 | 0.00 | 31 | 1018.1 |
| 20260902123503 | 31 | 356 | 3.2 | 8.0 | 0.00 | 0.00 | 0.00 | 31 | 1017.8 |
| 20260902123403 | 31 | 50 | 3.2 | 8.0 | 0.00 | 0.00 | 0.00 | 31 | 1017.8 |
| 20260902123303 | 31 | 60 | 3.2 | 8.0 | 0.00 | 0.00 | 0.00 | 31 | 1017.9 |
| 20260902123203 | 31 | 58 | 3.2 | 8.0 | 0.00 | 0.00 | 0.00 | 31 | 1017.9 |
| 20260902123103 | 31 | 69 | 3.2 | 9.7 | 0.00 | 0.00 | 0.00 | 31 | 1018.0 |
| 20260902123025 | 31 | 346 | 3.2 | 8.0 | 0.00 | 0.00 | 0.00 | 31 | 1018.2 |
| 20260902123003 | 31 | 63 | 3.2 | 9.7 | 0.00 | 0.00 | 0.00 | 32 | 1018.0 |
| 20260902122903 | 32 | 44 | 3.2 | 9.7 | 0.00 | 0.00 | 0.00 | 31 | 1018.0 |
| 20260902122803 | 32 | 43 | 3.2 | 9.7 | 0.00 | 0.00 | 0.00 | 31 | 1017.9 |
| 20260902122617 | 32 | 57 | 3.2 | 9.7 | 0.00 | 0.00 | 0.00 | 31 | 1018.0 |
| 20260902122515 | 31 | 294 | 1.6 | 9.7 | 0.00 | 0.00 | 0.00 | 1018.2 | |
| 20260902122503 | 32 | 73 | 3.2 | 9.7 | 0.00 | 0.00 | 0.00 | 31 | 1018.0 |
| 20260902122305 | 32 | 68 | 3.2 | 9.7 | 0.00 | 0.00 | 0.00 | 31 | 1018.1 |
| 20260902122203 | 32 | 41 | 3.2 | 9.7 | 0.00 | 0.00 | 0.00 | 31 | 1018.1 |
| 20260902122118 | 32 | 348 | 3.2 | 9.7 | 0.00 | 0.00 | 0.00 | 31 | 1018.1 |
| 20260902122015 | 32 | 293 | 4.8 | 9.7 | 0.00 | 0.00 | 0.00 | 31 | 1018.4 |
| 20260902122003 | 32 | 47 | 3.2 | 8.0 | 0.00 | 0.00 | 0.00 | 31 | 1018.1 |
| 20260902121803 | 32 | 140 | 3.2 | 6.4 | 0.00 | 0.00 | 0.00 | 31 | 1018.2 |
| 20260902121703 | 32 | 142 | 3.2 | 6.4 | 0.00 | 0.00 | 0.00 | 31 | 1018.3 |
| 20260902121603 | 32 | 149 | 3.2 | 4.8 | 0.00 | 0.00 | 0.00 | 31 | 1018.3 |
| 20260902121532 | 32 | 206 | 1.6 | 3.2 | 0.00 | 0.00 | 0.00 | 31 | 1018.5 |
| 20260902121503 | 32 | 126 | 3.2 | 4.8 | 0.00 | 0.00 | 0.00 | 31 | 1018.3 |
| 20260902121403 | 32 | 26 | 3.2 | 4.8 | 0.00 | 0.00 | 0.00 | 32 | 1018.3 |
| 20260902121317 | 32 | 330 | 3.2 | 4.8 | 0.00 | 0.00 | 0.00 | 32 | 1018.3 |
| 20260902121203 | 32 | 298 | 3.2 | 4.8 | 0.00 | 0.00 | 0.00 | 32 | 1018.3 |
| 20260902121003 | 32 | 222 | 0.0 | 6.4 | 0.00 | 0.00 | 0.00 | 31 | 1018.5 |
| 20260902120903 | 32 | 283 | 3.2 | 4.8 | 0.00 | 0.00 | 0.00 | 31 | 1018.3 |
| 20260902120703 | 32 | 282 | 3.2 | 9.7 | 0.00 | 0.00 | 0.00 | 32 | 1018.4 |
| 20260902120603 | 32 | 282 | 3.2 | 9.7 | 0.00 | 0.00 | 0.00 | 32 | 1018.3 |
| 20260902120507 | 31 | 138 | 1.6 | 8.0 | 0.00 | 0.00 | 0.00 | 31 | 1018.6 |
| 20260902120503 | 32 | 290 | 3.2 | 9.7 | 0.00 | 0.00 | 0.00 | 32 | 1018.3 |
| 20260902120403 | 32 | 285 | 3.2 | 9.7 | 0.00 | 0.00 | 0.00 | 33 | 1018.3 |
| 20260902120303 | 31 | 285 | 3.2 | 9.7 | 0.00 | 0.00 | 0.00 | 33 | 1018.4 |
| 20260902120203 | 31 | 292 | 3.2 | 9.7 | 0.00 | 0.00 | 0.00 | 34 | 1018.4 |
| 20260902120015 | 31 | 230 | 1.6 | 8.0 | 0.00 | 0.00 | 0.00 | 33 | 1018.7 |
| 20260902120004 | 31 | 298 | 3.2 | 9.7 | 0.00 | 0.00 | 0.00 | 34 | 1018.4 |
| 20260902115903 | 31 | 301 | 3.2 | 9.7 | 0.00 | 0.00 | 0.00 | 34 | 1018.5 |
| 20260902115803 | 31 | 312 | 3.2 | 9.7 | 0.00 | 0.00 | 0.00 | 34 | 1018.5 |
| 20260902115703 | 31 | 319 | 3.2 | 9.7 | 0.00 | 0.00 | 0.00 | 34 | 1018.5 |
| 20260902115603 | 31 | 336 | 3.2 | 6.4 | 0.00 | 0.00 | 0.00 | 33 | 1018.5 |
| 20260902115511 | 31 | 309 | 1.6 | 6.4 | 0.00 | 0.00 | 0.00 | 33 | 1018.8 |
| 20260902115503 | 31 | 37 | 3.2 | 3.2 | 0.00 | 0.00 | 0.00 | 33 | 1018.5 |
| 20260902115403 | 31 | 63 | 3.2 | 6.4 | 0.00 | 0.00 | 0.00 | 33 | 1018.5 |
| 20260902115307 | 31 | 4 | 3.2 | 6.4 | 0.00 | 0.00 | 0.00 | 33 | 1018.5 |
| 20260902115203 | 31 | 71 | 3.2 | 6.4 | 0.00 | 0.00 | 0.00 | 33 | 1018.6 |
| 20260902115103 | 31 | 39 | 3.2 | 6.4 | 0.00 | 0.00 | 0.00 | 33 | 1018.6 |
| 20260902115010 | 31 | 141 | 1.6 | 6.4 | 0.00 | 0.00 | 0.00 | 32 | 1018.9 |
| 20260902115003 | 31 | 12 | 3.2 | 6.4 | 0.00 | 0.00 | 0.00 | 33 | 1018.6 |
| 20260902114803 | 31 | 356 | 3.2 | 6.4 | 0.00 | 0.00 | 0.00 | 33 | 1018.6 |
| 20260902114703 | 31 | 345 | 3.2 | 6.4 | 0.00 | 0.00 | 0.00 | 33 | 1018.6 |
| 20260902114603 | 31 | 291 | 3.2 | 6.4 | 0.00 | 0.00 | 0.00 | 34 | 1018.7 |
| 20260902114520 | 31 | 78 | 1.6 | 6.4 | 0.00 | 0.00 | 0.00 | 33 | 1018.9 |
| 20260902114503 | 31 | 283 | 3.2 | 6.4 | 0.00 | 0.00 | 0.00 | 34 | 1018.7 |
| 20260902114403 | 31 | 268 | 3.2 | 6.4 | 0.00 | 0.00 | 0.00 | 34 | 1018.7 |
| 20260902114303 | 31 | 261 | 3.2 | 9.7 | 0.00 | 0.00 | 0.00 | 34 | 1018.7 |
| 20260902114203 | 31 | 277 | 3.2 | 9.7 | 0.00 | 0.00 | 0.00 | 34 | 1018.8 |
| 20260902114103 | 31 | 292 | 3.2 | 9.7 | 0.00 | 0.00 | 0.00 | 34 | 1018.8 |
| 20260902114013 | 31 | 29 | 1.6 | 9.7 | 0.00 | 0.00 | 0.00 | 34 | 1019.0 |
| 20260902114003 | 31 | 288 | 3.2 | 9.7 | 0.00 | 0.00 | 0.00 | 35 | 1018.8 |
| 20260902113903 | 31 | 295 | 3.2 | 9.7 | 0.00 | 0.00 | 0.00 | 35 | 1018.8 |
| 20260902113803 | 31 | 288 | 3.2 | 9.7 | 0.00 | 0.00 | 0.00 | 35 | 1018.8 |
| 20260902113703 | 31 | 283 | 3.2 | 9.7 | 0.00 | 0.00 | 0.00 | 34 | 1018.8 |
| 20260902113603 | 31 | 108 | 3.2 | 9.7 | 0.00 | 0.00 | 0.00 | 34 | 1018.8 |
| 20260902113512 | 31 | 200 | 1.6 | 9.7 | 0.00 | 0.00 | 0.00 | 33 | 1019.1 |
| 20260902113503 | 31 | 66 | 3.2 | 9.7 | 0.00 | 0.00 | 0.00 | 35 | 1018.8 |
| 20260902113403 | 31 | 36 | 3.2 | 9.7 | 0.00 | 0.00 | 0.00 | 36 | 1018.8 |
| 20260902113303 | 31 | 68 | 3.2 | 9.7 | 0.00 | 0.00 | 0.00 | 36 | 1018.8 |
| 20260902113103 | 30 | 51 | 3.2 | 11.3 | 0.00 | 0.00 | 0.00 | 36 | 1018.9 |
| 20260902113023 | 30 | 319 | 1.6 | 12.9 | 0.00 | 0.00 | 0.00 | 36 | 1019.1 |
| 20260902113003 | 30 | 54 | 3.2 | 11.3 | 0.00 | 0.00 | 0.00 | 36 | 1018.9 |
| 20260902112903 | 30 | 2 | 3.2 | 11.3 | 0.00 | 0.00 | 0.00 | 36 | 1018.8 |
| 20260902112803 | 30 | 337 | 3.2 | 11.3 | 0.00 | 0.00 | 0.00 | 36 | 1018.8 |
| 20260902112603 | 31 | 320 | 3.2 | 11.3 | 0.00 | 0.00 | 0.00 | 36 | 1018.9 |
| 20260902112513 | 30 | 33 | 1.6 | 9.7 | 0.00 | 0.00 | 0.00 | 36 | 1019.1 |
| 20260902112503 | 31 | 312 | 3.2 | 11.3 | 0.00 | 0.00 | 0.00 | 37 | 1018.9 |
| 20260902112403 | 31 | 312 | 3.2 | 11.3 | 0.00 | 0.00 | 0.00 | 37 | 1019.0 |
| 20260902112203 | 31 | 310 | 3.2 | 11.3 | 0.00 | 0.00 | 0.00 | 37 | 1018.9 |
| 20260902112103 | 31 | 297 | 3.2 | 11.3 | 0.00 | 0.00 | 0.00 | 38 | 1018.9 |
| 20260902112015 | 30 | 292 | 4.8 | 9.7 | 0.00 | 0.00 | 0.00 | 37 | 1019.2 |
| 20260902112003 | 31 | 301 | 3.2 | 6.4 | 0.00 | 0.00 | 0.00 | 37 | 1018.9 |
| 20260902111903 | 31 | 298 | 3.2 | 4.8 | 0.00 | 0.00 | 0.00 | 38 | 1019.0 |
| 20260902111803 | 30 | 309 | 3.2 | 4.8 | 0.00 | 0.00 | 0.00 | 38 | 1019.0 |
| 20260902111603 | 30 | 313 | 3.2 | 4.8 | 0.00 | 0.00 | 0.00 | 38 | 1019.0 |
| 20260902111531 | 30 | 311 | 1.6 | 4.8 | 0.00 | 0.00 | 0.00 | 37 | 1019.3 |
| 20260902111503 | 30 | 330 | 3.2 | 4.8 | 0.00 | 0.00 | 0.00 | 38 | 1019.0 |
| 20260902111403 | 30 | 352 | 3.2 | 6.4 | 0.00 | 0.00 | 0.00 | 38 | 1019.0 |
| 20260902111303 | 30 | 9 | 3.2 | 6.4 | 0.00 | 0.00 | 0.00 | 37 | 1019.0 |
| 20260902111203 | 30 | 4 | 3.2 | 6.4 | 0.00 | 0.00 | 0.00 | 37 | 1019.1 |
| 20260902111103 | 30 | 20 | 3.2 | 6.4 | 0.00 | 0.00 | 0.00 | 37 | 1019.1 |
| 20260902111019 | 30 | 71 | 1.6 | 4.8 | 0.00 | 0.00 | 0.00 | 37 | 1019.4 |
| 20260902111003 | 31 | 15 | 3.2 | 6.4 | 0.00 | 0.00 | 0.00 | 37 | 1019.1 |
| 20260902110903 | 31 | 18 | 3.2 | 6.4 | 0.00 | 0.00 | 0.00 | 37 | 1019.1 |
| 20260902110803 | 31 | 359 | 3.2 | 6.4 | 0.00 | 0.00 | 0.00 | 37 | 1019.0 |
| 20260902110703 | 31 | 2 | 3.2 | 6.4 | 0.00 | 0.00 | 0.00 | 38 | 1019.1 |
| 20260902110603 | 31 | 29 | 3.2 | 6.4 | 0.00 | 0.00 | 0.00 | 38 | 1019.1 |
| 20260902110518 | 31 | 54 | 1.6 | 6.4 | 0.00 | 0.00 | 0.00 | 37 | 1019.4 |
| 20260902110503 | 31 | 16 | 3.2 | 6.4 | 0.00 | 0.00 | 0.00 | 38 | 1019.1 |
| 20260902110403 | 31 | 330 | 3.2 | 6.4 | 0.00 | 0.00 | 0.00 | 38 | 1019.1 |
| 20260902110303 | 31 | 316 | 3.2 | 14.5 | 0.00 | 0.00 | 0.00 | 38 | 1019.1 |
| 20260902110203 | 31 | 312 | 3.2 | 14.5 | 0.00 | 0.00 | 0.00 | 38 | 1019.1 |
| 20260902110017 | 30 | 203 | 1.6 | 14.5 | 0.00 | 0.00 | 0.00 | 38 | 1019.4 |
| 20260902110005 | 31 | 305 | 3.2 | 14.5 | 0.00 | 0.00 | 0.00 | 38 | 1019.2 |
| 20260902105903 | 31 | 311 | 3.2 | 14.5 | 0.00 | 0.00 | 0.00 | 38 | 1019.2 |
| 20260902105803 | 31 | 315 | 3.2 | 14.5 | 0.00 | 0.00 | 0.00 | 38 | 1019.3 |
| 20260902105603 | 31 | 300 | 3.2 | 14.5 | 0.00 | 0.00 | 0.00 | 38 | 1019.3 |
| 20260902105506 | 30 | 202 | 1.6 | 14.5 | 0.00 | 0.00 | 0.00 | 38 | 1019.5 |
| 20260902105503 | 31 | 303 | 3.2 | 14.5 | 0.00 | 0.00 | 0.00 | 38 | 1019.2 |
| 20260902105403 | 31 | 303 | 3.2 | 14.5 | 0.00 | 0.00 | 0.00 | 38 | 1019.3 |
| 20260902105306 | 31 | 302 | 3.2 | 14.5 | 0.00 | 0.00 | 0.00 | 38 | 1019.3 |
| 20260902105203 | 31 | 300 | 3.2 | 9.7 | 0.00 | 0.00 | 0.00 | 38 | 1019.2 |
| 20260902105009 | 31 | 313 | 4.8 | 9.7 | 0.00 | 0.00 | 0.00 | 37 | 1019.5 |
| 20260902104903 | 31 | 283 | 3.2 | 6.4 | 0.00 | 0.00 | 0.00 | 38 | 1019.3 |
| 20260902104803 | 31 | 272 | 3.2 | 6.4 | 0.00 | 0.00 | 0.00 | 38 | 1019.3 |
| 20260902104703 | 31 | 280 | 3.2 | 4.8 | 0.00 | 0.00 | 0.00 | 38 | 1019.3 |
| 20260902104603 | 31 | 273 | 3.2 | 4.8 | 0.00 | 0.00 | 0.00 | 38 | 1019.3 |
| 20260902104518 | 30 | 313 | 1.6 | 4.8 | 0.00 | 0.00 | 0.00 | 38 | 1019.6 |
| 20260902104503 | 31 | 268 | 3.2 | 4.8 | 0.00 | 0.00 | 0.00 | 38 | 1019.2 |
| 20260902104403 | 31 | 272 | 3.2 | 4.8 | 0.00 | 0.00 | 0.00 | 39 | 1019.3 |
| 20260902104203 | 30 | 285 | 3.2 | 4.8 | 0.00 | 0.00 | 0.00 | 39 | 1019.3 |
| 20260902104103 | 30 | 282 | 3.2 | 6.4 | 0.00 | 0.00 | 0.00 | 39 | 1019.3 |
| 20260902104010 | 30 | 120 | 1.6 | 6.4 | 0.00 | 0.00 | 0.00 | 39 | 1019.6 |
| 20260902104003 | 30 | 280 | 3.2 | 6.4 | 0.00 | 0.00 | 0.00 | 39 | 1019.4 |
| 20260902103903 | 30 | 291 | 3.2 | 6.4 | 0.00 | 0.00 | 0.00 | 40 | 1019.3 |
| 20260902103803 | 30 | 287 | 3.2 | 6.4 | 0.00 | 0.00 | 0.00 | 40 | 1019.3 |
| 20260902103703 | 30 | 287 | 3.2 | 6.4 | 0.00 | 0.00 | 0.00 | 40 | 1019.4 |
| 20260902103603 | 30 | 293 | 3.2 | 11.3 | 0.00 | 0.00 | 0.00 | 40 | 1019.3 |
| 20260902103510 | 29 | 31 | 1.6 | 11.3 | 0.00 | 0.00 | 0.00 | 40 | 1019.6 |
| 20260902103503 | 30 | 294 | 3.2 | 11.3 | 0.00 | 0.00 | 0.00 | 40 | 1019.3 |
| 20260902103403 | 30 | 293 | 3.2 | 11.3 | 0.00 | 0.00 | 0.00 | 40 | 1019.3 |
| 20260902103103 | 30 | 309 | 3.2 | 11.3 | 0.00 | 0.00 | 0.00 | 40 | 1019.4 |
| 20260902103025 | 29 | 272 | 3.2 | 11.3 | 0.00 | 0.00 | 0.00 | 40 | 1019.7 |
| 20260902103003 | 30 | 325 | 3.2 | 11.3 | 0.00 | 0.00 | 0.00 | 40 | 1019.4 |
| 20260902102916 | 30 | 330 | 3.2 | 11.3 | 0.00 | 0.00 | 0.00 | 40 | 1019.4 |
| 20260902102803 | 30 | 333 | 3.2 | 11.3 | 0.00 | 0.00 | 0.00 | 40 | 1019.4 |
| 20260902102603 | 30 | 339 | 3.2 | 11.3 | 0.00 | 0.00 | 0.00 | 40 | 1019.4 |
| 20260902102513 | 29 | 307 | 4.8 | 11.3 | 0.00 | 0.00 | 0.00 | 40 | 1019.7 |
| 20260902102503 | 30 | 347 | 3.2 | 6.4 | 0.00 | 0.00 | 0.00 | 41 | 1019.5 |
| 20260902102403 | 30 | 346 | 3.2 | 6.4 | 0.00 | 0.00 | 0.00 | 40 | 1019.4 |
| 20260902102307 | 30 | 349 | 3.2 | 6.4 | 0.00 | 0.00 | 0.00 | 40 | 1019.5 |
| 20260902102203 | 30 | 343 | 3.2 | 14.5 | 0.00 | 0.00 | 0.00 | 40 | 1019.5 |
| 20260902102103 | 30 | 328 | 3.2 | 14.5 | 0.00 | 0.00 | 0.00 | 40 | 1019.5 |
| 20260902102014 | 29 | 69 | 1.6 | 12.9 | 0.00 | 0.00 | 0.00 | 40 | 1019.8 |
| 20260902102003 | 30 | 321 | 3.2 | 14.5 | 0.00 | 0.00 | 0.00 | 40 | 1019.5 |
| 20260902101903 | 30 | 311 | 3.2 | 14.5 | 0.00 | 0.00 | 0.00 | 40 | 1019.5 |
| 20260902101803 | 30 | 307 | 3.2 | 14.5 | 0.00 | 0.00 | 0.00 | 40 | 1019.5 |
| 20260902101603 | 30 | 307 | 3.2 | 14.5 | 0.00 | 0.00 | 0.00 | 40 | 1019.5 |
| 20260902101534 | 30 | 323 | 3.2 | 12.9 | 0.00 | 0.00 | 0.00 | 40 | 1019.8 |
| 20260902101503 | 30 | 302 | 3.2 | 14.5 | 0.00 | 0.00 | 0.00 | 40 | 1019.6 |
| 20260902101403 | 30 | 308 | 3.2 | 14.5 | 0.00 | 0.00 | 0.00 | 40 | 1019.6 |
| 20260902101303 | 30 | 308 | 3.2 | 14.5 | 0.00 | 0.00 | 0.00 | 40 | 1019.7 |
| 20260902101203 | 30 | 312 | 3.2 | 14.5 | 0.00 | 0.00 | 0.00 | 41 | 1019.7 |
| 20260902101103 | 30 | 313 | 3.2 | 12.9 | 0.00 | 0.00 | 0.00 | 41 | 1019.7 |
| 20260902101016 | 30 | 298 | 3.2 | 12.9 | 0.00 | 0.00 | 0.00 | 40 | 1020.0 |
| 20260902101003 | 30 | 310 | 3.2 | 12.9 | 0.00 | 0.00 | 0.00 | 41 | 1019.8 |
| 20260902100803 | 30 | 326 | 3.2 | 14.5 | 0.00 | 0.00 | 0.00 | 41 | 1019.8 |
| 20260902100703 | 29 | 322 | 3.2 | 14.5 | 0.00 | 0.00 | 0.00 | 42 | 1019.9 |
| 20260902100603 | 29 | 318 | 3.2 | 14.5 | 0.00 | 0.00 | 0.00 | 42 | 1019.9 |
| 20260902100517 | 29 | 281 | 3.2 | 14.5 | 0.00 | 0.00 | 0.00 | 41 | 1020.2 |
| 20260902100403 | 29 | 323 | 3.2 | 14.5 | 0.00 | 0.00 | 0.00 | 42 | 1019.9 |
| 20260902100303 | 29 | 321 | 3.2 | 14.5 | 0.00 | 0.00 | 0.00 | 42 | 1019.9 |
| 20260902100203 | 29 | 322 | 3.2 | 14.5 | 0.00 | 0.00 | 0.00 | 42 | 1019.9 |
| 20260902100029 | 29 | 290 | 1.6 | 14.5 | 0.00 | 0.00 | 0.00 | 41 | 1020.2 |
| 20260902100003 | 29 | 331 | 3.2 | 14.5 | 0.00 | 0.00 | 0.00 | 41 | 1019.9 |
| 20260902095903 | 29 | 327 | 3.2 | 14.5 | 0.00 | 0.00 | 0.00 | 41 | 1020.0 |
| 20260902095803 | 29 | 330 | 3.2 | 12.9 | 0.00 | 0.00 | 0.00 | 42 | 1020.0 |
| 20260902095703 | 29 | 346 | 3.2 | 11.3 | 0.00 | 0.00 | 0.00 | 42 | 1019.9 |
| 20260902095603 | 29 | 11 | 3.2 | 11.3 | 0.00 | 0.00 | 0.00 | 42 | 1019.9 |
| 20260902095514 | 29 | 342 | 4.8 | 9.7 | 0.00 | 0.00 | 0.00 | 41 | 1020.2 |
| 20260902095503 | 29 | 56 | 3.2 | 8.0 | 0.00 | 0.00 | 0.00 | 42 | 1019.9 |
| 20260902095306 | 29 | 104 | 3.2 | 8.0 | 0.00 | 0.00 | 0.00 | 42 | 1019.9 |
| 20260902095203 | 29 | 117 | 3.2 | 8.0 | 0.00 | 0.00 | 0.00 | 42 | 1019.9 |
| 20260902095103 | 29 | 118 | 3.2 | 8.0 | 0.00 | 0.00 | 0.00 | 42 | 1019.9 |
| 20260902095005 | 28 | 100 | 3.2 | 6.4 | 0.00 | 0.00 | 0.00 | 42 | 1020.2 |
| 20260902095003 | 29 | 118 | 3.2 | 8.0 | 0.00 | 0.00 | 0.00 | 42 | 1020.0 |
| 20260902094803 | 28 | 112 | 3.2 | 8.0 | 0.00 | 0.00 | 0.00 | 42 | 1020.0 |
| 20260902094703 | 28 | 115 | 3.2 | 8.0 | 0.00 | 0.00 | 0.00 | 42 | 1020.0 |
| 20260902094603 | 28 | 105 | 3.2 | 8.0 | 0.00 | 0.00 | 0.00 | 42 | 1020.0 |
| 20260902094516 | 28 | 144 | 3.2 | 6.4 | 0.00 | 0.00 | 0.00 | 42 | 1020.3 |
| 20260902094503 | 28 | 93 | 3.2 | 8.0 | 0.00 | 0.00 | 0.00 | 42 | 1020.0 |
| 20260902094403 | 28 | 75 | 3.2 | 8.0 | 0.00 | 0.00 | 0.00 | 43 | 1020.0 |
| 20260902094303 | 28 | 34 | 3.2 | 8.0 | 0.00 | 0.00 | 0.00 | 43 | 1020.0 |
| 20260902094203 | 28 | 46 | 3.2 | 8.0 | 0.00 | 0.00 | 0.00 | 43 | 1020.0 |
| 20260902094103 | 28 | 11 | 3.2 | 6.4 | 0.00 | 0.00 | 0.00 | 43 | 1020.1 |
| 20260902094009 | 28 | 67 | 0.0 | 4.8 | 0.00 | 0.00 | 0.00 | 42 | 1020.3 |
| 20260902094003 | 28 | 24 | 3.2 | 6.4 | 0.00 | 0.00 | 0.00 | 43 | 1020.1 |
| 20260902093903 | 28 | 11 | 3.2 | 6.4 | 0.00 | 0.00 | 0.00 | 43 | 1020.1 |
| 20260902093703 | 28 | 327 | 3.2 | 8.0 | 0.00 | 0.00 | 0.00 | 43 | 1020.1 |
| 20260902093603 | 28 | 341 | 3.2 | 8.0 | 0.00 | 0.00 | 0.00 | 43 | 1020.1 |
| 20260902093511 | 28 | 11 | 1.6 | 8.0 | 0.00 | 0.00 | 0.00 | 43 | 1020.4 |
| 20260902093503 | 28 | 333 | 3.2 | 8.0 | 0.00 | 0.00 | 0.00 | 43 | 1020.1 |
| 20260902093303 | 28 | 324 | 3.2 | 8.0 | 0.00 | 0.00 | 0.00 | 43 | 1020.1 |
| 20260902093203 | 28 | 324 | 3.2 | 11.3 | 0.00 | 0.00 | 0.00 | 43 | 1020.1 |
| 20260902093117 | 28 | 332 | 3.2 | 11.3 | 0.00 | 0.00 | 0.00 | 44 | 1020.1 |
| 20260902093025 | 28 | 77 | 1.6 | 9.7 | 0.00 | 0.00 | 0.00 | 43 | 1020.4 |
| 20260902093003 | 28 | 326 | 3.2 | 11.3 | 0.00 | 0.00 | 0.00 | 44 | 1020.1 |
| 20260902092703 | 28 | 80 | 3.2 | 11.3 | 0.00 | 0.00 | 0.00 | 44 | 1020.1 |
| 20260902092603 | 28 | 92 | 3.2 | 11.3 | 0.00 | 0.00 | 0.00 | 43 | 1020.1 |
| 20260902092510 | 28 | 311 | 3.2 | 9.7 | 0.00 | 0.00 | 0.00 | 43 | 1020.4 |
| 20260902092503 | 28 | 89 | 3.2 | 11.3 | 0.00 | 0.00 | 0.00 | 43 | 1020.1 |
| 20260902092403 | 28 | 88 | 3.2 | 11.3 | 0.00 | 0.00 | 0.00 | 43 | 1020.2 |
| 20260902092305 | 28 | 83 | 3.2 | 11.3 | 0.00 | 0.00 | 0.00 | 43 | 1020.1 |
| 20260902092203 | 28 | 77 | 3.2 | 11.3 | 0.00 | 0.00 | 0.00 | 43 | 1020.2 |
| 20260902092103 | 28 | 65 | 3.2 | 6.4 | 0.00 | 0.00 | 0.00 | 43 | 1020.2 |
| 20260902092012 | 28 | 122 | 1.6 | 4.8 | 0.00 | 0.00 | 0.00 | 42 | 1020.5 |
| 20260902092003 | 28 | 54 | 3.2 | 4.8 | 0.00 | 0.00 | 0.00 | 43 | 1020.3 |
| 20260902091903 | 28 | 48 | 3.2 | 4.8 | 0.00 | 0.00 | 0.00 | 43 | 1020.3 |
| 20260902091803 | 28 | 37 | 3.2 | 4.8 | 0.00 | 0.00 | 0.00 | 43 | 1020.3 |
| 20260902091703 | 28 | 41 | 3.2 | 4.8 | 0.00 | 0.00 | 0.00 | 42 | 1020.3 |
| 20260902091603 | 28 | 32 | 3.2 | 4.8 | 0.00 | 0.00 | 0.00 | 42 | 1020.3 |
| 20260902091532 | 28 | 360 | 1.6 | 4.8 | 0.00 | 0.00 | 0.00 | 42 | 1020.6 |
| 20260902091503 | 28 | 28 | 3.2 | 4.8 | 0.00 | 0.00 | 0.00 | 42 | 1020.3 |
| 20260902091403 | 28 | 24 | 3.2 | 8.0 | 0.00 | 0.00 | 0.00 | 42 | 1020.3 |
| 20260902091303 | 28 | 7 | 3.2 | 8.0 | 0.00 | 0.00 | 0.00 | 42 | 1020.3 |
| 20260902091203 | 29 | 8 | 3.2 | 8.0 | 0.00 | 0.00 | 0.00 | 42 | 1020.3 |
| 20260902091103 | 28 | 339 | 3.2 | 8.0 | 0.00 | 0.00 | 0.00 | 42 | 1020.3 |
| 20260902091014 | 28 | 95 | 0.0 | 8.0 | 0.00 | 0.00 | 0.00 | 42 | 1020.6 |
| 20260902091003 | 28 | 334 | 3.2 | 8.0 | 0.00 | 0.00 | 0.00 | 42 | 1020.3 |
| 20260902090903 | 28 | 343 | 3.2 | 8.0 | 0.00 | 0.00 | 0.00 | 43 | 1020.3 |
| 20260902090803 | 28 | 338 | 3.2 | 8.0 | 0.00 | 0.00 | 0.00 | 43 | 1020.4 |
| 20260902090703 | 28 | 332 | 3.2 | 8.0 | 0.00 | 0.00 | 0.00 | 43 | 1020.4 |
| 20260902090618 | 28 | 327 | 3.2 | 8.0 | 0.00 | 0.00 | 0.00 | 43 | 1020.4 |
| 20260902090515 | 28 | 317 | 1.6 | 8.0 | 0.00 | 0.00 | 0.00 | 43 | 1020.6 |
| 20260902090503 | 28 | 318 | 3.2 | 8.0 | 0.00 | 0.00 | 0.00 | 43 | 1020.4 |
| 20260902090303 | 28 | 327 | 3.2 | 8.0 | 0.00 | 0.00 | 0.00 | 43 | 1020.4 |
| 20260902090203 | 28 | 325 | 3.2 | 8.0 | 0.00 | 0.00 | 0.00 | 43 | 1020.4 |
| 20260902090032 | 28 | 140 | 1.6 | 6.4 | 0.00 | 0.00 | 0.00 | 43 | 1020.7 |
| 20260902090004 | 28 | 318 | 3.2 | 8.0 | 0.00 | 0.00 | 0.00 | 43 | 1020.4 |
| 20260902085918 | 28 | 316 | 3.2 | 8.0 | 0.00 | 0.00 | 0.00 | 43 | 1020.4 |
| 20260902085803 | 28 | 314 | 3.2 | 8.0 | 0.00 | 0.00 | 0.00 | 43 | 1020.4 |
| 20260902085514 | 28 | 291 | 3.2 | 6.4 | 0.00 | 0.00 | 0.00 | 42 | 1020.7 |
| 20260902085503 | 28 | 347 | 3.2 | 6.4 | 0.00 | 0.00 | 0.00 | 43 | 1020.4 |
| 20260902085403 | 28 | 347 | 3.2 | 6.4 | 0.00 | 0.00 | 0.00 | 43 | 1020.4 |
| 20260902085317 | 28 | 20 | 3.2 | 6.4 | 0.00 | 0.00 | 0.00 | 43 | 1020.4 |
| 20260902085017 | 28 | 140 | 1.6 | 4.8 | 0.00 | 0.00 | 0.00 | 42 | 1020.7 |
| 20260902085003 | 28 | 58 | 3.2 | 6.4 | 0.00 | 0.00 | 0.00 | 42 | 1020.4 |
| 20260902084903 | 28 | 66 | 3.2 | 6.4 | 0.00 | 0.00 | 0.00 | 42 | 1020.4 |
| 20260902084803 | 28 | 72 | 3.2 | 6.4 | 0.00 | 0.00 | 0.00 | 42 | 1020.4 |
| 20260902084703 | 28 | 47 | 3.2 | 6.4 | 0.00 | 0.00 | 0.00 | 42 | 1020.4 |
| 20260902084603 | 29 | 351 | 3.2 | 6.4 | 0.00 | 0.00 | 0.00 | 42 | 1020.4 |
| 20260902084531 | 28 | 5 | 1.6 | 4.8 | 0.00 | 0.00 | 0.00 | 41 | 1020.7 |
| 20260902084403 | 29 | 315 | 3.2 | 4.8 | 0.00 | 0.00 | 0.00 | 42 | 1020.4 |
| 20260902084303 | 29 | 309 | 3.2 | 4.8 | 0.00 | 0.00 | 0.00 | 42 | 1020.4 |
| 20260902084103 | 28 | 314 | 3.2 | 4.8 | 0.00 | 0.00 | 0.00 | 42 | 1020.4 |
| 20260902084005 | 28 | 235 | 0.0 | 4.8 | 0.00 | 0.00 | 0.00 | 41 | 1020.7 |
| 20260902084003 | 28 | 315 | 3.2 | 4.8 | 0.00 | 0.00 | 0.00 | 42 | 1020.5 |
| 20260902083903 | 28 | 313 | 3.2 | 4.8 | 0.00 | 0.00 | 0.00 | 42 | 1020.4 |
| 20260902083803 | 28 | 310 | 3.2 | 4.8 | 0.00 | 0.00 | 0.00 | 42 | 1020.4 |
| 20260902083703 | 28 | 309 | 3.2 | 4.8 | 0.00 | 0.00 | 0.00 | 42 | 1020.4 |
| 20260902083603 | 28 | 308 | 3.2 | 4.8 | 0.00 | 0.00 | 0.00 | 42 | 1020.4 |
| 20260902083510 | 28 | 315 | 1.6 | 4.8 | 0.00 | 0.00 | 0.00 | 41 | 1020.7 |
| 20260902083403 | 29 | 297 | 3.2 | 6.4 | 0.00 | 0.00 | 0.00 | 42 | 1020.4 |
| 20260902083303 | 28 | 305 | 3.2 | 6.4 | 0.00 | 0.00 | 0.00 | 42 | 1020.4 |
| 20260902083203 | 28 | 309 | 3.2 | 6.4 | 0.00 | 0.00 | 0.00 | 42 | 1020.4 |
| 20260902083019 | 28 | 316 | 1.6 | 6.4 | 0.00 | 0.00 | 0.00 | 41 | 1020.7 |
| 20260902083003 | 28 | 343 | 3.2 | 6.4 | 0.00 | 0.00 | 0.00 | 42 | 1020.4 |
| 20260902082903 | 28 | 349 | 3.2 | 6.4 | 0.00 | 0.00 | 0.00 | 42 | 1020.4 |
| 20260902082803 | 28 | 18 | 3.2 | 6.4 | 0.00 | 0.00 | 0.00 | 42 | 1020.5 |
| 20260902082703 | 28 | 77 | 3.2 | 6.4 | 0.00 | 0.00 | 0.00 | 43 | 1020.5 |
| 20260902082603 | 28 | 65 | 3.2 | 6.4 | 0.00 | 0.00 | 0.00 | 43 | 1020.4 |
| 20260902082510 | 28 | 176 | 1.6 | 6.4 | 0.00 | 0.00 | 0.00 | 42 | 1020.7 |
| 20260902082503 | 28 | 50 | 3.2 | 6.4 | 0.00 | 0.00 | 0.00 | 43 | 1020.4 |
| 20260902082308 | 28 | 30 | 3.2 | 6.4 | 0.00 | 0.00 | 0.00 | 43 | 1020.4 |
| 20260902082203 | 28 | 79 | 3.2 | 6.4 | 0.00 | 0.00 | 0.00 | 43 | 1020.5 |
| 20260902082103 | 28 | 88 | 3.2 | 6.4 | 0.00 | 0.00 | 0.00 | 43 | 1020.4 |
| 20260902082012 | 28 | 348 | 1.6 | 6.4 | 0.00 | 0.00 | 0.00 | 42 | 1020.7 |
| 20260902082003 | 28 | 107 | 3.2 | 6.4 | 0.00 | 0.00 | 0.00 | 43 | 1020.4 |
| 20260902081903 | 28 | 126 | 3.2 | 6.4 | 0.00 | 0.00 | 0.00 | 43 | 1020.4 |
| 20260902081803 | 28 | 137 | 3.2 | 6.4 | 0.00 | 0.00 | 0.00 | 43 | 1020.4 |
| 20260902081603 | 28 | 100 | 3.2 | 6.4 | 0.00 | 0.00 | 0.00 | 42 | 1020.4 |
| 20260902081529 | 28 | 281 | 1.6 | 6.4 | 0.00 | 0.00 | 0.00 | 42 | 1020.7 |
| 20260902081503 | 28 | 80 | 3.2 | 6.4 | 0.00 | 0.00 | 0.00 | 42 | 1020.4 |
| 20260902081403 | 28 | 87 | 3.2 | 6.4 | 0.00 | 0.00 | 0.00 | 42 | 1020.4 |
| 20260902081203 | 28 | 347 | 3.2 | 6.4 | 0.00 | 0.00 | 0.00 | 42 | 1020.4 |
| 20260902081103 | 28 | 314 | 3.2 | 6.4 | 0.00 | 0.00 | 0.00 | 42 | 1020.4 |
| 20260902081012 | 28 | 259 | 1.6 | 6.4 | 0.00 | 0.00 | 0.00 | 42 | 1020.7 |
| 20260902081003 | 28 | 331 | 3.2 | 6.4 | 0.00 | 0.00 | 0.00 | 42 | 1020.5 |
| 20260902080903 | 28 | 339 | 3.2 | 6.4 | 0.00 | 0.00 | 0.00 | 42 | 1020.4 |
| 20260902080803 | 28 | 332 | 3.2 | 6.4 | 0.00 | 0.00 | 0.00 | 42 | 1020.5 |
| 20260902080703 | 28 | 335 | 3.2 | 6.4 | 0.00 | 0.00 | 0.00 | 42 | 1020.5 |
| 20260902080513 | 28 | 30 | 1.6 | 4.8 | 0.00 | 0.00 | 0.00 | 41 | 1020.8 |
| 20260902080403 | 28 | 313 | 3.2 | 6.4 | 0.00 | 0.00 | 0.00 | 41 | 1020.5 |
| 20260902080303 | 28 | 305 | 3.2 | 6.4 | 0.00 | 0.00 | 0.00 | 41 | 1020.5 |
| 20260902080203 | 28 | 312 | 3.2 | 6.4 | 0.00 | 0.00 | 0.00 | 41 | 1020.6 |
| 20260902080103 | 28 | 317 | 3.2 | 6.4 | 0.00 | 0.00 | 0.00 | 41 | 1020.6 |
| 20260902080030 | 28 | 319 | 1.6 | 4.8 | 0.00 | 0.00 | 0.00 | 41 | 1020.8 |
| 20260902080003 | 28 | 312 | 3.2 | 6.4 | 0.00 | 0.00 | 0.00 | 41 | 1020.6 |
| 20260902075903 | 28 | 302 | 3.2 | 6.4 | 0.00 | 0.00 | 0.00 | 41 | 1020.6 |
| 20260902075703 | 28 | 298 | 3.2 | 6.4 | 0.00 | 0.00 | 0.00 | 41 | 1020.6 |
| 20260902075603 | 28 | 286 | 3.2 | 6.4 | 0.00 | 0.00 | 0.00 | 42 | 1020.6 |
| 20260902075514 | 28 | 271 | 1.6 | 8.0 | 0.00 | 0.00 | 0.00 | 41 | 1020.9 |
| 20260902075403 | 28 | 291 | 3.2 | 6.4 | 0.00 | 0.00 | 0.00 | 42 | 1020.6 |
| 20260902075306 | 28 | 298 | 3.2 | 9.7 | 0.00 | 0.00 | 0.00 | 42 | 1020.7 |
| 20260902075203 | 28 | 299 | 3.2 | 9.7 | 0.00 | 0.00 | 0.00 | 42 | 1020.7 |
| 20260902075103 | 28 | 297 | 3.2 | 9.7 | 0.00 | 0.00 | 0.00 | 42 | 1020.6 |
| 20260902075014 | 27 | 264 | 1.6 | 8.0 | 0.00 | 0.00 | 0.00 | 42 | 1020.9 |
| 20260902075003 | 28 | 300 | 3.2 | 9.7 | 0.00 | 0.00 | 0.00 | 42 | 1020.7 |
| 20260902074903 | 27 | 311 | 3.2 | 9.7 | 0.00 | 0.00 | 0.00 | 42 | 1020.6 |
| 20260902074803 | 27 | 310 | 3.2 | 9.7 | 0.00 | 0.00 | 0.00 | 42 | 1020.7 |
| 20260902074703 | 27 | 311 | 3.2 | 9.7 | 0.00 | 0.00 | 0.00 | 42 | 1020.6 |
| 20260902074603 | 27 | 317 | 3.2 | 9.7 | 0.00 | 0.00 | 0.00 | 42 | 1020.6 |
| 20260902074531 | 27 | 275 | 1.6 | 8.0 | 0.00 | 0.00 | 0.00 | 41 | 1020.9 |
| 20260902074503 | 27 | 321 | 3.2 | 9.7 | 0.00 | 0.00 | 0.00 | 42 | 1020.6 |
| 20260902074403 | 28 | 323 | 3.2 | 9.7 | 0.00 | 0.00 | 0.00 | 42 | 1020.6 |
| 20260902074303 | 28 | 336 | 3.2 | 9.7 | 0.00 | 0.00 | 0.00 | 42 | 1020.6 |
| 20260902074203 | 28 | 339 | 3.2 | 6.4 | 0.00 | 0.00 | 0.00 | 42 | 1020.6 |
| 20260902074103 | 28 | 351 | 3.2 | 4.8 | 0.00 | 0.00 | 0.00 | 42 | 1020.6 |
| 20260902074015 | 27 | 315 | 1.6 | 4.8 | 0.00 | 0.00 | 0.00 | 41 | 1020.8 |
| 20260902074003 | 28 | 349 | 3.2 | 4.8 | 0.00 | 0.00 | 0.00 | 42 | 1020.5 |
| 20260902073903 | 28 | 334 | 3.2 | 4.8 | 0.00 | 0.00 | 0.00 | 42 | 1020.6 |
| 20260902073803 | 28 | 317 | 3.2 | 4.8 | 0.00 | 0.00 | 0.00 | 42 | 1020.5 |
| 20260902073703 | 27 | 316 | 3.2 | 11.3 | 0.00 | 0.00 | 0.00 | 42 | 1020.5 |
| 20260902073603 | 27 | 322 | 3.2 | 11.3 | 0.00 | 0.00 | 0.00 | 42 | 1020.5 |
| 20260902073514 | 27 | 337 | 1.6 | 6.4 | 0.00 | 0.00 | 0.00 | 42 | 1020.8 |
| 20260902073503 | 27 | 317 | 3.2 | 11.3 | 0.00 | 0.00 | 0.00 | 42 | 1020.5 |
| 20260902073403 | 27 | 302 | 3.2 | 11.3 | 0.00 | 0.00 | 0.00 | 42 | 1020.5 |
| 20260902073303 | 27 | 296 | 3.2 | 11.3 | 0.00 | 0.00 | 0.00 | 42 | 1020.5 |
| 20260902073203 | 27 | 282 | 3.2 | 11.3 | 0.00 | 0.00 | 0.00 | 42 | 1020.5 |
| 20260902073103 | 27 | 274 | 3.2 | 11.3 | 0.00 | 0.00 | 0.00 | 43 | 1020.5 |
| 20260902073016 | 27 | 319 | 1.6 | 11.3 | 0.00 | 0.00 | 0.00 | 42 | 1020.8 |
| 20260902073003 | 27 | 271 | 3.2 | 11.3 | 0.00 | 0.00 | 0.00 | 43 | 1020.5 |
| 20260902072903 | 27 | 273 | 3.2 | 11.3 | 0.00 | 0.00 | 0.00 | 43 | 1020.5 |
| 20260902072703 | 27 | 272 | 3.2 | 11.3 | 0.00 | 0.00 | 0.00 | 43 | 1020.5 |
| 20260902072603 | 27 | 271 | 3.2 | 9.7 | 0.00 | 0.00 | 0.00 | 44 | 1020.5 |
| 20260902072510 | 27 | 301 | 3.2 | 8.0 | 0.00 | 0.00 | 0.00 | 43 | 1020.8 |
| 20260902072503 | 27 | 269 | 3.2 | 8.0 | 0.00 | 0.00 | 0.00 | 44 | 1020.6 |
| 20260902072403 | 27 | 273 | 3.2 | 8.0 | 0.00 | 0.00 | 0.00 | 44 | 1020.6 |
| 20260902072309 | 27 | 260 | 3.2 | 8.0 | 0.00 | 0.00 | 0.00 | 44 | 1020.6 |
| 20260902072203 | 27 | 271 | 3.2 | 8.0 | 0.00 | 0.00 | 0.00 | 44 | 1020.6 |
| 20260902072103 | 26 | 283 | 3.2 | 8.0 | 0.00 | 0.00 | 0.00 | 44 | 1020.6 |
| 20260902072007 | 26 | 289 | 1.6 | 6.4 | 0.00 | 0.00 | 0.00 | 44 | 1020.9 |
| 20260902072003 | 26 | 283 | 3.2 | 6.4 | 0.00 | 0.00 | 0.00 | 44 | 1020.6 |
| 20260902071903 | 26 | 281 | 3.2 | 6.4 | 0.00 | 0.00 | 0.00 | 44 | 1020.6 |
| 20260902071803 | 26 | 306 | 3.2 | 6.4 | 0.00 | 0.00 | 0.00 | 44 | 1020.6 |
| 20260902071703 | 26 | 296 | 3.2 | 6.4 | 0.00 | 0.00 | 0.00 | 44 | 1020.6 |
| 20260902071524 | 26 | 319 | 0.0 | 6.4 | 0.00 | 0.00 | 0.00 | 44 | 1020.9 |
| 20260902071503 | 26 | 302 | 3.2 | 6.4 | 0.00 | 0.00 | 0.00 | 44 | 1020.6 |
| 20260902071403 | 26 | 313 | 3.2 | 6.4 | 0.00 | 0.00 | 0.00 | 44 | 1020.6 |
| 20260902071303 | 26 | 318 | 3.2 | 6.4 | 0.00 | 0.00 | 0.00 | 44 | 1020.6 |
| 20260902071203 | 26 | 331 | 3.2 | 6.4 | 0.00 | 0.00 | 0.00 | 45 | 1020.6 |
| 20260902071103 | 26 | 330 | 3.2 | 4.8 | 0.00 | 0.00 | 0.00 | 45 | 1020.6 |
| 20260902071012 | 26 | 288 | 1.6 | 3.2 | 0.00 | 0.00 | 0.00 | 44 | 1020.9 |
| 20260902071003 | 26 | 4 | 3.2 | 3.2 | 0.00 | 0.00 | 0.00 | 45 | 1020.6 |
| 20260902070903 | 26 | 347 | 3.2 | 9.7 | 0.00 | 0.00 | 0.00 | 45 | 1020.5 |
| 20260902070803 | 26 | 335 | 3.2 | 9.7 | 0.00 | 0.00 | 0.00 | 45 | 1020.6 |
| 20260902070703 | 26 | 331 | 3.2 | 9.7 | 0.00 | 0.00 | 0.00 | 45 | 1020.6 |
| 20260902070603 | 26 | 327 | 3.2 | 9.7 | 0.00 | 0.00 | 0.00 | 45 | 1020.6 |
| 20260902070513 | 26 | 309 | 1.6 | 8.0 | 0.00 | 0.00 | 0.00 | 45 | 1020.8 |
| 20260902070503 | 26 | 330 | 3.2 | 9.7 | 0.00 | 0.00 | 0.00 | 45 | 1020.6 |
| 20260902070203 | 26 | 324 | 3.2 | 9.7 | 0.00 | 0.00 | 0.00 | 44 | 1020.6 |
| 20260902070028 | 26 | 95 | 3.2 | 8.0 | 0.00 | 0.00 | 0.00 | 44 | 1020.8 |
| 20260902070004 | 26 | 316 | 3.2 | 9.7 | 0.00 | 0.00 | 0.00 | 44 | 1020.6 |
| 20260902065903 | 26 | 312 | 3.2 | 9.7 | 0.00 | 0.00 | 0.00 | 44 | 1020.6 |
| 20260902065803 | 26 | 301 | 3.2 | 6.4 | 0.00 | 0.00 | 0.00 | 44 | 1020.5 |
| 20260902065703 | 26 | 292 | 3.2 | 9.7 | 0.00 | 0.00 | 0.00 | 44 | 1020.6 |
| 20260902065603 | 27 | 286 | 3.2 | 9.7 | 0.00 | 0.00 | 0.00 | 44 | 1020.5 |
| 20260902065516 | 26 | 341 | 1.6 | 9.7 | 0.00 | 0.00 | 0.00 | 43 | 1020.8 |
| 20260902065503 | 26 | 293 | 3.2 | 9.7 | 0.00 | 0.00 | 0.00 | 44 | 1020.6 |
| 20260902065403 | 26 | 294 | 3.2 | 9.7 | 0.00 | 0.00 | 0.00 | 44 | 1020.6 |
| 20260902065306 | 26 | 284 | 3.2 | 9.7 | 0.00 | 0.00 | 0.00 | 44 | 1020.6 |
| 20260902065203 | 26 | 287 | 3.2 | 9.7 | 0.00 | 0.00 | 0.00 | 44 | 1020.5 |
| 20260902065103 | 26 | 286 | 3.2 | 9.7 | 0.00 | 0.00 | 0.00 | 44 | 1020.5 |
| 20260902065014 | 26 | 305 | 1.6 | 9.7 | 0.00 | 0.00 | 0.00 | 43 | 1020.8 |
| 20260902065003 | 26 | 291 | 3.2 | 9.7 | 0.00 | 0.00 | 0.00 | 44 | 1020.5 |
| 20260902064903 | 26 | 295 | 3.2 | 9.7 | 0.00 | 0.00 | 0.00 | 44 | 1020.6 |
| 20260902064803 | 27 | 295 | 3.2 | 9.7 | 0.00 | 0.00 | 0.00 | 43 | 1020.6 |
| 20260902064703 | 27 | 299 | 3.2 | 9.7 | 0.00 | 0.00 | 0.00 | 43 | 1020.6 |
| 20260902064603 | 27 | 302 | 3.2 | 6.4 | 0.00 | 0.00 | 0.00 | 43 | 1020.5 |
| 20260902064529 | 26 | 336 | 3.2 | 6.4 | 0.00 | 0.00 | 0.00 | 43 | 1020.8 |
| 20260902064503 | 27 | 288 | 3.2 | 6.4 | 0.00 | 0.00 | 0.00 | 43 | 1020.5 |
| 20260902064403 | 27 | 296 | 3.2 | 6.4 | 0.00 | 0.00 | 0.00 | 43 | 1020.5 |
| 20260902064303 | 27 | 312 | 3.2 | 6.4 | 0.00 | 0.00 | 0.00 | 43 | 1020.5 |
| 20260902064203 | 27 | 300 | 3.2 | 6.4 | 0.00 | 0.00 | 0.00 | 43 | 1020.5 |
| 20260902064103 | 27 | 297 | 3.2 | 6.4 | 0.00 | 0.00 | 0.00 | 43 | 1020.5 |
| 20260902064014 | 26 | 14 | 3.2 | 6.4 | 0.00 | 0.00 | 0.00 | 43 | 1020.8 |
| 20260902063903 | 26 | 295 | 3.2 | 9.7 | 0.00 | 0.00 | 0.00 | 44 | 1020.5 |
| 20260902063803 | 26 | 296 | 3.2 | 9.7 | 0.00 | 0.00 | 0.00 | 44 | 1020.5 |
| 20260902063517 | 26 | 254 | 0.0 | 9.7 | 0.00 | 0.00 | 0.00 | 43 | 1020.7 |
| 20260902063503 | 26 | 278 | 3.2 | 9.7 | 0.00 | 0.00 | 0.00 | 44 | 1020.4 |
| 20260902063403 | 26 | 276 | 3.2 | 9.7 | 0.00 | 0.00 | 0.00 | 44 | 1020.4 |
| 20260902063303 | 26 | 270 | 3.2 | 9.7 | 0.00 | 0.00 | 0.00 | 44 | 1020.4 |
| 20260902063203 | 26 | 268 | 3.2 | 9.7 | 0.00 | 0.00 | 0.00 | 44 | 1020.4 |
| 20260902063103 | 26 | 256 | 3.2 | 9.7 | 0.00 | 0.00 | 0.00 | 44 | 1020.5 |
| 20260902063033 | 26 | 99 | 1.6 | 9.7 | 0.00 | 0.00 | 0.00 | 44 | 1020.7 |
| 20260902063003 | 26 | 268 | 3.2 | 9.7 | 0.00 | 0.00 | 0.00 | 44 | 1020.4 |
| 20260902062903 | 26 | 267 | 3.2 | 9.7 | 0.00 | 0.00 | 0.00 | 44 | 1020.4 |
| 20260902062803 | 26 | 272 | 3.2 | 6.4 | 0.00 | 0.00 | 0.00 | 44 | 1020.4 |
| 20260902062703 | 26 | 264 | 3.2 | 6.4 | 0.00 | 0.00 | 0.00 | 45 | 1020.4 |
| 20260902062603 | 26 | 293 | 3.2 | 6.4 | 0.00 | 0.00 | 0.00 | 45 | 1020.4 |
| 20260902062516 | 26 | 22 | 0.0 | 6.4 | 0.00 | 0.00 | 0.00 | 44 | 1020.7 |
| 20260902062305 | 26 | 301 | 3.2 | 6.4 | 0.00 | 0.00 | 0.00 | 45 | 1020.4 |
| 20260902062203 | 26 | 301 | 3.2 | 6.4 | 0.00 | 0.00 | 0.00 | 45 | 1020.4 |
| 20260902062103 | 26 | 313 | 3.2 | 6.4 | 0.00 | 0.00 | 0.00 | 45 | 1020.4 |
| 20260902062006 | 26 | 319 | 1.6 | 6.4 | 0.00 | 0.00 | 0.00 | 45 | 1020.7 |
| 20260902062003 | 26 | 309 | 3.2 | 6.4 | 0.00 | 0.00 | 0.00 | 45 | 1020.4 |
| 20260902061903 | 26 | 306 | 3.2 | 6.4 | 0.00 | 0.00 | 0.00 | 45 | 1020.4 |
| 20260902061803 | 26 | 303 | 3.2 | 4.8 | 0.00 | 0.00 | 0.00 | 46 | 1020.4 |
| 20260902061703 | 26 | 309 | 3.2 | 4.8 | 0.00 | 0.00 | 0.00 | 45 | 1020.4 |
| 20260902061603 | 26 | 313 | 3.2 | 4.8 | 0.00 | 0.00 | 0.00 | 46 | 1020.4 |
| 20260902061535 | 25 | 311 | 1.6 | 4.8 | 0.00 | 0.00 | 0.00 | 45 | 1020.7 |
| 20260902061303 | 26 | 297 | 3.2 | 6.4 | 0.00 | 0.00 | 0.00 | 46 | 1020.4 |
| 20260902061203 | 26 | 292 | 3.2 | 6.4 | 0.00 | 0.00 | 0.00 | 46 | 1020.3 |
| 20260902061103 | 25 | 295 | 3.2 | 6.4 | 0.00 | 0.00 | 0.00 | 46 | 1020.4 |
| 20260902061014 | 25 | 221 | 0.0 | 6.4 | 0.00 | 0.00 | 0.00 | 45 | 1020.6 |
| 20260902061003 | 25 | 300 | 3.2 | 6.4 | 0.00 | 0.00 | 0.00 | 46 | 1020.4 |
| 20260902060903 | 25 | 304 | 3.2 | 6.4 | 0.00 | 0.00 | 0.00 | 46 | 1020.4 |
| 20260902060803 | 25 | 306 | 3.2 | 6.4 | 0.00 | 0.00 | 0.00 | 46 | 1020.4 |
| 20260902060703 | 25 | 300 | 3.2 | 6.4 | 0.00 | 0.00 | 0.00 | 46 | 1020.4 |
| 20260902060603 | 25 | 291 | 3.2 | 6.4 | 0.00 | 0.00 | 0.00 | 46 | 1020.4 |
| 20260902060512 | 25 | 296 | 1.6 | 6.4 | 0.00 | 0.00 | 0.00 | 46 | 1020.7 |
| 20260902060503 | 25 | 291 | 3.2 | 6.4 | 0.00 | 0.00 | 0.00 | 46 | 1020.4 |
| 20260902060403 | 25 | 292 | 3.2 | 4.8 | 0.00 | 0.00 | 0.00 | 47 | 1020.4 |
| 20260902060303 | 25 | 287 | 3.2 | 6.4 | 0.00 | 0.00 | 0.00 | 47 | 1020.4 |
| 20260902060203 | 25 | 288 | 3.2 | 6.4 | 0.00 | 0.00 | 0.00 | 47 | 1020.4 |
| 20260902060026 | 25 | 328 | 1.6 | 6.4 | 0.00 | 0.00 | 0.00 | 47 | 1020.7 |
| 20260902060003 | 25 | 281 | 3.2 | 6.4 | 0.00 | 0.00 | 0.00 | 47 | 1020.4 |
| 20260902055903 | 25 | 274 | 3.2 | 6.4 | 0.00 | 0.00 | 0.00 | 47 | 1020.4 |
| 20260902055803 | 25 | 276 | 3.2 | 6.4 | 0.00 | 0.00 | 0.00 | 47 | 1020.4 |
| 20260902055703 | 25 | 280 | 3.2 | 6.4 | 0.00 | 0.00 | 0.00 | 47 | 1020.4 |
| 20260902055603 | 25 | 287 | 3.2 | 6.4 | 0.00 | 0.00 | 0.00 | 47 | 1020.4 |
| 20260902055518 | 25 | 288 | 1.6 | 6.4 | 0.00 | 0.00 | 0.00 | 47 | 1020.7 |
| 20260902055503 | 25 | 292 | 3.2 | 6.4 | 0.00 | 0.00 | 0.00 | 48 | 1020.4 |
| 20260902055403 | 25 | 294 | 3.2 | 6.4 | 0.00 | 0.00 | 0.00 | 48 | 1020.5 |
| 20260902055306 | 25 | 306 | 3.2 | 6.4 | 0.00 | 0.00 | 0.00 | 48 | 1020.4 |
| 20260902055203 | 25 | 309 | 3.2 | 6.4 | 0.00 | 0.00 | 0.00 | 48 | 1020.4 |
| 20260902055103 | 25 | 312 | 3.2 | 4.8 | 0.00 | 0.00 | 0.00 | 48 | 1020.4 |
| 20260902055016 | 24 | 265 | 1.6 | 4.8 | 0.00 | 0.00 | 0.00 | 47 | 1020.7 |
| 20260902055003 | 25 | 322 | 3.2 | 4.8 | 0.00 | 0.00 | 0.00 | 48 | 1020.4 |
| 20260902054903 | 25 | 323 | 3.2 | 4.8 | 0.00 | 0.00 | 0.00 | 48 | 1020.4 |
| 20260902054703 | 24 | 323 | 3.2 | 4.8 | 0.00 | 0.00 | 0.00 | 48 | 1020.5 |
| 20260902054603 | 24 | 323 | 3.2 | 4.8 | 0.00 | 0.00 | 0.00 | 48 | 1020.4 |
| 20260902054532 | 24 | 338 | 1.6 | 9.7 | 0.00 | 0.00 | 0.00 | 48 | 1020.7 |
| 20260902054503 | 24 | 310 | 3.2 | 4.8 | 0.00 | 0.00 | 0.00 | 49 | 1020.5 |
| 20260902054403 | 24 | 322 | 3.2 | 6.4 | 0.00 | 0.00 | 0.00 | 49 | 1020.5 |
| 20260902054303 | 24 | 310 | 3.2 | 6.4 | 0.00 | 0.00 | 0.00 | 49 | 1020.5 |
| 20260902054203 | 24 | 315 | 3.2 | 6.4 | 0.00 | 0.00 | 0.00 | 49 | 1020.5 |
| 20260902054103 | 24 | 316 | 3.2 | 6.4 | 0.00 | 0.00 | 0.00 | 49 | 1020.4 |
| 20260902054019 | 23 | 293 | 0.0 | 9.7 | 0.00 | 0.00 | 0.00 | 48 | 1020.7 |
| 20260902054003 | 24 | 311 | 3.2 | 11.3 | 0.00 | 0.00 | 0.00 | 49 | 1020.5 |
| 20260902053903 | 24 | 316 | 3.2 | 11.3 | 0.00 | 0.00 | 0.00 | 49 | 1020.4 |
| 20260902053603 | 24 | 311 | 3.2 | 11.3 | 0.00 | 0.00 | 0.00 | 49 | 1020.5 |
| 20260902053518 | 23 | 272 | 3.2 | 11.3 | 0.00 | 0.00 | 0.00 | 49 | 1020.8 |
| 20260902053503 | 24 | 313 | 3.2 | 11.3 | 0.00 | 0.00 | 0.00 | 49 | 1020.5 |
| 20260902053318 | 24 | 310 | 3.2 | 11.3 | 0.00 | 0.00 | 0.00 | 49 | 1020.5 |
| 20260902053203 | 24 | 306 | 3.2 | 11.3 | 0.00 | 0.00 | 0.00 | 49 | 1020.5 |
| 20260902053033 | 23 | 277 | 3.2 | 11.3 | 0.00 | 0.00 | 0.00 | 49 | 1020.7 |
| 20260902053003 | 24 | 310 | 3.2 | 11.3 | 0.00 | 0.00 | 0.00 | 50 | 1020.5 |
| 20260902052903 | 24 | 298 | 3.2 | 4.8 | 0.00 | 0.00 | 0.00 | 50 | 1020.5 |
| 20260902052803 | 23 | 299 | 3.2 | 4.8 | 0.00 | 0.00 | 0.00 | 50 | 1020.5 |
| 20260902052703 | 23 | 306 | 3.2 | 4.8 | 0.00 | 0.00 | 0.00 | 50 | 1020.5 |
| 20260902052603 | 23 | 304 | 3.2 | 4.8 | 0.00 | 0.00 | 0.00 | 50 | 1020.5 |
| 20260902052517 | 23 | 294 | 1.6 | 4.8 | 0.00 | 0.00 | 0.00 | 49 | 1020.7 |
| 20260902052503 | 23 | 308 | 3.2 | 4.8 | 0.00 | 0.00 | 0.00 | 50 | 1020.5 |
| 20260902052403 | 23 | 309 | 3.2 | 4.8 | 0.00 | 0.00 | 0.00 | 50 | 1020.5 |
| 20260902052306 | 23 | 309 | 3.2 | 4.8 | 0.00 | 0.00 | 0.00 | 50 | 1020.5 |
| 20260902052103 | 23 | 311 | 3.2 | 4.8 | 0.00 | 0.00 | 0.00 | 50 | 1020.5 |
| 20260902052014 | 23 | 331 | 1.6 | 4.8 | 0.00 | 0.00 | 0.00 | 50 | 1020.8 |
| 20260902052003 | 23 | 309 | 3.2 | 3.2 | 0.00 | 0.00 | 0.00 | 51 | 1020.5 |
| 20260902051903 | 23 | 312 | 3.2 | 3.2 | 0.00 | 0.00 | 0.00 | 51 | 1020.5 |
| 20260902051817 | 23 | 312 | 3.2 | 3.2 | 0.00 | 0.00 | 0.00 | 51 | 1020.4 |
| 20260902051703 | 23 | 316 | 3.2 | 3.2 | 0.00 | 0.00 | 0.00 | 51 | 1020.5 |
| 20260902051534 | 23 | 320 | 0.0 | 3.2 | 0.00 | 0.00 | 0.00 | 51 | 1020.8 |
| 20260902051503 | 23 | 283 | 3.2 | 4.8 | 0.00 | 0.00 | 0.00 | 52 | 1020.5 |
| 20260902051403 | 23 | 274 | 3.2 | 4.8 | 0.00 | 0.00 | 0.00 | 52 | 1020.5 |
| 20260902051103 | 23 | 276 | 3.2 | 4.8 | 0.00 | 0.00 | 0.00 | 52 | 1020.5 |
| 20260902051010 | 23 | 279 | 0.0 | 4.8 | 0.00 | 0.00 | 0.00 | 52 | 1020.8 |
| 20260902051003 | 23 | 263 | 3.2 | 4.8 | 0.00 | 0.00 | 0.00 | 52 | 1020.5 |
| 20260902050903 | 23 | 250 | 3.2 | 4.8 | 0.00 | 0.00 | 0.00 | 53 | 1020.5 |
| 20260902050803 | 23 | 250 | 3.2 | 4.8 | 0.00 | 0.00 | 0.00 | 53 | 1020.5 |
| 20260902050703 | 23 | 259 | 3.2 | 4.8 | 0.00 | 0.00 | 0.00 | 53 | 1020.5 |
| 20260902050603 | 23 | 262 | 3.2 | 4.8 | 0.00 | 0.00 | 0.00 | 53 | 1020.5 |
| 20260902050514 | 22 | 286 | 1.6 | 4.8 | 0.00 | 0.00 | 0.00 | 53 | 1020.7 |
| 20260902050504 | 22 | 259 | 3.2 | 4.8 | 0.00 | 0.00 | 0.00 | 53 | 1020.5 |
| 20260902050403 | 22 | 262 | 3.2 | 3.2 | 0.00 | 0.00 | 0.00 | 54 | 1020.5 |
| 20260902050303 | 22 | 255 | 3.2 | 3.2 | 0.00 | 0.00 | 0.00 | 54 | 1020.5 |
| 20260902050203 | 22 | 214 | 3.2 | 3.2 | 0.00 | 0.00 | 0.00 | 55 | 1020.5 |
| 20260902050058 | 22 | 114 | 0.0 | 3.2 | 0.00 | 0.00 | 0.00 | 54 | 1020.7 |
| 20260902050005 | 22 | 274 | 3.2 | 3.2 | 0.00 | 0.00 | 0.00 | 55 | 1020.5 |
| 20260902045903 | 22 | 285 | 3.2 | 6.4 | 0.00 | 0.00 | 0.00 | 55 | 1020.5 |
| 20260902045803 | 22 | 279 | 3.2 | 6.4 | 0.00 | 0.00 | 0.00 | 55 | 1020.5 |
| 20260902045703 | 22 | 284 | 3.2 | 6.4 | 0.00 | 0.00 | 0.00 | 55 | 1020.5 |
| 20260902045603 | 22 | 279 | 3.2 | 6.4 | 0.00 | 0.00 | 0.00 | 55 | 1020.5 |
| 20260902045514 | 22 | 256 | 0.0 | 6.4 | 0.00 | 0.00 | 0.00 | 55 | 1020.7 |
| 20260902045503 | 22 | 283 | 3.2 | 6.4 | 0.00 | 0.00 | 0.00 | 56 | 1020.5 |
| 20260902045403 | 22 | 284 | 3.2 | 6.4 | 0.00 | 0.00 | 0.00 | 56 | 1020.4 |
| 20260902045306 | 22 | 284 | 3.2 | 6.4 | 0.00 | 0.00 | 0.00 | 56 | 1020.4 |
| 20260902045203 | 22 | 284 | 3.2 | 6.4 | 0.00 | 0.00 | 0.00 | 56 | 1020.4 |
| 20260902045103 | 22 | 282 | 3.2 | 6.4 | 0.00 | 0.00 | 0.00 | 56 | 1020.4 |
| 20260902045015 | 21 | 346 | 1.6 | 6.4 | 0.00 | 0.00 | 0.00 | 56 | 1020.7 |
| 20260902045003 | 22 | 284 | 3.2 | 6.4 | 0.00 | 0.00 | 0.00 | 56 | 1020.4 |
| 20260902044903 | 22 | 282 | 3.2 | 6.4 | 0.00 | 0.00 | 0.00 | 56 | 1020.4 |
| 20260902044703 | 22 | 283 | 3.2 | 3.2 | 0.00 | 0.00 | 0.00 | 57 | 1020.4 |
| 20260902044603 | 21 | 298 | 3.2 | 3.2 | 0.00 | 0.00 | 0.00 | 57 | 1020.4 |
| 20260902044530 | 21 | 311 | 0.0 | 3.2 | 0.00 | 0.00 | 0.00 | 56 | 1020.7 |
| 20260902044403 | 21 | 271 | 3.2 | 3.2 | 0.00 | 0.00 | 0.00 | 57 | 1020.5 |
| 20260902044303 | 21 | 278 | 3.2 | 3.2 | 0.00 | 0.00 | 0.00 | 58 | 1020.4 |
| 20260902044203 | 21 | 279 | 3.2 | 4.8 | 0.00 | 0.00 | 0.00 | 58 | 1020.4 |
| 20260902044103 | 21 | 289 | 3.2 | 4.8 | 0.00 | 0.00 | 0.00 | 58 | 1020.4 |
| 20260902044018 | 21 | 302 | 0.0 | 4.8 | 0.00 | 0.00 | 0.00 | 57 | 1020.7 |
| 20260902044003 | 21 | 285 | 3.2 | 4.8 | 0.00 | 0.00 | 0.00 | 58 | 1020.4 |
| 20260902043803 | 21 | 285 | 3.2 | 4.8 | 0.00 | 0.00 | 0.00 | 58 | 1020.4 |
| 20260902043703 | 21 | 277 | 3.2 | 4.8 | 0.00 | 0.00 | 0.00 | 59 | 1020.4 |
| 20260902043516 | 21 | 257 | 0.0 | 4.8 | 0.00 | 0.00 | 0.00 | 58 | 1020.7 |
| 20260902043503 | 21 | 286 | 3.2 | 4.8 | 0.00 | 0.00 | 0.00 | 58 | 1020.4 |
| 20260902043403 | 21 | 299 | 3.2 | 4.8 | 0.00 | 0.00 | 0.00 | 59 | 1020.3 |
| 20260902043203 | 21 | 300 | 3.2 | 4.8 | 0.00 | 0.00 | 0.00 | 59 | 1020.4 |
| 20260902043103 | 21 | 277 | 3.2 | 3.2 | 0.00 | 0.00 | 0.00 | 59 | 1020.4 |
| 20260902043041 | 21 | 317 | 0.0 | 3.2 | 0.00 | 0.00 | 0.00 | 59 | 1020.6 |
| 20260902043003 | 21 | 277 | 3.2 | 3.2 | 0.00 | 0.00 | 0.00 | 59 | 1020.4 |
| 20260902042903 | 21 | 277 | 3.2 | 3.2 | 0.00 | 0.00 | 0.00 | 59 | 1020.4 |
| 20260902042803 | 21 | 277 | 3.2 | 3.2 | 0.00 | 0.00 | 0.00 | 60 | 1020.4 |
| 20260902042717 | 21 | 294 | 3.2 | 3.2 | 0.00 | 0.00 | 0.00 | 60 | 1020.3 |
| 20260902042603 | 21 | 292 | 3.2 | 3.2 | 0.00 | 0.00 | 0.00 | 60 | 1020.3 |
| 20260902042520 | 21 | 305 | 0.0 | 3.2 | 0.00 | 0.00 | 0.00 | 59 | 1020.6 |
| 20260902042403 | 21 | 286 | 3.2 | 3.2 | 0.00 | 0.00 | 0.00 | 60 | 1020.3 |
| 20260902042308 | 21 | 296 | 3.2 | 3.2 | 0.00 | 0.00 | 0.00 | 60 | 1020.3 |
| 20260902042203 | 21 | 296 | 3.2 | 3.2 | 0.00 | 0.00 | 0.00 | 60 | 1020.3 |
| 20260902042103 | 21 | 288 | 3.2 | 3.2 | 0.00 | 0.00 | 0.00 | 60 | 1020.3 |
| 20260902042021 | 21 | 288 | 0.0 | 1.6 | 0.00 | 0.00 | 0.00 | 60 | 1020.6 |
| 20260902042003 | 21 | 281 | 3.2 | 3.2 | 0.00 | 0.00 | 0.00 | 60 | 1020.3 |
| 20260902041903 | 21 | 281 | 3.2 | 3.2 | 0.00 | 0.00 | 0.00 | 60 | 1020.3 |
| 20260902041803 | 21 | 281 | 3.2 | 3.2 | 0.00 | 0.00 | 0.00 | 61 | 1020.3 |
| 20260902041703 | 21 | 281 | 3.2 | 3.2 | 0.00 | 0.00 | 0.00 | 61 | 1020.3 |
| 20260902041603 | 21 | 279 | 3.2 | 3.2 | 0.00 | 0.00 | 0.00 | 60 | 1020.4 |
| 20260902041532 | 21 | 304 | 0.0 | 3.2 | 0.00 | 0.00 | 0.00 | 60 | 1020.6 |
| 20260902041504 | 21 | 265 | 3.2 | 3.2 | 0.00 | 0.00 | 0.00 | 61 | 1020.4 |
| 20260902041403 | 21 | 265 | 3.2 | 3.2 | 0.00 | 0.00 | 0.00 | 61 | 1020.3 |
| 20260902041303 | 21 | 265 | 3.2 | 3.2 | 0.00 | 0.00 | 0.00 | 61 | 1020.4 |
| 20260902041203 | 21 | 265 | 3.2 | 3.2 | 0.00 | 0.00 | 0.00 | 61 | 1020.4 |
| 20260902041103 | 21 | 266 | 3.2 | 3.2 | 0.00 | 0.00 | 0.00 | 61 | 1020.4 |
| 20260902041014 | 21 | 265 | 0.0 | 3.2 | 0.00 | 0.00 | 0.00 | 60 | 1020.6 |
| 20260902041003 | 21 | 267 | 3.2 | 3.2 | 0.00 | 0.00 | 0.00 | 61 | 1020.3 |
| 20260902040903 | 21 | 262 | 3.2 | 3.2 | 0.00 | 0.00 | 0.00 | 61 | 1020.3 |
| 20260902040703 | 21 | 271 | 3.2 | 3.2 | 0.00 | 0.00 | 0.00 | 61 | 1020.3 |
| 20260902040603 | 21 | 277 | 3.2 | 3.2 | 0.00 | 0.00 | 0.00 | 61 | 1020.4 |
| 20260902040517 | 21 | 267 | 0.0 | 3.2 | 0.00 | 0.00 | 0.00 | 60 | 1020.6 |
| 20260902040503 | 21 | 278 | 3.2 | 3.2 | 0.00 | 0.00 | 0.00 | 61 | 1020.3 |
| 20260902040403 | 21 | 278 | 3.2 | 3.2 | 0.00 | 0.00 | 0.00 | 61 | 1020.3 |
| 20260902040303 | 21 | 275 | 3.2 | 3.2 | 0.00 | 0.00 | 0.00 | 61 | 1020.4 |
| 20260902040203 | 21 | 275 | 3.2 | 3.2 | 0.00 | 0.00 | 0.00 | 61 | 1020.4 |
| 20260902040023 | 21 | 259 | 0.0 | 3.2 | 0.00 | 0.00 | 0.00 | 60 | 1020.6 |
| 20260902040003 | 21 | 275 | 3.2 | 3.2 | 0.00 | 0.00 | 0.00 | 60 | 1020.4 |
| 20260902035903 | 21 | 277 | 3.2 | 3.2 | 0.00 | 0.00 | 0.00 | 61 | 1020.4 |
| 20260902035803 | 21 | 282 | 3.2 | 3.2 | 0.00 | 0.00 | 0.00 | 61 | 1020.3 |
| 20260902035703 | 21 | 279 | 3.2 | 3.2 | 0.00 | 0.00 | 0.00 | 61 | 1020.4 |
| 20260902035603 | 21 | 276 | 3.2 | 3.2 | 0.00 | 0.00 | 0.00 | 61 | 1020.4 |
| 20260902035513 | 21 | 271 | 0.0 | 3.2 | 0.00 | 0.00 | 0.00 | 60 | 1020.7 |
| 20260902035503 | 21 | 285 | 3.2 | 3.2 | 0.00 | 0.00 | 0.00 | 61 | 1020.4 |
| 20260902035403 | 21 | 288 | 3.2 | 3.2 | 0.00 | 0.00 | 0.00 | 61 | 1020.4 |
| 20260902035305 | 21 | 294 | 3.2 | 3.2 | 0.00 | 0.00 | 0.00 | 61 | 1020.4 |
| 20260902035203 | 21 | 294 | 3.2 | 3.2 | 0.00 | 0.00 | 0.00 | 61 | 1020.4 |
| 20260902035103 | 21 | 294 | 3.2 | 3.2 | 0.00 | 0.00 | 0.00 | 61 | 1020.4 |
| 20260902035011 | 21 | 292 | 0.0 | 3.2 | 0.00 | 0.00 | 0.00 | 60 | 1020.7 |
| 20260902034904 | 21 | 294 | 3.2 | 3.2 | 0.00 | 0.00 | 0.00 | 61 | 1020.4 |
| 20260902034803 | 21 | 294 | 3.2 | 3.2 | 0.00 | 0.00 | 0.00 | 61 | 1020.4 |
| 20260902034703 | 21 | 301 | 3.2 | 3.2 | 0.00 | 0.00 | 0.00 | 60 | 1020.4 |
| 20260902034603 | 21 | 304 | 3.2 | 3.2 | 0.00 | 0.00 | 0.00 | 61 | 1020.4 |
| 20260902034526 | 21 | 296 | 0.0 | 3.2 | 0.00 | 0.00 | 0.00 | 60 | 1020.7 |
| 20260902034503 | 21 | 297 | 3.2 | 3.2 | 0.00 | 0.00 | 0.00 | 61 | 1020.4 |
| 20260902034403 | 21 | 283 | 3.2 | 3.2 | 0.00 | 0.00 | 0.00 | 61 | 1020.4 |
| 20260902034303 | 21 | 281 | 3.2 | 3.2 | 0.00 | 0.00 | 0.00 | 61 | 1020.4 |
| 20260902034203 | 21 | 281 | 3.2 | 3.2 | 0.00 | 0.00 | 0.00 | 61 | 1020.4 |
| 20260902034103 | 21 | 281 | 3.2 | 3.2 | 0.00 | 0.00 | 0.00 | 61 | 1020.4 |
| 20260902034017 | 21 | 340 | 0.0 | 3.2 | 0.00 | 0.00 | 0.00 | 61 | 1020.6 |
| 20260902034003 | 21 | 281 | 3.2 | 3.2 | 0.00 | 0.00 | 0.00 | 61 | 1020.4 |
| 20260902033903 | 21 | 280 | 3.2 | 3.2 | 0.00 | 0.00 | 0.00 | 61 | 1020.4 |
| 20260902033803 | 21 | 280 | 3.2 | 3.2 | 0.00 | 0.00 | 0.00 | 61 | 1020.4 |
| 20260902033703 | 21 | 272 | 3.2 | 3.2 | 0.00 | 0.00 | 0.00 | 61 | 1020.4 |
| 20260902033618 | 21 | 267 | 3.2 | 3.2 | 0.00 | 0.00 | 0.00 | 61 | 1020.4 |
| 20260902033515 | 21 | 267 | 0.0 | 3.2 | 0.00 | 0.00 | 0.00 | 61 | 1020.7 |
| 20260902033503 | 21 | 269 | 3.2 | 3.2 | 0.00 | 0.00 | 0.00 | 61 | 1020.4 |
| 20260902033303 | 21 | 271 | 3.2 | 3.2 | 0.00 | 0.00 | 0.00 | 62 | 1020.3 |
| 20260902033203 | 21 | 271 | 3.2 | 3.2 | 0.00 | 0.00 | 0.00 | 62 | 1020.4 |
| 20260902033103 | 21 | 274 | 3.2 | 3.2 | 0.00 | 0.00 | 0.00 | 62 | 1020.4 |
| 20260902033032 | 21 | 271 | 0.0 | 3.2 | 0.00 | 0.00 | 0.00 | 61 | 1020.7 |
| 20260902033003 | 21 | 275 | 3.2 | 3.2 | 0.00 | 0.00 | 0.00 | 62 | 1020.4 |
| 20260902032803 | 21 | 275 | 3.2 | 3.2 | 0.00 | 0.00 | 0.00 | 62 | 1020.4 |
| 20260902032703 | 21 | 275 | 3.2 | 3.2 | 0.00 | 0.00 | 0.00 | 62 | 1020.4 |
| 20260902032603 | 21 | 276 | 3.2 | 3.2 | 0.00 | 0.00 | 0.00 | 62 | 1020.4 |
| 20260902032516 | 21 | 272 | 0.0 | 3.2 | 0.00 | 0.00 | 0.00 | 61 | 1020.7 |
| 20260902032503 | 21 | 279 | 3.2 | 3.2 | 0.00 | 0.00 | 0.00 | 62 | 1020.3 |
| 20260902032417 | 21 | 279 | 3.2 | 3.2 | 0.00 | 0.00 | 0.00 | 62 | 1020.4 |
| 20260902032305 | 21 | 279 | 3.2 | 3.2 | 0.00 | 0.00 | 0.00 | 62 | 1020.4 |
| 20260902032103 | 21 | 276 | 3.2 | 3.2 | 0.00 | 0.00 | 0.00 | 62 | 1020.4 |
| 20260902032018 | 21 | 276 | 0.0 | 3.2 | 0.00 | 0.00 | 0.00 | 62 | 1020.6 |
| 20260902032003 | 21 | 0 | 3.2 | 3.2 | 0.00 | 0.00 | 0.00 | 62 | 1020.4 |
| 20260902031803 | 21 | 0 | 3.2 | 3.2 | 0.00 | 0.00 | 0.00 | 63 | 1020.4 |
| 20260902031703 | 21 | 0 | 3.2 | 1.6 | 0.00 | 0.00 | 0.00 | 63 | 1020.3 |
| 20260902031537 | 21 | 249 | 0.0 | 1.6 | 0.00 | 0.00 | 0.00 | 62 | 1020.6 |
| 20260902031503 | 21 | 261 | 3.2 | 1.6 | 0.00 | 0.00 | 0.00 | 63 | 1020.4 |
| 20260902031403 | 21 | 255 | 3.2 | 1.6 | 0.00 | 0.00 | 0.00 | 63 | 1020.3 |
| 20260902031303 | 21 | 253 | 3.2 | 1.6 | 0.00 | 0.00 | 0.00 | 62 | 1020.3 |
| 20260902031218 | 21 | 253 | 3.2 | 1.6 | 0.00 | 0.00 | 0.00 | 62 | 1020.3 |
| 20260902031103 | 21 | 255 | 3.2 | 1.6 | 0.00 | 0.00 | 0.00 | 62 | 1020.3 |
| 20260902031020 | 21 | 272 | 0.0 | 3.2 | 0.00 | 0.00 | 0.00 | 62 | 1020.6 |
| 20260902030903 | 21 | 284 | 3.2 | 3.2 | 0.00 | 0.00 | 0.00 | 62 | 1020.3 |
| 20260902030803 | 21 | 280 | 3.2 | 3.2 | 0.00 | 0.00 | 0.00 | 62 | 1020.3 |
| 20260902030703 | 21 | 280 | 3.2 | 3.2 | 0.00 | 0.00 | 0.00 | 62 | 1020.3 |
| 20260902030603 | 21 | 280 | 3.2 | 3.2 | 0.00 | 0.00 | 0.00 | 62 | 1020.3 |
| 20260902030521 | 21 | 261 | 0.0 | 3.2 | 0.00 | 0.00 | 0.00 | 62 | 1020.6 |
| 20260902030503 | 21 | 275 | 3.2 | 3.2 | 0.00 | 0.00 | 0.00 | 62 | 1020.3 |
| 20260902030403 | 21 | 276 | 3.2 | 3.2 | 0.00 | 0.00 | 0.00 | 62 | 1020.3 |
| 20260902030303 | 21 | 282 | 3.2 | 3.2 | 0.00 | 0.00 | 0.00 | 62 | 1020.3 |
| 20260902030203 | 21 | 282 | 3.2 | 3.2 | 0.00 | 0.00 | 0.00 | 62 | 1020.3 |
| 20260902030118 | 21 | 284 | 3.2 | 3.2 | 0.00 | 0.00 | 0.00 | 62 | 1020.3 |
| 20260902030033 | 21 | 306 | 0.0 | 3.2 | 0.00 | 0.00 | 0.00 | 62 | 1020.6 |
| 20260902030003 | 21 | 284 | 3.2 | 3.2 | 0.00 | 0.00 | 0.00 | 64 | 1020.4 |
| 20260902025803 | 21 | 277 | 3.2 | 3.2 | 0.00 | 0.00 | 0.00 | 63 | 1020.3 |
| 20260902025703 | 21 | 277 | 3.2 | 3.2 | 0.00 | 0.00 | 0.00 | 63 | 1020.3 |
| 20260902025603 | 21 | 282 | 3.2 | 3.2 | 0.00 | 0.00 | 0.00 | 63 | 1020.3 |
| 20260902025519 | 21 | 261 | 0.0 | 3.2 | 0.00 | 0.00 | 0.00 | 62 | 1020.5 |
| 20260902025403 | 21 | 291 | 3.2 | 3.2 | 0.00 | 0.00 | 0.00 | 63 | 1020.3 |
| 20260902025306 | 21 | 288 | 3.2 | 3.2 | 0.00 | 0.00 | 0.00 | 63 | 1020.3 |
| 20260902025203 | 21 | 288 | 3.2 | 3.2 | 0.00 | 0.00 | 0.00 | 63 | 1020.3 |
| 20260902025103 | 21 | 288 | 3.2 | 3.2 | 0.00 | 0.00 | 0.00 | 63 | 1020.3 |
| 20260902025020 | 21 | 312 | 0.0 | 3.2 | 0.00 | 0.00 | 0.00 | 63 | 1020.6 |
| 20260902025003 | 21 | 287 | 3.2 | 3.2 | 0.00 | 0.00 | 0.00 | 64 | 1020.3 |
| 20260902024703 | 21 | 283 | 3.2 | 3.2 | 0.00 | 0.00 | 0.00 | 64 | 1020.4 |
| 20260902024603 | 21 | 279 | 3.2 | 3.2 | 0.00 | 0.00 | 0.00 | 64 | 1020.4 |
| 20260902024526 | 21 | 277 | 0.0 | 3.2 | 0.00 | 0.00 | 0.00 | 63 | 1020.6 |
| 20260902024503 | 21 | 280 | 3.2 | 3.2 | 0.00 | 0.00 | 0.00 | 64 | 1020.4 |
| 20260902024403 | 21 | 284 | 3.2 | 3.2 | 0.00 | 0.00 | 0.00 | 64 | 1020.3 |
| 20260902024218 | 21 | 284 | 3.2 | 3.2 | 0.00 | 0.00 | 0.00 | 64 | 1020.3 |
| 20260902024103 | 21 | 284 | 3.2 | 3.2 | 0.00 | 0.00 | 0.00 | 65 | 1020.3 |
| 20260902024011 | 21 | 283 | 0.0 | 3.2 | 0.00 | 0.00 | 0.00 | 64 | 1020.6 |
| 20260902023903 | 21 | 286 | 3.2 | 3.2 | 0.00 | 0.00 | 0.00 | 66 | 1020.3 |
| 20260902023803 | 21 | 0 | 3.2 | 0.0 | 0.00 | 0.00 | 0.00 | 66 | 1020.3 |
| 20260902023703 | 21 | 0 | 3.2 | 0.0 | 0.00 | 0.00 | 0.00 | 66 | 1020.3 |
| 20260902023603 | 21 | 0 | 3.2 | 0.0 | 0.00 | 0.00 | 0.00 | 65 | 1020.3 |
| 20260902023513 | 21 | 286 | 0.0 | 0.0 | 0.00 | 0.00 | 0.00 | 64 | 1020.5 |
| 20260902023503 | 21 | 0 | 3.2 | 0.0 | 0.00 | 0.00 | 0.00 | 65 | 1020.3 |
| 20260902023403 | 21 | 0 | 3.2 | 1.6 | 0.00 | 0.00 | 0.00 | 64 | 1020.3 |
| 20260902023203 | 21 | 287 | 3.2 | 1.6 | 0.00 | 0.00 | 0.00 | 65 | 1020.2 |
| 20260902023103 | 21 | 287 | 3.2 | 1.6 | 0.00 | 0.00 | 0.00 | 65 | 1020.3 |
| 20260902023033 | 21 | 286 | 0.0 | 3.2 | 0.00 | 0.00 | 0.00 | 64 | 1020.6 |
| 20260902023003 | 21 | 287 | 3.2 | 1.6 | 0.00 | 0.00 | 0.00 | 65 | 1020.3 |
| 20260902022903 | 21 | 287 | 3.2 | 1.6 | 0.00 | 0.00 | 0.00 | 65 | 1020.2 |
| 20260902022818 | 21 | 287 | 3.2 | 1.6 | 0.00 | 0.00 | 0.00 | 65 | 1020.2 |
| 20260902022703 | 21 | 287 | 3.2 | 1.6 | 0.00 | 0.00 | 0.00 | 64 | 1020.2 |
| 20260902022617 | 21 | 287 | 3.2 | 1.6 | 0.00 | 0.00 | 0.00 | 64 | 1020.2 |
| 20260902022515 | 21 | 286 | 0.0 | 3.2 | 0.00 | 0.00 | 0.00 | 63 | 1020.5 |
| 20260902022503 | 21 | 287 | 3.2 | 1.6 | 0.00 | 0.00 | 0.00 | 64 | 1020.1 |
| 20260902022306 | 21 | 288 | 3.2 | 1.6 | 0.00 | 0.00 | 0.00 | 63 | 1020.1 |
| 20260902022203 | 21 | 0 | 3.2 | 0.0 | 0.00 | 0.00 | 0.00 | 63 | 1020.1 |
| 20260902022103 | 21 | 0 | 3.2 | 0.0 | 0.00 | 0.00 | 0.00 | 64 | 1020.1 |
| 20260902022020 | 21 | 292 | 0.0 | 0.0 | 0.00 | 0.00 | 0.00 | 63 | 1020.4 |
| 20260902022017 | 22 | 0 | 3.2 | 0.0 | 0.00 | 0.00 | 0.00 | 64 | 1020.1 |
| 20260902021903 | 22 | 0 | 3.2 | 0.0 | 0.00 | 0.00 | 0.00 | 64 | 1020.1 |
| 20260902021818 | 21 | 0 | 3.2 | 0.0 | 0.00 | 0.00 | 0.00 | 64 | 1020.1 |
| 20260902021703 | 21 | 0 | 3.2 | 0.0 | 0.00 | 0.00 | 0.00 | 64 | 1020.1 |
| 20260902021617 | 21 | 0 | 3.2 | 0.0 | 0.00 | 0.00 | 0.00 | 64 | 1020.1 |
| 20260902021530 | 21 | 292 | 0.0 | 0.0 | 0.00 | 0.00 | 0.00 | 63 | 1020.4 |
| 20260902021503 | 22 | 0 | 3.2 | 0.0 | 0.00 | 0.00 | 0.00 | 64 | 1020.1 |
| 20260902021303 | 22 | 0 | 3.2 | 0.0 | 0.00 | 0.00 | 0.00 | 64 | 1020.1 |
| 20260902021203 | 22 | 0 | 3.2 | 0.0 | 0.00 | 0.00 | 0.00 | 64 | 1020.0 |
| 20260902021103 | 22 | 0 | 3.2 | 1.6 | 0.00 | 0.00 | 0.00 | 64 | 1020.0 |
| 20260902021018 | 21 | 293 | 0.0 | 3.2 | 0.00 | 0.00 | 0.00 | 63 | 1020.3 |
| 20260902021003 | 22 | 293 | 3.2 | 1.6 | 0.00 | 0.00 | 0.00 | 64 | 1020.1 |
| 20260902020903 | 22 | 294 | 3.2 | 3.2 | 0.00 | 0.00 | 0.00 | 63 | 1020.0 |
| 20260902020803 | 22 | 289 | 3.2 | 3.2 | 0.00 | 0.00 | 0.00 | 63 | 1020.1 |
| 20260902020703 | 22 | 301 | 3.2 | 3.2 | 0.00 | 0.00 | 0.00 | 63 | 1020.1 |
| 20260902020514 | 21 | 293 | 0.0 | 3.2 | 0.00 | 0.00 | 0.00 | 62 | 1020.4 |
| 20260902020503 | 22 | 285 | 3.2 | 3.2 | 0.00 | 0.00 | 0.00 | 63 | 1020.1 |
| 20260902020403 | 22 | 288 | 3.2 | 3.2 | 0.00 | 0.00 | 0.00 | 63 | 1020.1 |
| 20260902020303 | 22 | 288 | 3.2 | 4.8 | 0.00 | 0.00 | 0.00 | 63 | 1020.1 |
| 20260902020203 | 22 | 287 | 3.2 | 4.8 | 0.00 | 0.00 | 0.00 | 63 | 1020.1 |
| 20260902020033 | 21 | 293 | 1.6 | 3.2 | 0.00 | 0.00 | 0.00 | 62 | 1020.3 |
| 20260902015903 | 22 | 287 | 3.2 | 4.8 | 0.00 | 0.00 | 0.00 | 63 | 1020.1 |
| 20260902015803 | 22 | 288 | 3.2 | 4.8 | 0.00 | 0.00 | 0.00 | 62 | 1020.1 |
| 20260902015703 | 22 | 280 | 3.2 | 4.8 | 0.00 | 0.00 | 0.00 | 62 | 1020.0 |
| 20260902015603 | 22 | 280 | 3.2 | 4.8 | 0.00 | 0.00 | 0.00 | 62 | 1020.1 |
| 20260902015515 | 21 | 251 | 0.0 | 3.2 | 0.00 | 0.00 | 0.00 | 62 | 1020.4 |
| 20260902015305 | 22 | 295 | 3.2 | 4.8 | 0.00 | 0.00 | 0.00 | 62 | 1020.1 |
| 20260902015203 | 22 | 314 | 3.2 | 3.2 | 0.00 | 0.00 | 0.00 | 63 | 1020.1 |
| 20260902015103 | 22 | 310 | 3.2 | 3.2 | 0.00 | 0.00 | 0.00 | 63 | 1020.1 |
| 20260902015014 | 21 | 304 | 0.0 | 3.2 | 0.00 | 0.00 | 0.00 | 62 | 1020.4 |
| 20260902015003 | 22 | 310 | 3.2 | 3.2 | 0.00 | 0.00 | 0.00 | 63 | 1020.1 |
| 20260902014903 | 22 | 321 | 3.2 | 3.2 | 0.00 | 0.00 | 0.00 | 63 | 1020.1 |
| 20260902014803 | 22 | 324 | 3.2 | 3.2 | 0.00 | 0.00 | 0.00 | 63 | 1020.1 |
| 20260902014703 | 22 | 324 | 3.2 | 3.2 | 0.00 | 0.00 | 0.00 | 63 | 1020.1 |
| 20260902014603 | 22 | 324 | 3.2 | 3.2 | 0.00 | 0.00 | 0.00 | 62 | 1020.1 |
| 20260902014534 | 22 | 311 | 0.0 | 3.2 | 0.00 | 0.00 | 0.00 | 62 | 1020.4 |
| 20260902014503 | 22 | 324 | 3.2 | 3.2 | 0.00 | 0.00 | 0.00 | 63 | 1020.1 |
| 20260902014403 | 22 | 324 | 3.2 | 3.2 | 0.00 | 0.00 | 0.00 | 62 | 1020.1 |
| 20260902014303 | 22 | 315 | 3.2 | 3.2 | 0.00 | 0.00 | 0.00 | 62 | 1020.1 |
| 20260902014203 | 22 | 311 | 3.2 | 3.2 | 0.00 | 0.00 | 0.00 | 62 | 1020.2 |
| 20260902014103 | 22 | 306 | 3.2 | 3.2 | 0.00 | 0.00 | 0.00 | 62 | 1020.2 |
| 20260902014019 | 22 | 324 | 0.0 | 3.2 | 0.00 | 0.00 | 0.00 | 62 | 1020.5 |
| 20260902014003 | 22 | 304 | 3.2 | 3.2 | 0.00 | 0.00 | 0.00 | 62 | 1020.1 |
| 20260902013903 | 22 | 293 | 3.2 | 3.2 | 0.00 | 0.00 | 0.00 | 62 | 1020.2 |
| 20260902013703 | 22 | 297 | 3.2 | 4.8 | 0.00 | 0.00 | 0.00 | 61 | 1020.1 |
| 20260902013603 | 22 | 299 | 3.2 | 6.4 | 0.00 | 0.00 | 0.00 | 61 | 1020.2 |
| 20260902013514 | 22 | 297 | 0.0 | 4.8 | 0.00 | 0.00 | 0.00 | 61 | 1020.5 |
| 20260902013403 | 22 | 301 | 3.2 | 6.4 | 0.00 | 0.00 | 0.00 | 60 | 1020.2 |
| 20260902013303 | 22 | 304 | 3.2 | 6.4 | 0.00 | 0.00 | 0.00 | 60 | 1020.2 |
| 20260902013217 | 22 | 303 | 3.2 | 6.4 | 0.00 | 0.00 | 0.00 | 60 | 1020.2 |
| 20260902013103 | 22 | 301 | 3.2 | 6.4 | 0.00 | 0.00 | 0.00 | 60 | 1020.1 |
| 20260902013026 | 22 | 297 | 0.0 | 6.4 | 0.00 | 0.00 | 0.00 | 60 | 1020.4 |
| 20260902012903 | 22 | 305 | 3.2 | 6.4 | 0.00 | 0.00 | 0.00 | 59 | 1020.1 |
| 20260902012803 | 22 | 302 | 3.2 | 6.4 | 0.00 | 0.00 | 0.00 | 60 | 1020.1 |
| 20260902012703 | 22 | 298 | 3.2 | 6.4 | 0.00 | 0.00 | 0.00 | 59 | 1020.1 |
| 20260902012603 | 22 | 294 | 3.2 | 6.4 | 0.00 | 0.00 | 0.00 | 58 | 1020.1 |
| 20260902012513 | 22 | 320 | 1.6 | 6.4 | 0.00 | 0.00 | 0.00 | 57 | 1020.3 |
| 20260902012403 | 22 | 287 | 3.2 | 6.4 | 0.00 | 0.00 | 0.00 | 57 | 1020.1 |
| 20260902012308 | 22 | 283 | 3.2 | 4.8 | 0.00 | 0.00 | 0.00 | 56 | 1020.1 |
| 20260902012203 | 22 | 284 | 3.2 | 4.8 | 0.00 | 0.00 | 0.00 | 56 | 1020.1 |
| 20260902012104 | 22 | 287 | 3.2 | 4.8 | 0.00 | 0.00 | 0.00 | 56 | 1020.1 |
| 20260902012003 | 22 | 326 | 3.2 | 4.8 | 0.00 | 0.00 | 0.00 | 56 | 1020.4 |
| 20260902011803 | 22 | 280 | 3.2 | 4.8 | 0.00 | 0.00 | 0.00 | 56 | 1020.2 |
| 20260902011703 | 22 | 286 | 3.2 | 4.8 | 0.00 | 0.00 | 0.00 | 56 | 1020.1 |
| 20260902011603 | 22 | 291 | 3.2 | 4.8 | 0.00 | 0.00 | 0.00 | 57 | 1020.2 |
| 20260902011507 | 22 | 304 | 0.0 | 3.2 | 0.00 | 0.00 | 0.00 | 56 | 1020.5 |
| 20260902011503 | 22 | 291 | 3.2 | 4.8 | 0.00 | 0.00 | 0.00 | 56 | 1020.1 |
| 20260902011303 | 22 | 296 | 3.2 | 4.8 | 0.00 | 0.00 | 0.00 | 56 | 1020.1 |
| 20260902011203 | 22 | 295 | 3.2 | 4.8 | 0.00 | 0.00 | 0.00 | 56 | 1020.2 |
| 20260902011103 | 22 | 295 | 3.2 | 6.4 | 0.00 | 0.00 | 0.00 | 56 | 1020.2 |
| 20260902011004 | 22 | 253 | 1.6 | 6.4 | 0.00 | 0.00 | 0.00 | 56 | 1020.5 |
| 20260902010903 | 22 | 297 | 3.2 | 6.4 | 0.00 | 0.00 | 0.00 | 57 | 1020.3 |
| 20260902010803 | 22 | 290 | 3.2 | 6.4 | 0.00 | 0.00 | 0.00 | 57 | 1020.3 |
| 20260902010703 | 22 | 292 | 3.2 | 11.3 | 0.00 | 0.00 | 0.00 | 57 | 1020.2 |
| 20260902010603 | 22 | 288 | 3.2 | 11.3 | 0.00 | 0.00 | 0.00 | 57 | 1020.3 |
| 20260902010507 | 22 | 284 | 0.0 | 11.3 | 0.00 | 0.00 | 0.00 | 56 | 1020.5 |
| 20260902010503 | 22 | 288 | 3.2 | 11.3 | 0.00 | 0.00 | 0.00 | 57 | 1020.3 |
| 20260902010403 | 22 | 283 | 3.2 | 11.3 | 0.00 | 0.00 | 0.00 | 57 | 1020.3 |
| 20260902010303 | 22 | 282 | 3.2 | 11.3 | 0.00 | 0.00 | 0.00 | 57 | 1020.3 |
| 20260902010203 | 22 | 281 | 3.2 | 11.3 | 0.00 | 0.00 | 0.00 | 57 | 1020.3 |
| 20260902010024 | 22 | 304 | 3.2 | 11.3 | 0.00 | 0.00 | 0.00 | 56 | 1020.6 |
| 20260902010003 | 22 | 274 | 3.2 | 11.3 | 0.00 | 0.00 | 0.00 | 57 | 1020.3 |
| 20260902005904 | 22 | 275 | 3.2 | 11.3 | 0.00 | 0.00 | 0.00 | 57 | 1020.3 |
| 20260902005803 | 22 | 273 | 3.2 | 11.3 | 0.00 | 0.00 | 0.00 | 57 | 1020.3 |
| 20260902005703 | 22 | 276 | 3.2 | 11.3 | 0.00 | 0.00 | 0.00 | 57 | 1020.4 |
| 20260902005603 | 22 | 277 | 3.2 | 9.7 | 0.00 | 0.00 | 0.00 | 57 | 1020.3 |
| 20260902005511 | 22 | 284 | 3.2 | 8.0 | 0.00 | 0.00 | 0.00 | 57 | 1020.6 |
| 20260902005403 | 22 | 291 | 3.2 | 9.7 | 0.00 | 0.00 | 0.00 | 57 | 1020.3 |
| 20260902005305 | 22 | 295 | 3.2 | 8.0 | 0.00 | 0.00 | 0.00 | 58 | 1020.4 |
| 20260902005203 | 22 | 293 | 3.2 | 8.0 | 0.00 | 0.00 | 0.00 | 58 | 1020.4 |
| 20260902005118 | 22 | 293 | 3.2 | 8.0 | 0.00 | 0.00 | 0.00 | 58 | 1020.3 |
| 20260902005009 | 22 | 273 | 3.2 | 11.3 | 0.00 | 0.00 | 0.00 | 58 | 1020.6 |
| 20260902005003 | 22 | 296 | 3.2 | 8.0 | 0.00 | 0.00 | 0.00 | 58 | 1020.3 |
| 20260902004803 | 22 | 303 | 3.2 | 11.3 | 0.00 | 0.00 | 0.00 | 58 | 1020.3 |
| 20260902004703 | 22 | 295 | 3.2 | 11.3 | 0.00 | 0.00 | 0.00 | 58 | 1020.2 |
| 20260902004603 | 22 | 300 | 3.2 | 11.3 | 0.00 | 0.00 | 0.00 | 58 | 1020.3 |
| 20260902004524 | 22 | 311 | 3.2 | 11.3 | 0.00 | 0.00 | 0.00 | 58 | 1020.5 |
| 20260902004303 | 22 | 301 | 3.2 | 11.3 | 0.00 | 0.00 | 0.00 | 59 | 1020.3 |
| 20260902004203 | 22 | 301 | 3.2 | 11.3 | 0.00 | 0.00 | 0.00 | 59 | 1020.3 |
| 20260902004103 | 22 | 302 | 3.2 | 11.3 | 0.00 | 0.00 | 0.00 | 59 | 1020.3 |
| 20260902004012 | 22 | 298 | 1.6 | 11.3 | 0.00 | 0.00 | 0.00 | 59 | 1020.5 |
| 20260902004003 | 22 | 304 | 3.2 | 11.3 | 0.00 | 0.00 | 0.00 | 60 | 1020.2 |
| 20260902003803 | 22 | 303 | 3.2 | 9.7 | 0.00 | 0.00 | 0.00 | 60 | 1020.3 |
| 20260902003703 | 22 | 308 | 3.2 | 9.7 | 0.00 | 0.00 | 0.00 | 60 | 1020.3 |
| 20260902003603 | 22 | 300 | 3.2 | 9.7 | 0.00 | 0.00 | 0.00 | 60 | 1020.3 |
| 20260902003510 | 22 | 292 | 3.2 | 8.0 | 0.00 | 0.00 | 0.00 | 59 | 1020.5 |
| 20260902003403 | 22 | 296 | 3.2 | 9.7 | 0.00 | 0.00 | 0.00 | 60 | 1020.2 |
| 20260902003303 | 22 | 278 | 3.2 | 4.8 | 0.00 | 0.00 | 0.00 | 60 | 1020.2 |
| 20260902003030 | 22 | 340 | 1.6 | 3.2 | 0.00 | 0.00 | 0.00 | 60 | 1020.5 |
| 20260902003003 | 22 | 279 | 3.2 | 6.4 | 0.00 | 0.00 | 0.00 | 61 | 1020.1 |
| 20260902002903 | 22 | 281 | 3.2 | 6.4 | 0.00 | 0.00 | 0.00 | 61 | 1020.2 |
| 20260902002803 | 22 | 278 | 3.2 | 6.4 | 0.00 | 0.00 | 0.00 | 61 | 1020.1 |
| 20260902002703 | 22 | 282 | 3.2 | 6.4 | 0.00 | 0.00 | 0.00 | 61 | 1020.1 |
| 20260902002603 | 22 | 286 | 3.2 | 6.4 | 0.00 | 0.00 | 0.00 | 61 | 1020.1 |
| 20260902002511 | 22 | 317 | 0.0 | 6.4 | 0.00 | 0.00 | 0.00 | 60 | 1020.4 |
| 20260902002503 | 22 | 286 | 3.2 | 6.4 | 0.00 | 0.00 | 0.00 | 61 | 1020.1 |
| 20260902002403 | 22 | 300 | 3.2 | 6.4 | 0.00 | 0.00 | 0.00 | 61 | 1020.1 |
| 20260902002306 | 22 | 307 | 3.2 | 6.4 | 0.00 | 0.00 | 0.00 | 61 | 1020.1 |
| 20260902002203 | 22 | 303 | 3.2 | 6.4 | 0.00 | 0.00 | 0.00 | 61 | 1020.0 |
| 20260902002103 | 22 | 296 | 3.2 | 6.4 | 0.00 | 0.00 | 0.00 | 61 | 1020.0 |
| 20260902002011 | 22 | 278 | 1.6 | 6.4 | 0.00 | 0.00 | 0.00 | 61 | 1020.3 |
| 20260902002003 | 22 | 297 | 3.2 | 6.4 | 0.00 | 0.00 | 0.00 | 61 | 1020.0 |
| 20260902001903 | 22 | 294 | 3.2 | 6.4 | 0.00 | 0.00 | 0.00 | 61 | 1020.0 |
| 20260902001703 | 22 | 299 | 3.2 | 6.4 | 0.00 | 0.00 | 0.00 | 61 | 1020.0 |
| 20260902001603 | 22 | 295 | 3.2 | 9.7 | 0.00 | 0.00 | 0.00 | 61 | 1019.9 |
| 20260902001529 | 22 | 312 | 0.0 | 6.4 | 0.00 | 0.00 | 0.00 | 61 | 1020.2 |
| 20260902001503 | 22 | 290 | 3.2 | 9.7 | 0.00 | 0.00 | 0.00 | 61 | 1020.0 |
| 20260902001403 | 22 | 288 | 3.2 | 9.7 | 0.00 | 0.00 | 0.00 | 61 | 1020.0 |
| 20260902001303 | 22 | 286 | 3.2 | 9.7 | 0.00 | 0.00 | 0.00 | 61 | 1019.9 |
| 20260902001203 | 22 | 289 | 3.2 | 9.7 | 0.00 | 0.00 | 0.00 | 61 | 1020.0 |
| 20260902001103 | 22 | 294 | 3.2 | 9.7 | 0.00 | 0.00 | 0.00 | 62 | 1019.9 |
| 20260902001005 | 22 | 287 | 1.6 | 9.7 | 0.00 | 0.00 | 0.00 | 61 | 1020.2 |
| 20260902001003 | 22 | 296 | 3.2 | 9.7 | 0.00 | 0.00 | 0.00 | 62 | 1020.0 |
| 20260902000903 | 22 | 299 | 3.2 | 9.7 | 0.00 | 0.00 | 0.00 | 62 | 1020.0 |
| 20260902000803 | 22 | 299 | 3.2 | 9.7 | 0.00 | 0.00 | 0.00 | 62 | 1020.0 |
| 20260902000718 | 22 | 294 | 3.2 | 9.7 | 0.00 | 0.00 | 0.00 | 62 | 1019.9 |
| 20260902000603 | 22 | 298 | 3.2 | 9.7 | 0.00 | 0.00 | 0.00 | 62 | 1020.0 |
| 20260902000507 | 22 | 269 | 3.2 | 9.7 | 0.00 | 0.00 | 0.00 | 61 | 1020.2 |
| 20260902000403 | 22 | 305 | 3.2 | 4.8 | 0.00 | 0.00 | 0.00 | 62 | 1019.9 |
| 20260902000304 | 22 | 305 | 3.2 | 4.8 | 0.00 | 0.00 | 0.00 | 62 | 1019.9 |
| 20260902000204 | 22 | 301 | 3.2 | 4.8 | 0.00 | 0.00 | 0.00 | 62 | 1019.9 |
| 20260902000013 | 22 | 329 | 1.6 | 3.2 | 0.00 | 0.00 | 0.00 | 61 | 1020.1 |
| 20260902000003 | 22 | 295 | 3.2 | 4.8 | 0.00 | 0.00 | 0.00 | 62 | 1019.8 |
| 20260901235903 | 22 | 294 | 3.2 | 4.8 | 0.00 | 0.00 | 0.00 | 62 | 1019.7 |
| 20260901235803 | 22 | 293 | 3.2 | 4.8 | 0.00 | 0.00 | 0.00 | 62 | 1019.6 |
| 20260901235603 | 22 | 294 | 3.2 | 3.2 | 0.00 | 0.00 | 0.00 | 62 | 1019.7 |
| 20260901235505 | 22 | 312 | 1.6 | 3.2 | 0.00 | 0.00 | 0.00 | 61 | 1020.0 |
| 20260901235503 | 22 | 290 | 3.2 | 3.2 | 0.00 | 0.00 | 0.00 | 62 | 1019.7 |
| 20260901235403 | 22 | 289 | 3.2 | 3.2 | 0.00 | 0.00 | 0.00 | 62 | 1019.6 |
| 20260901235307 | 22 | 288 | 3.2 | 3.2 | 0.00 | 0.00 | 0.00 | 62 | 1019.7 |
| 20260901235203 | 22 | 288 | 3.2 | 3.2 | 0.00 | 0.00 | 0.00 | 62 | 1019.7 |
| 20260901235103 | 22 | 299 | 3.2 | 3.2 | 0.00 | 0.00 | 0.00 | 62 | 1019.7 |
| 20260901235006 | 22 | 280 | 0.0 | 3.2 | 0.00 | 0.00 | 0.00 | 61 | 1020.0 |
| 20260901235003 | 22 | 304 | 3.2 | 3.2 | 0.00 | 0.00 | 0.00 | 62 | 1019.8 |
| 20260901234903 | 22 | 300 | 3.2 | 3.2 | 0.00 | 0.00 | 0.00 | 62 | 1019.8 |
| 20260901234803 | 22 | 298 | 3.2 | 4.8 | 0.00 | 0.00 | 0.00 | 62 | 1019.8 |
| 20260901234603 | 22 | 289 | 3.2 | 4.8 | 0.00 | 0.00 | 0.00 | 62 | 1019.8 |
| 20260901234515 | 22 | 284 | 0.0 | 4.8 | 0.00 | 0.00 | 0.00 | 61 | 1020.1 |
| 20260901234503 | 22 | 289 | 3.2 | 4.8 | 0.00 | 0.00 | 0.00 | 62 | 1019.8 |
| 20260901234403 | 22 | 290 | 3.2 | 4.8 | 0.00 | 0.00 | 0.00 | 62 | 1019.8 |
| 20260901234303 | 22 | 291 | 3.2 | 4.8 | 0.00 | 0.00 | 0.00 | 62 | 1019.7 |
| 20260901234203 | 22 | 294 | 3.2 | 4.8 | 0.00 | 0.00 | 0.00 | 62 | 1019.7 |
| 20260901234103 | 22 | 287 | 3.2 | 4.8 | 0.00 | 0.00 | 0.00 | 62 | 1019.8 |
| 20260901234011 | 22 | 300 | 1.6 | 4.8 | 0.00 | 0.00 | 0.00 | 61 | 1020.0 |
| 20260901234003 | 22 | 286 | 3.2 | 4.8 | 0.00 | 0.00 | 0.00 | 61 | 1019.7 |
| 20260901233903 | 22 | 286 | 3.2 | 4.8 | 0.00 | 0.00 | 0.00 | 61 | 1019.8 |
| 20260901233803 | 22 | 287 | 3.2 | 4.8 | 0.00 | 0.00 | 0.00 | 61 | 1019.7 |
| 20260901233603 | 22 | 289 | 3.2 | 3.2 | 0.00 | 0.00 | 0.00 | 61 | 1019.7 |
| 20260901233513 | 22 | 296 | 0.0 | 3.2 | 0.00 | 0.00 | 0.00 | 61 | 1020.0 |
| 20260901233503 | 22 | 288 | 3.2 | 3.2 | 0.00 | 0.00 | 0.00 | 62 | 1019.7 |
| 20260901233403 | 22 | 287 | 3.2 | 3.2 | 0.00 | 0.00 | 0.00 | 62 | 1019.7 |
| 20260901233303 | 22 | 286 | 3.2 | 3.2 | 0.00 | 0.00 | 0.00 | 62 | 1019.7 |
| 20260901233203 | 22 | 279 | 3.2 | 3.2 | 0.00 | 0.00 | 0.00 | 62 | 1019.8 |
| 20260901233103 | 22 | 279 | 3.2 | 3.2 | 0.00 | 0.00 | 0.00 | 62 | 1019.8 |
| 20260901233026 | 22 | 286 | 1.6 | 3.2 | 0.00 | 0.00 | 0.00 | 61 | 1020.0 |
| 20260901233003 | 22 | 277 | 3.2 | 3.2 | 0.00 | 0.00 | 0.00 | 62 | 1019.8 |
| 20260901232903 | 22 | 275 | 3.2 | 3.2 | 0.00 | 0.00 | 0.00 | 62 | 1019.7 |
| 20260901232603 | 22 | 0 | 3.2 | 0.0 | 0.00 | 0.00 | 0.00 | 62 | 1019.7 |
| 20260901232510 | 22 | 240 | 0.0 | 0.0 | 0.00 | 0.00 | 0.00 | 62 | 1020.0 |
| 20260901232503 | 22 | 0 | 3.2 | 0.0 | 0.00 | 0.00 | 0.00 | 62 | 1019.7 |
| 20260901232403 | 22 | 0 | 3.2 | 0.0 | 0.00 | 0.00 | 0.00 | 62 | 1019.7 |
| 20260901232306 | 22 | 0 | 3.2 | 0.0 | 0.00 | 0.00 | 0.00 | 62 | 1019.6 |
| 20260901232103 | 22 | 0 | 3.2 | 0.0 | 0.00 | 0.00 | 0.00 | 62 | 1019.6 |
| 20260901232015 | 22 | 240 | 0.0 | 0.0 | 0.00 | 0.00 | 0.00 | 61 | 1019.9 |
| 20260901232003 | 22 | 0 | 3.2 | 1.6 | 0.00 | 0.00 | 0.00 | 62 | 1019.6 |
| 20260901231803 | 22 | 257 | 3.2 | 1.6 | 0.00 | 0.00 | 0.00 | 62 | 1019.6 |
| 20260901231703 | 22 | 257 | 3.2 | 3.2 | 0.00 | 0.00 | 0.00 | 62 | 1019.6 |
| 20260901231604 | 22 | 253 | 3.2 | 3.2 | 0.00 | 0.00 | 0.00 | 62 | 1019.7 |
| 20260901231536 | 22 | 240 | 0.0 | 3.2 | 0.00 | 0.00 | 0.00 | 62 | 1020.0 |
| 20260901231503 | 22 | 253 | 3.2 | 3.2 | 0.00 | 0.00 | 0.00 | 62 | 1019.6 |
| 20260901231403 | 22 | 253 | 3.2 | 3.2 | 0.00 | 0.00 | 0.00 | 62 | 1019.7 |
| 20260901231303 | 22 | 253 | 3.2 | 3.2 | 0.00 | 0.00 | 0.00 | 62 | 1019.7 |
| 20260901231103 | 22 | 253 | 3.2 | 3.2 | 0.00 | 0.00 | 0.00 | 63 | 1019.8 |
| 20260901231018 | 22 | 257 | 0.0 | 3.2 | 0.00 | 0.00 | 0.00 | 62 | 1020.0 |
| 20260901231003 | 22 | 253 | 3.2 | 3.2 | 0.00 | 0.00 | 0.00 | 62 | 1019.7 |
| 20260901230903 | 22 | 251 | 3.2 | 3.2 | 0.00 | 0.00 | 0.00 | 62 | 1019.8 |
| 20260901230803 | 22 | 251 | 3.2 | 3.2 | 0.00 | 0.00 | 0.00 | 63 | 1019.8 |
| 20260901230703 | 22 | 251 | 3.2 | 3.2 | 0.00 | 0.00 | 0.00 | 63 | 1019.8 |
| 20260901230603 | 22 | 0 | 3.2 | 3.2 | 0.00 | 0.00 | 0.00 | 63 | 1019.8 |
| 20260901230513 | 22 | 245 | 0.0 | 3.2 | 0.00 | 0.00 | 0.00 | 62 | 1020.1 |
| 20260901230503 | 22 | 0 | 3.2 | 3.2 | 0.00 | 0.00 | 0.00 | 63 | 1019.8 |
| 20260901230403 | 22 | 0 | 3.2 | 3.2 | 0.00 | 0.00 | 0.00 | 63 | 1019.8 |
| 20260901230303 | 22 | 0 | 3.2 | 3.2 | 0.00 | 0.00 | 0.00 | 63 | 1019.8 |
| 20260901230203 | 22 | 0 | 3.2 | 3.2 | 0.00 | 0.00 | 0.00 | 63 | 1019.8 |
| 20260901230011 | 21 | 243 | 0.0 | 3.2 | 0.00 | 0.00 | 0.00 | 63 | 1020.1 |
| 20260901225903 | 22 | 267 | 3.2 | 3.2 | 0.00 | 0.00 | 0.00 | 63 | 1019.8 |
| 20260901225803 | 22 | 267 | 3.2 | 3.2 | 0.00 | 0.00 | 0.00 | 63 | 1019.8 |
| 20260901225703 | 22 | 267 | 3.2 | 3.2 | 0.00 | 0.00 | 0.00 | 63 | 1019.8 |
| 20260901225603 | 22 | 267 | 3.2 | 3.2 | 0.00 | 0.00 | 0.00 | 63 | 1019.9 |
| 20260901225503 | 21 | 269 | 0.0 | 3.2 | 0.00 | 0.00 | 0.00 | 63 | 1020.1 |
| 20260901225403 | 22 | 267 | 3.2 | 3.2 | 0.00 | 0.00 | 0.00 | 64 | 1019.9 |
| 20260901225306 | 22 | 267 | 3.2 | 3.2 | 0.00 | 0.00 | 0.00 | 63 | 1019.9 |
| 20260901225203 | 22 | 267 | 3.2 | 3.2 | 0.00 | 0.00 | 0.00 | 63 | 1019.9 |
| 20260901225005 | 21 | 267 | 0.0 | 0.0 | 0.00 | 0.00 | 0.00 | 63 | 1020.1 |
| 20260901225003 | 22 | 0 | 3.2 | 0.0 | 0.00 | 0.00 | 0.00 | 64 | 1019.9 |
| 20260901224903 | 22 | 0 | 3.2 | 0.0 | 0.00 | 0.00 | 0.00 | 64 | 1019.8 |
| 20260901224603 | 21 | 0 | 3.2 | 0.0 | 0.00 | 0.00 | 0.00 | 64 | 1019.8 |
| 20260901224524 | 21 | 267 | 0.0 | 0.0 | 0.00 | 0.00 | 0.00 | 63 | 1020.0 |
| 20260901224503 | 21 | 0 | 3.2 | 0.0 | 0.00 | 0.00 | 0.00 | 64 | 1019.7 |
| 20260901224303 | 21 | 0 | 3.2 | 0.0 | 0.00 | 0.00 | 0.00 | 64 | 1019.8 |
| 20260901224203 | 21 | 0 | 3.2 | 0.0 | 0.00 | 0.00 | 0.00 | 64 | 1019.8 |
| 20260901224103 | 21 | 0 | 3.2 | 0.0 | 0.00 | 0.00 | 0.00 | 64 | 1019.7 |
| 20260901224008 | 21 | 267 | 0.0 | 0.0 | 0.00 | 0.00 | 0.00 | 63 | 1020.0 |
| 20260901224003 | 21 | 0 | 3.2 | 0.0 | 0.00 | 0.00 | 0.00 | 64 | 1019.7 |
| 20260901223903 | 21 | 0 | 3.2 | 0.0 | 0.00 | 0.00 | 0.00 | 64 | 1019.8 |
| 20260901223803 | 21 | 0 | 3.2 | 0.0 | 0.00 | 0.00 | 0.00 | 64 | 1019.8 |
| 20260901223703 | 21 | 0 | 3.2 | 0.0 | 0.00 | 0.00 | 0.00 | 64 | 1019.7 |
| 20260901223603 | 21 | 0 | 3.2 | 0.0 | 0.00 | 0.00 | 0.00 | 63 | 1019.7 |
| 20260901223506 | 21 | 267 | 0.0 | 0.0 | 0.00 | 0.00 | 0.00 | 63 | 1020.0 |
| 20260901223503 | 22 | 0 | 3.2 | 0.0 | 0.00 | 0.00 | 0.00 | 63 | 1019.7 |
| 20260901223403 | 22 | 0 | 3.2 | 0.0 | 0.00 | 0.00 | 0.00 | 64 | 1019.6 |
| 20260901223206 | 22 | 0 | 3.2 | 3.2 | 0.00 | 0.00 | 0.00 | 64 | 1019.6 |
| 20260901223103 | 22 | 0 | 3.2 | 3.2 | 0.00 | 0.00 | 0.00 | 64 | 1019.6 |
| 20260901223020 | 21 | 267 | 0.0 | 3.2 | 0.00 | 0.00 | 0.00 | 64 | 1019.9 |
| 20260901223004 | 22 | 0 | 3.2 | 3.2 | 0.00 | 0.00 | 0.00 | 64 | 1019.6 |
| 20260901222903 | 22 | 0 | 3.2 | 3.2 | 0.00 | 0.00 | 0.00 | 64 | 1019.6 |
| 20260901222803 | 22 | 0 | 3.2 | 3.2 | 0.00 | 0.00 | 0.00 | 64 | 1019.6 |
| 20260901222703 | 22 | 0 | 3.2 | 3.2 | 0.00 | 0.00 | 0.00 | 64 | 1019.6 |
| 20260901222603 | 22 | 0 | 3.2 | 3.2 | 0.00 | 0.00 | 0.00 | 64 | 1019.6 |
| 20260901222513 | 21 | 267 | 0.0 | 3.2 | 0.00 | 0.00 | 0.00 | 63 | 1019.9 |
| 20260901222403 | 22 | 0 | 3.2 | 3.2 | 0.00 | 0.00 | 0.00 | 64 | 1019.6 |
| 20260901222306 | 22 | 0 | 3.2 | 3.2 | 0.00 | 0.00 | 0.00 | 64 | 1019.6 |
| 20260901222203 | 22 | 0 | 3.2 | 0.0 | 0.00 | 0.00 | 0.00 | 64 | 1019.6 |
| 20260901222103 | 22 | 0 | 3.2 | 0.0 | 0.00 | 0.00 | 0.00 | 64 | 1019.6 |
| 20260901222011 | 21 | 182 | 0.0 | 0.0 | 0.00 | 0.00 | 0.00 | 63 | 1019.9 |
| 20260901222003 | 22 | 0 | 3.2 | 0.0 | 0.00 | 0.00 | 0.00 | 64 | 1019.5 |
| 20260901221903 | 22 | 0 | 3.2 | 0.0 | 0.00 | 0.00 | 0.00 | 64 | 1019.5 |
| 20260901221803 | 22 | 0 | 3.2 | 0.0 | 0.00 | 0.00 | 0.00 | 63 | 1019.6 |
| 20260901221603 | 22 | 0 | 3.2 | 0.0 | 0.00 | 0.00 | 0.00 | 63 | 1019.6 |
| 20260901221558 | 21 | 182 | 0.0 | 0.0 | 0.00 | 0.00 | 0.00 | 63 | 1019.9 |
| 20260901221503 | 22 | 0 | 3.2 | 0.0 | 0.00 | 0.00 | 0.00 | 63 | 1019.5 |
| 20260901221403 | 22 | 0 | 3.2 | 0.0 | 0.00 | 0.00 | 0.00 | 63 | 1019.5 |
| 20260901221303 | 22 | 0 | 3.2 | 0.0 | 0.00 | 0.00 | 0.00 | 63 | 1019.5 |
| 20260901221103 | 22 | 0 | 3.2 | 0.0 | 0.00 | 0.00 | 0.00 | 63 | 1019.6 |
| 20260901221015 | 22 | 182 | 0.0 | 0.0 | 0.00 | 0.00 | 0.00 | 62 | 1019.9 |
| 20260901221003 | 22 | 0 | 3.2 | 0.0 | 0.00 | 0.00 | 0.00 | 63 | 1019.6 |
| 20260901220903 | 22 | 0 | 3.2 | 0.0 | 0.00 | 0.00 | 0.00 | 63 | 1019.6 |
| 20260901220803 | 22 | 0 | 3.2 | 0.0 | 0.00 | 0.00 | 0.00 | 63 | 1019.6 |
| 20260901220703 | 22 | 0 | 3.2 | 0.0 | 0.00 | 0.00 | 0.00 | 63 | 1019.6 |
| 20260901220603 | 22 | 0 | 3.2 | 0.0 | 0.00 | 0.00 | 0.00 | 63 | 1019.6 |
| 20260901220516 | 22 | 182 | 0.0 | 0.0 | 0.00 | 0.00 | 0.00 | 62 | 1019.9 |
| 20260901220503 | 22 | 0 | 3.2 | 0.0 | 0.00 | 0.00 | 0.00 | 63 | 1019.6 |
| 20260901220203 | 22 | 0 | 3.2 | 0.0 | 0.00 | 0.00 | 0.00 | 62 | 1019.6 |
| 20260901220038 | 22 | 182 | 0.0 | 0.0 | 0.00 | 0.00 | 0.00 | 62 | 1019.9 |
| 20260901220003 | 22 | 0 | 3.2 | 0.0 | 0.00 | 0.00 | 0.00 | 62 | 1019.7 |
| 20260901215903 | 22 | 0 | 3.2 | 0.0 | 0.00 | 0.00 | 0.00 | 62 | 1019.7 |
| 20260901215803 | 22 | 0 | 3.2 | 0.0 | 0.00 | 0.00 | 0.00 | 62 | 1019.6 |
| 20260901215603 | 22 | 198 | 3.2 | 1.6 | 0.00 | 0.00 | 0.00 | 62 | 1019.6 |
| 20260901215515 | 22 | 182 | 0.0 | 1.6 | 0.00 | 0.00 | 0.00 | 61 | 1019.9 |
| 20260901215503 | 22 | 198 | 3.2 | 1.6 | 0.00 | 0.00 | 0.00 | 61 | 1019.7 |
| 20260901215306 | 22 | 198 | 3.2 | 1.6 | 0.00 | 0.00 | 0.00 | 61 | 1019.6 |
| 20260901215203 | 22 | 198 | 3.2 | 1.6 | 0.00 | 0.00 | 0.00 | 61 | 1019.6 |
| 20260901215103 | 22 | 198 | 3.2 | 1.6 | 0.00 | 0.00 | 0.00 | 61 | 1019.6 |
| 20260901215005 | 22 | 182 | 0.0 | 1.6 | 0.00 | 0.00 | 0.00 | 60 | 1019.9 |
| 20260901215003 | 22 | 198 | 3.2 | 1.6 | 0.00 | 0.00 | 0.00 | 61 | 1019.6 |
| 20260901214903 | 22 | 198 | 3.2 | 1.6 | 0.00 | 0.00 | 0.00 | 61 | 1019.6 |
| 20260901214603 | 22 | 0 | 3.2 | 0.0 | 0.00 | 0.00 | 0.00 | 61 | 1019.6 |
| 20260901214515 | 22 | 296 | 0.0 | 1.6 | 0.00 | 0.00 | 0.00 | 60 | 1019.9 |
| 20260901214503 | 22 | 296 | 3.2 | 1.6 | 0.00 | 0.00 | 0.00 | 61 | 1019.6 |
| 20260901214403 | 22 | 296 | 3.2 | 3.2 | 0.00 | 0.00 | 0.00 | 61 | 1019.6 |
| 20260901214303 | 22 | 298 | 3.2 | 3.2 | 0.00 | 0.00 | 0.00 | 61 | 1019.6 |
| 20260901214203 | 22 | 294 | 3.2 | 3.2 | 0.00 | 0.00 | 0.00 | 61 | 1019.6 |
| 20260901214103 | 22 | 293 | 3.2 | 3.2 | 0.00 | 0.00 | 0.00 | 61 | 1019.6 |
| 20260901214006 | 22 | 296 | 0.0 | 3.2 | 0.00 | 0.00 | 0.00 | 60 | 1019.9 |
| 20260901214003 | 22 | 289 | 3.2 | 3.2 | 0.00 | 0.00 | 0.00 | 61 | 1019.6 |
| 20260901213803 | 22 | 285 | 3.2 | 3.2 | 0.00 | 0.00 | 0.00 | 61 | 1019.6 |
| 20260901213703 | 22 | 285 | 3.2 | 3.2 | 0.00 | 0.00 | 0.00 | 61 | 1019.6 |
| 20260901213603 | 22 | 285 | 3.2 | 3.2 | 0.00 | 0.00 | 0.00 | 61 | 1019.6 |
| 20260901213509 | 22 | 296 | 1.6 | 3.2 | 0.00 | 0.00 | 0.00 | 60 | 1019.9 |
| 20260901213503 | 22 | 285 | 3.2 | 3.2 | 0.00 | 0.00 | 0.00 | 61 | 1019.6 |
| 20260901213403 | 22 | 282 | 3.2 | 3.2 | 0.00 | 0.00 | 0.00 | 61 | 1019.6 |
| 20260901213303 | 22 | 272 | 3.2 | 3.2 | 0.00 | 0.00 | 0.00 | 62 | 1019.6 |
| 20260901213203 | 22 | 266 | 3.2 | 3.2 | 0.00 | 0.00 | 0.00 | 61 | 1019.6 |
| 20260901213024 | 22 | 265 | 0.0 | 3.2 | 0.00 | 0.00 | 0.00 | 61 | 1019.9 |
| 20260901213003 | 22 | 256 | 3.2 | 3.2 | 0.00 | 0.00 | 0.00 | 61 | 1019.6 |
| 20260901212903 | 22 | 0 | 3.2 | 0.0 | 0.00 | 0.00 | 0.00 | 61 | 1019.5 |
| 20260901212703 | 22 | 0 | 3.2 | 0.0 | 0.00 | 0.00 | 0.00 | 61 | 1019.5 |
| 20260901212603 | 22 | 0 | 3.2 | 0.0 | 0.00 | 0.00 | 0.00 | 61 | 1019.5 |
| 20260901212511 | 22 | 159 | 0.0 | 0.0 | 0.00 | 0.00 | 0.00 | 61 | 1019.8 |
| 20260901212403 | 22 | 0 | 3.2 | 0.0 | 0.00 | 0.00 | 0.00 | 61 | 1019.5 |
| 20260901212306 | 23 | 0 | 3.2 | 0.0 | 0.00 | 0.00 | 0.00 | 61 | 1019.5 |
| 20260901212203 | 23 | 0 | 3.2 | 0.0 | 0.00 | 0.00 | 0.00 | 61 | 1019.5 |
| 20260901212103 | 23 | 0 | 3.2 | 0.0 | 0.00 | 0.00 | 0.00 | 61 | 1019.5 |
| 20260901212014 | 22 | 159 | 0.0 | 0.0 | 0.00 | 0.00 | 0.00 | 61 | 1019.8 |
| 20260901212003 | 23 | 0 | 3.2 | 0.0 | 0.00 | 0.00 | 0.00 | 60 | 1019.5 |
| 20260901211803 | 23 | 0 | 3.2 | 0.0 | 0.00 | 0.00 | 0.00 | 61 | 1019.5 |
| 20260901211703 | 23 | 0 | 3.2 | 0.0 | 0.00 | 0.00 | 0.00 | 61 | 1019.5 |
| 20260901211603 | 23 | 0 | 3.2 | 0.0 | 0.00 | 0.00 | 0.00 | 60 | 1019.5 |
| 20260901211525 | 22 | 159 | 0.0 | 0.0 | 0.00 | 0.00 | 0.00 | 60 | 1019.8 |
| 20260901211503 | 23 | 0 | 3.2 | 0.0 | 0.00 | 0.00 | 0.00 | 60 | 1019.5 |
| 20260901211403 | 23 | 0 | 3.2 | 0.0 | 0.00 | 0.00 | 0.00 | 60 | 1019.5 |
| 20260901211303 | 23 | 0 | 3.2 | 0.0 | 0.00 | 0.00 | 0.00 | 60 | 1019.5 |
| 20260901211218 | 23 | 0 | 3.2 | 0.0 | 0.00 | 0.00 | 0.00 | 60 | 1019.5 |
| 20260901211103 | 23 | 0 | 3.2 | 0.0 | 0.00 | 0.00 | 0.00 | 60 | 1019.5 |
| 20260901211015 | 22 | 159 | 0.0 | 0.0 | 0.00 | 0.00 | 0.00 | 59 | 1019.7 |
| 20260901210917 | 23 | 0 | 3.2 | 3.2 | 0.00 | 0.00 | 0.00 | 60 | 1019.4 |
| 20260901210803 | 23 | 157 | 3.2 | 3.2 | 0.00 | 0.00 | 0.00 | 60 | 1019.4 |
| 20260901210603 | 23 | 157 | 3.2 | 3.2 | 0.00 | 0.00 | 0.00 | 60 | 1019.5 |
| 20260901210514 | 22 | 159 | 0.0 | 3.2 | 0.00 | 0.00 | 0.00 | 59 | 1019.7 |
| 20260901210503 | 23 | 157 | 3.2 | 3.2 | 0.00 | 0.00 | 0.00 | 60 | 1019.4 |
| 20260901210403 | 23 | 157 | 3.2 | 3.2 | 0.00 | 0.00 | 0.00 | 60 | 1019.4 |
| 20260901210303 | 23 | 157 | 3.2 | 3.2 | 0.00 | 0.00 | 0.00 | 59 | 1019.4 |
| 20260901210203 | 23 | 157 | 3.2 | 3.2 | 0.00 | 0.00 | 0.00 | 60 | 1019.4 |
| 20260901210003 | 23 | 157 | 3.2 | 3.2 | 0.00 | 0.00 | 0.00 | 60 | 1019.4 |
| 20260901205903 | 23 | 157 | 3.2 | 3.2 | 0.00 | 0.00 | 0.00 | 60 | 1019.4 |
| 20260901205703 | 23 | 0 | 3.2 | 0.0 | 0.00 | 0.00 | 0.00 | 60 | 1019.4 |
| 20260901205603 | 23 | 0 | 3.2 | 0.0 | 0.00 | 0.00 | 0.00 | 60 | 1019.4 |
| 20260901205517 | 22 | 157 | 0.0 | 0.0 | 0.00 | 0.00 | 0.00 | 59 | 1019.7 |
| 20260901205403 | 23 | 0 | 3.2 | 0.0 | 0.00 | 0.00 | 0.00 | 60 | 1019.5 |
| 20260901205306 | 23 | 0 | 3.2 | 0.0 | 0.00 | 0.00 | 0.00 | 60 | 1019.5 |
| 20260901205203 | 23 | 0 | 3.2 | 0.0 | 0.00 | 0.00 | 0.00 | 60 | 1019.4 |
| 20260901205103 | 23 | 0 | 3.2 | 0.0 | 0.00 | 0.00 | 0.00 | 59 | 1019.4 |
| 20260901205019 | 22 | 157 | 0.0 | 0.0 | 0.00 | 0.00 | 0.00 | 59 | 1019.6 |
| 20260901205003 | 23 | 0 | 3.2 | 0.0 | 0.00 | 0.00 | 0.00 | 59 | 1019.4 |
| 20260901204903 | 23 | 0 | 3.2 | 0.0 | 0.00 | 0.00 | 0.00 | 59 | 1019.4 |
| 20260901204803 | 23 | 0 | 3.2 | 0.0 | 0.00 | 0.00 | 0.00 | 60 | 1019.4 |
| 20260901204703 | 23 | 0 | 3.2 | 0.0 | 0.00 | 0.00 | 0.00 | 60 | 1019.4 |
| 20260901204603 | 23 | 0 | 3.2 | 0.0 | 0.00 | 0.00 | 0.00 | 59 | 1019.4 |
| 20260901204531 | 23 | 157 | 0.0 | 0.0 | 0.00 | 0.00 | 0.00 | 59 | 1019.7 |
| 20260901204503 | 23 | 0 | 3.2 | 0.0 | 0.00 | 0.00 | 0.00 | 60 | 1019.4 |
| 20260901204403 | 23 | 0 | 3.2 | 0.0 | 0.00 | 0.00 | 0.00 | 60 | 1019.4 |
| 20260901204303 | 23 | 0 | 3.2 | 0.0 | 0.00 | 0.00 | 0.00 | 60 | 1019.4 |
| 20260901204203 | 23 | 0 | 3.2 | 0.0 | 0.00 | 0.00 | 0.00 | 60 | 1019.4 |
| 20260901204118 | 23 | 0 | 3.2 | 0.0 | 0.00 | 0.00 | 0.00 | 60 | 1019.4 |
| 20260901204004 | 23 | 157 | 0.0 | 0.0 | 0.00 | 0.00 | 0.00 | 59 | 1019.7 |
| 20260901203803 | 23 | 0 | 3.2 | 0.0 | 0.00 | 0.00 | 0.00 | 59 | 1019.4 |
| 20260901203703 | 23 | 0 | 3.2 | 0.0 | 0.00 | 0.00 | 0.00 | 58 | 1019.4 |
| 20260901203603 | 23 | 0 | 3.2 | 0.0 | 0.00 | 0.00 | 0.00 | 59 | 1019.3 |
| 20260901203508 | 23 | 157 | 0.0 | 0.0 | 0.00 | 0.00 | 0.00 | 58 | 1019.6 |
| 20260901203503 | 23 | 0 | 3.2 | 0.0 | 0.00 | 0.00 | 0.00 | 58 | 1019.4 |
| 20260901203403 | 23 | 0 | 3.2 | 0.0 | 0.00 | 0.00 | 0.00 | 58 | 1019.4 |
| 20260901203303 | 23 | 0 | 3.2 | 0.0 | 0.00 | 0.00 | 0.00 | 58 | 1019.4 |
| 20260901203203 | 23 | 0 | 3.2 | 0.0 | 0.00 | 0.00 | 0.00 | 58 | 1019.4 |
| 20260901203103 | 23 | 0 | 3.2 | 0.0 | 0.00 | 0.00 | 0.00 | 58 | 1019.4 |
| 20260901203016 | 23 | 157 | 0.0 | 0.0 | 0.00 | 0.00 | 0.00 | 58 | 1019.7 |
| 20260901202903 | 23 | 0 | 3.2 | 0.0 | 0.00 | 0.00 | 0.00 | 58 | 1019.4 |
| 20260901202803 | 23 | 0 | 3.2 | 0.0 | 0.00 | 0.00 | 0.00 | 58 | 1019.4 |
| 20260901202703 | 23 | 0 | 3.2 | 0.0 | 0.00 | 0.00 | 0.00 | 58 | 1019.4 |
| 20260901202603 | 23 | 0 | 3.2 | 0.0 | 0.00 | 0.00 | 0.00 | 58 | 1019.4 |
| 20260901202507 | 23 | 157 | 0.0 | 0.0 | 0.00 | 0.00 | 0.00 | 58 | 1019.7 |
| 20260901202503 | 23 | 0 | 3.2 | 0.0 | 0.00 | 0.00 | 0.00 | 58 | 1019.4 |
| 20260901202403 | 23 | 0 | 3.2 | 0.0 | 0.00 | 0.00 | 0.00 | 58 | 1019.4 |
| 20260901202306 | 23 | 0 | 3.2 | 0.0 | 0.00 | 0.00 | 0.00 | 58 | 1019.4 |
| 20260901202203 | 23 | 0 | 3.2 | 0.0 | 0.00 | 0.00 | 0.00 | 58 | 1019.4 |
| 20260901202103 | 23 | 0 | 3.2 | 0.0 | 0.00 | 0.00 | 0.00 | 58 | 1019.4 |
| 20260901202010 | 23 | 157 | 0.0 | 0.0 | 0.00 | 0.00 | 0.00 | 58 | 1019.7 |
| 20260901202003 | 23 | 0 | 3.2 | 0.0 | 0.00 | 0.00 | 0.00 | 58 | 1019.4 |
| 20260901201803 | 23 | 0 | 3.2 | 0.0 | 0.00 | 0.00 | 0.00 | 58 | 1019.5 |
| 20260901201703 | 23 | 0 | 3.2 | 0.0 | 0.00 | 0.00 | 0.00 | 58 | 1019.4 |
| 20260901201603 | 23 | 0 | 3.2 | 0.0 | 0.00 | 0.00 | 0.00 | 58 | 1019.4 |
| 20260901201524 | 23 | 154 | 0.0 | 1.6 | 0.00 | 0.00 | 0.00 | 58 | 1019.7 |
| 20260901201503 | 23 | 0 | 3.2 | 3.2 | 0.00 | 0.00 | 0.00 | 58 | 1019.4 |
| 20260901201403 | 23 | 154 | 3.2 | 3.2 | 0.00 | 0.00 | 0.00 | 58 | 1019.4 |
| 20260901201303 | 23 | 154 | 3.2 | 3.2 | 0.00 | 0.00 | 0.00 | 58 | 1019.4 |
| 20260901201203 | 23 | 154 | 3.2 | 3.2 | 0.00 | 0.00 | 0.00 | 58 | 1019.4 |
| 20260901201013 | 23 | 154 | 0.0 | 1.6 | 0.00 | 0.00 | 0.00 | 58 | 1019.6 |
| 20260901201003 | 23 | 154 | 3.2 | 3.2 | 0.00 | 0.00 | 0.00 | 58 | 1019.4 |
| 20260901200903 | 23 | 154 | 3.2 | 3.2 | 0.00 | 0.00 | 0.00 | 58 | 1019.4 |
| 20260901200803 | 23 | 154 | 3.2 | 3.2 | 0.00 | 0.00 | 0.00 | 58 | 1019.4 |
| 20260901200703 | 23 | 154 | 3.2 | 3.2 | 0.00 | 0.00 | 0.00 | 58 | 1019.4 |
| 20260901200603 | 23 | 154 | 3.2 | 3.2 | 0.00 | 0.00 | 0.00 | 58 | 1019.3 |
| 20260901200511 | 23 | 154 | 0.0 | 1.6 | 0.00 | 0.00 | 0.00 | 58 | 1019.6 |
| 20260901200403 | 23 | 0 | 3.2 | 1.6 | 0.00 | 0.00 | 0.00 | 58 | 1019.3 |
| 20260901200303 | 23 | 0 | 3.2 | 1.6 | 0.00 | 0.00 | 0.00 | 58 | 1019.3 |
| 20260901200203 | 23 | 0 | 3.2 | 1.6 | 0.00 | 0.00 | 0.00 | 58 | 1019.3 |
| 20260901200103 | 23 | 0 | 3.2 | 0.0 | 0.00 | 0.00 | 0.00 | 59 | 1019.3 |
| 20260901200035 | 23 | 301 | 0.0 | 0.0 | 0.00 | 0.00 | 0.00 | 58 | 1019.6 |
| 20260901200003 | 23 | 0 | 3.2 | 0.0 | 0.00 | 0.00 | 0.00 | 59 | 1019.3 |
| 20260901195903 | 23 | 0 | 3.2 | 0.0 | 0.00 | 0.00 | 0.00 | 59 | 1019.3 |
| 20260901195803 | 23 | 0 | 3.2 | 0.0 | 0.00 | 0.00 | 0.00 | 59 | 1019.3 |
| 20260901195703 | 23 | 0 | 3.2 | 0.0 | 0.00 | 0.00 | 0.00 | 58 | 1019.3 |
| 20260901195603 | 23 | 0 | 3.2 | 0.0 | 0.00 | 0.00 | 0.00 | 58 | 1019.3 |
| 20260901195514 | 23 | 301 | 0.0 | 0.0 | 0.00 | 0.00 | 0.00 | 58 | 1019.6 |
| 20260901195503 | 23 | 0 | 3.2 | 0.0 | 0.00 | 0.00 | 0.00 | 58 | 1019.3 |
| 20260901195403 | 23 | 0 | 3.2 | 0.0 | 0.00 | 0.00 | 0.00 | 57 | 1019.3 |
| 20260901195305 | 23 | 0 | 3.2 | 0.0 | 0.00 | 0.00 | 0.00 | 57 | 1019.3 |
| 20260901195203 | 23 | 0 | 3.2 | 3.2 | 0.00 | 0.00 | 0.00 | 57 | 1019.3 |
| 20260901195103 | 24 | 0 | 3.2 | 3.2 | 0.00 | 0.00 | 0.00 | 57 | 1019.4 |
| 20260901195014 | 23 | 301 | 0.0 | 1.6 | 0.00 | 0.00 | 0.00 | 57 | 1019.6 |
| 20260901195003 | 24 | 0 | 3.2 | 3.2 | 0.00 | 0.00 | 0.00 | 57 | 1019.3 |
| 20260901194903 | 24 | 301 | 3.2 | 3.2 | 0.00 | 0.00 | 0.00 | 57 | 1019.3 |
| 20260901194803 | 24 | 301 | 3.2 | 3.2 | 0.00 | 0.00 | 0.00 | 57 | 1019.3 |
| 20260901194703 | 24 | 301 | 3.2 | 3.2 | 0.00 | 0.00 | 0.00 | 57 | 1019.3 |
| 20260901194603 | 24 | 301 | 3.2 | 3.2 | 0.00 | 0.00 | 0.00 | 57 | 1019.3 |
| 20260901194531 | 23 | 301 | 0.0 | 1.6 | 0.00 | 0.00 | 0.00 | 57 | 1019.5 |
| 20260901194504 | 24 | 301 | 3.2 | 3.2 | 0.00 | 0.00 | 0.00 | 57 | 1019.3 |
| 20260901194403 | 24 | 301 | 3.2 | 3.2 | 0.00 | 0.00 | 0.00 | 57 | 1019.3 |
| 20260901194303 | 24 | 301 | 3.2 | 3.2 | 0.00 | 0.00 | 0.00 | 57 | 1019.3 |
| 20260901194203 | 24 | 301 | 3.2 | 3.2 | 0.00 | 0.00 | 0.00 | 57 | 1019.3 |
| 20260901194016 | 24 | 301 | 0.0 | 1.6 | 0.00 | 0.00 | 0.00 | 56 | 1019.6 |
| 20260901194003 | 24 | 301 | 3.2 | 1.6 | 0.00 | 0.00 | 0.00 | 56 | 1019.3 |
| 20260901193903 | 24 | 301 | 3.2 | 1.6 | 0.00 | 0.00 | 0.00 | 56 | 1019.3 |
| 20260901193803 | 24 | 301 | 3.2 | 1.6 | 0.00 | 0.00 | 0.00 | 56 | 1019.3 |
| 20260901193703 | 25 | 0 | 3.2 | 0.0 | 0.00 | 0.00 | 0.00 | 56 | 1019.3 |
| 20260901193518 | 24 | 301 | 0.0 | 0.0 | 0.00 | 0.00 | 0.00 | 56 | 1019.5 |
| 20260901193503 | 25 | 0 | 3.2 | 0.0 | 0.00 | 0.00 | 0.00 | 56 | 1019.3 |
| 20260901193403 | 25 | 0 | 3.2 | 0.0 | 0.00 | 0.00 | 0.00 | 56 | 1019.3 |
| 20260901193303 | 25 | 0 | 3.2 | 0.0 | 0.00 | 0.00 | 0.00 | 56 | 1019.3 |
| 20260901193203 | 25 | 0 | 3.2 | 0.0 | 0.00 | 0.00 | 0.00 | 55 | 1019.3 |
| 20260901193103 | 25 | 0 | 3.2 | 0.0 | 0.00 | 0.00 | 0.00 | 55 | 1019.3 |
| 20260901193012 | 25 | 301 | 0.0 | 0.0 | 0.00 | 0.00 | 0.00 | 55 | 1019.6 |
| 20260901193003 | 25 | 0 | 3.2 | 0.0 | 0.00 | 0.00 | 0.00 | 55 | 1019.4 |
| 20260901192803 | 25 | 0 | 3.2 | 0.0 | 0.00 | 0.00 | 0.00 | 55 | 1019.3 |
| 20260901192703 | 25 | 0 | 3.2 | 0.0 | 0.00 | 0.00 | 0.00 | 55 | 1019.3 |
| 20260901192603 | 25 | 0 | 3.2 | 0.0 | 0.00 | 0.00 | 0.00 | 55 | 1019.4 |
| 20260901192508 | 25 | 301 | 0.0 | 0.0 | 0.00 | 0.00 | 0.00 | 54 | 1019.7 |
| 20260901192503 | 25 | 0 | 3.2 | 0.0 | 0.00 | 0.00 | 0.00 | 55 | 1019.4 |
| 20260901192418 | 25 | 0 | 3.2 | 0.0 | 0.00 | 0.00 | 0.00 | 54 | 1019.4 |
| 20260901192306 | 25 | 0 | 3.2 | 0.0 | 0.00 | 0.00 | 0.00 | 55 | 1019.4 |
| 20260901192103 | 25 | 0 | 3.2 | 0.0 | 0.00 | 0.00 | 0.00 | 54 | 1019.3 |
| 20260901192009 | 25 | 301 | 0.0 | 0.0 | 0.00 | 0.00 | 0.00 | 54 | 1019.6 |
| 20260901192003 | 25 | 0 | 3.2 | 0.0 | 0.00 | 0.00 | 0.00 | 54 | 1019.3 |
| 20260901191903 | 25 | 0 | 3.2 | 0.0 | 0.00 | 0.00 | 0.00 | 54 | 1019.3 |
| 20260901191803 | 25 | 0 | 3.2 | 0.0 | 0.00 | 0.00 | 0.00 | 54 | 1019.2 |
| 20260901191703 | 25 | 0 | 3.2 | 0.0 | 0.00 | 0.00 | 0.00 | 53 | 1019.2 |
| 20260901191603 | 25 | 0 | 3.2 | 0.0 | 0.00 | 0.00 | 0.00 | 53 | 1019.2 |
| 20260901191529 | 25 | 301 | 0.0 | 0.0 | 0.00 | 0.00 | 0.00 | 53 | 1019.5 |
| 20260901191503 | 25 | 0 | 3.2 | 0.0 | 0.00 | 0.00 | 0.00 | 53 | 1019.1 |
| 20260901191403 | 25 | 0 | 3.2 | 0.0 | 0.00 | 0.00 | 0.00 | 53 | 1019.2 |
| 20260901191303 | 26 | 0 | 3.2 | 0.0 | 0.00 | 0.00 | 0.00 | 53 | 1019.3 |
| 20260901191203 | 26 | 0 | 3.2 | 0.0 | 0.00 | 0.00 | 0.00 | 53 | 1019.2 |
| 20260901191103 | 26 | 0 | 3.2 | 0.0 | 0.00 | 0.00 | 0.00 | 53 | 1019.3 |
| 20260901191011 | 25 | 301 | 0.0 | 0.0 | 0.00 | 0.00 | 0.00 | 52 | 1019.5 |
| 20260901191003 | 26 | 0 | 3.2 | 0.0 | 0.00 | 0.00 | 0.00 | 52 | 1019.3 |
| 20260901190903 | 26 | 0 | 3.2 | 0.0 | 0.00 | 0.00 | 0.00 | 52 | 1019.3 |
| 20260901190803 | 26 | 0 | 3.2 | 0.0 | 0.00 | 0.00 | 0.00 | 52 | 1019.2 |
| 20260901190703 | 26 | 0 | 3.2 | 0.0 | 0.00 | 0.00 | 0.00 | 52 | 1019.3 |
| 20260901190515 | 26 | 301 | 0.0 | 0.0 | 0.00 | 0.00 | 0.00 | 51 | 1019.5 |
| 20260901190503 | 26 | 0 | 3.2 | 0.0 | 0.00 | 0.00 | 0.00 | 52 | 1019.3 |
| 20260901190403 | 26 | 0 | 3.2 | 0.0 | 0.00 | 0.00 | 0.00 | 52 | 1019.2 |
| 20260901190303 | 26 | 0 | 3.2 | 0.0 | 0.00 | 0.00 | 0.00 | 51 | 1019.3 |
| 20260901190203 | 26 | 0 | 3.2 | 0.0 | 0.00 | 0.00 | 0.00 | 51 | 1019.3 |
| 20260901190103 | 26 | 0 | 3.2 | 0.0 | 0.00 | 0.00 | 0.00 | 52 | 1019.3 |
| 20260901190027 | 26 | 301 | 0.0 | 0.0 | 0.00 | 0.00 | 0.00 | 51 | 1019.6 |
| 20260901190003 | 26 | 0 | 3.2 | 0.0 | 0.00 | 0.00 | 0.00 | 51 | 1019.2 |
| 20260901185903 | 26 | 0 | 3.2 | 0.0 | 0.00 | 0.00 | 0.00 | 50 | 1019.3 |
| 20260901185703 | 26 | 0 | 3.2 | 1.6 | 0.00 | 0.00 | 0.00 | 50 | 1019.3 |
| 20260901185603 | 26 | 301 | 3.2 | 1.6 | 0.00 | 0.00 | 0.00 | 50 | 1019.3 |
| 20260901185511 | 26 | 301 | 0.0 | 1.6 | 0.00 | 0.00 | 0.00 | 50 | 1019.5 |
| 20260901185503 | 26 | 301 | 3.2 | 1.6 | 0.00 | 0.00 | 0.00 | 50 | 1019.3 |
| 20260901185403 | 26 | 301 | 3.2 | 1.6 | 0.00 | 0.00 | 0.00 | 50 | 1019.2 |
| 20260901185306 | 26 | 301 | 3.2 | 1.6 | 0.00 | 0.00 | 0.00 | 50 | 1019.2 |
| 20260901185203 | 26 | 301 | 3.2 | 1.6 | 0.00 | 0.00 | 0.00 | 50 | 1019.3 |
| 20260901185103 | 26 | 301 | 3.2 | 3.2 | 0.00 | 0.00 | 0.00 | 49 | 1019.2 |
| 20260901185014 | 26 | 301 | 0.0 | 3.2 | 0.00 | 0.00 | 0.00 | 49 | 1019.5 |
| 20260901185003 | 26 | 306 | 3.2 | 3.2 | 0.00 | 0.00 | 0.00 | 49 | 1019.3 |
| 20260901184903 | 26 | 308 | 3.2 | 3.2 | 0.00 | 0.00 | 0.00 | 50 | 1019.2 |
| 20260901184803 | 26 | 308 | 3.2 | 3.2 | 0.00 | 0.00 | 0.00 | 50 | 1019.2 |
| 20260901184703 | 26 | 308 | 3.2 | 3.2 | 0.00 | 0.00 | 0.00 | 49 | 1019.1 |
| 20260901184618 | 26 | 310 | 3.2 | 3.2 | 0.00 | 0.00 | 0.00 | 48 | 1019.1 |
| 20260901184508 | 26 | 300 | 0.0 | 3.2 | 0.00 | 0.00 | 0.00 | 48 | 1019.4 |
| 20260901184503 | 26 | 310 | 3.2 | 3.2 | 0.00 | 0.00 | 0.00 | 49 | 1019.1 |
| 20260901184303 | 26 | 313 | 3.2 | 3.2 | 0.00 | 0.00 | 0.00 | 49 | 1019.1 |
| 20260901184203 | 26 | 313 | 3.2 | 3.2 | 0.00 | 0.00 | 0.00 | 48 | 1019.1 |
| 20260901184103 | 26 | 313 | 3.2 | 3.2 | 0.00 | 0.00 | 0.00 | 48 | 1019.1 |
| 20260901184004 | 26 | 313 | 0.0 | 3.2 | 0.00 | 0.00 | 0.00 | 48 | 1019.4 |
| 20260901183903 | 26 | 0 | 3.2 | 1.6 | 0.00 | 0.00 | 0.00 | 50 | 1019.1 |
| 20260901183803 | 26 | 0 | 3.2 | 1.6 | 0.00 | 0.00 | 0.00 | 50 | 1019.0 |
| 20260901183718 | 26 | 0 | 3.2 | 1.6 | 0.00 | 0.00 | 0.00 | 49 | 1019.0 |
| 20260901183506 | 26 | 318 | 0.0 | 1.6 | 0.00 | 0.00 | 0.00 | 48 | 1019.4 |
| 20260901183403 | 26 | 0 | 3.2 | 1.6 | 0.00 | 0.00 | 0.00 | 48 | 1019.0 |
| 20260901183303 | 26 | 0 | 3.2 | 0.0 | 0.00 | 0.00 | 0.00 | 48 | 1019.0 |
| 20260901183203 | 26 | 0 | 3.2 | 0.0 | 0.00 | 0.00 | 0.00 | 48 | 1019.0 |
| 20260901183103 | 26 | 0 | 3.2 | 0.0 | 0.00 | 0.00 | 0.00 | 48 | 1019.0 |
| 20260901183010 | 26 | 318 | 0.0 | 0.0 | 0.00 | 0.00 | 0.00 | 47 | 1019.3 |
| 20260901183003 | 26 | 0 | 3.2 | 0.0 | 0.00 | 0.00 | 0.00 | 48 | 1019.0 |
| 20260901182903 | 27 | 0 | 3.2 | 0.0 | 0.00 | 0.00 | 0.00 | 48 | 1019.0 |
| 20260901182803 | 27 | 0 | 3.2 | 0.0 | 0.00 | 0.00 | 0.00 | 48 | 1019.0 |
| 20260901182703 | 27 | 0 | 3.2 | 0.0 | 0.00 | 0.00 | 0.00 | 48 | 1018.9 |
| 20260901182603 | 27 | 0 | 3.2 | 1.6 | 0.00 | 0.00 | 0.00 | 47 | 1018.9 |
| 20260901182507 | 26 | 318 | 0.0 | 3.2 | 0.00 | 0.00 | 0.00 | 47 | 1019.2 |
| 20260901182503 | 27 | 111 | 3.2 | 1.6 | 0.00 | 0.00 | 0.00 | 48 | 1018.9 |
| 20260901182403 | 27 | 111 | 3.2 | 1.6 | 0.00 | 0.00 | 0.00 | 47 | 1018.9 |
| 20260901182305 | 27 | 111 | 3.2 | 1.6 | 0.00 | 0.00 | 0.00 | 47 | 1018.9 |
| 20260901182203 | 27 | 111 | 3.2 | 3.2 | 0.00 | 0.00 | 0.00 | 47 | 1018.9 |
| 20260901182103 | 27 | 134 | 3.2 | 3.2 | 0.00 | 0.00 | 0.00 | 47 | 1018.9 |
| 20260901182005 | 26 | 318 | 0.0 | 3.2 | 0.00 | 0.00 | 0.00 | 47 | 1019.1 |
| 20260901182003 | 27 | 144 | 3.2 | 3.2 | 0.00 | 0.00 | 0.00 | 47 | 1018.9 |
| 20260901181903 | 27 | 144 | 3.2 | 3.2 | 0.00 | 0.00 | 0.00 | 47 | 1018.8 |
| 20260901181803 | 27 | 144 | 3.2 | 3.2 | 0.00 | 0.00 | 0.00 | 47 | 1018.8 |
| 20260901181703 | 27 | 144 | 3.2 | 3.2 | 0.00 | 0.00 | 0.00 | 47 | 1018.8 |
| 20260901181603 | 27 | 156 | 3.2 | 3.2 | 0.00 | 0.00 | 0.00 | 47 | 1018.8 |
| 20260901181522 | 26 | 111 | 0.0 | 3.2 | 0.00 | 0.00 | 0.00 | 47 | 1019.1 |
| 20260901181503 | 27 | 169 | 3.2 | 3.2 | 0.00 | 0.00 | 0.00 | 47 | 1018.8 |
| 20260901181403 | 27 | 190 | 3.2 | 3.2 | 0.00 | 0.00 | 0.00 | 47 | 1018.8 |
| 20260901181303 | 27 | 190 | 3.2 | 3.2 | 0.00 | 0.00 | 0.00 | 47 | 1018.8 |
| 20260901181203 | 27 | 224 | 3.2 | 3.2 | 0.00 | 0.00 | 0.00 | 47 | 1018.8 |
| 20260901181103 | 27 | 302 | 3.2 | 4.8 | 0.00 | 0.00 | 0.00 | 47 | 1018.8 |
| 20260901181007 | 27 | 177 | 0.0 | 4.8 | 0.00 | 0.00 | 0.00 | 47 | 1019.1 |
| 20260901181003 | 27 | 312 | 3.2 | 4.8 | 0.00 | 0.00 | 0.00 | 47 | 1018.8 |
| 20260901180803 | 27 | 313 | 3.2 | 4.8 | 0.00 | 0.00 | 0.00 | 47 | 1018.8 |
| 20260901180703 | 27 | 308 | 3.2 | 4.8 | 0.00 | 0.00 | 0.00 | 47 | 1018.7 |
| 20260901180604 | 27 | 316 | 3.2 | 4.8 | 0.00 | 0.00 | 0.00 | 47 | 1018.7 |
| 20260901180511 | 27 | 309 | 0.0 | 6.4 | 0.00 | 0.00 | 0.00 | 46 | 1019.0 |
| 20260901180504 | 27 | 313 | 3.2 | 4.8 | 0.00 | 0.00 | 0.00 | 47 | 1018.7 |
| 20260901180403 | 27 | 309 | 3.2 | 4.8 | 0.00 | 0.00 | 0.00 | 47 | 1018.7 |
| 20260901180303 | 27 | 305 | 3.2 | 4.8 | 0.00 | 0.00 | 0.00 | 47 | 1018.7 |
| 20260901180203 | 27 | 313 | 3.2 | 4.8 | 0.00 | 0.00 | 0.00 | 46 | 1018.6 |
| 20260901180024 | 27 | 312 | 0.0 | 6.4 | 0.00 | 0.00 | 0.00 | 46 | 1018.9 |
| 20260901175903 | 27 | 312 | 3.2 | 6.4 | 0.00 | 0.00 | 0.00 | 47 | 1018.6 |
| 20260901175803 | 27 | 307 | 3.2 | 6.4 | 0.00 | 0.00 | 0.00 | 47 | 1018.6 |
| 20260901175703 | 27 | 306 | 3.2 | 6.4 | 0.00 | 0.00 | 0.00 | 47 | 1018.5 |
| 20260901175514 | 27 | 302 | 1.6 | 6.4 | 0.00 | 0.00 | 0.00 | 46 | 1018.8 |
| 20260901175503 | 27 | 306 | 3.2 | 6.4 | 0.00 | 0.00 | 0.00 | 47 | 1018.5 |
| 20260901175403 | 27 | 319 | 3.2 | 6.4 | 0.00 | 0.00 | 0.00 | 47 | 1018.5 |
| 20260901175305 | 27 | 321 | 3.2 | 6.4 | 0.00 | 0.00 | 0.00 | 47 | 1018.5 |
| 20260901175203 | 27 | 310 | 3.2 | 6.4 | 0.00 | 0.00 | 0.00 | 47 | 1018.5 |
| 20260901175103 | 27 | 320 | 3.2 | 6.4 | 0.00 | 0.00 | 0.00 | 47 | 1018.5 |
| 20260901175014 | 27 | 297 | 1.6 | 6.4 | 0.00 | 0.00 | 0.00 | 46 | 1018.8 |
| 20260901175003 | 27 | 322 | 3.2 | 6.4 | 0.00 | 0.00 | 0.00 | 47 | 1018.5 |
| 20260901174903 | 27 | 317 | 3.2 | 6.4 | 0.00 | 0.00 | 0.00 | 47 | 1018.5 |
| 20260901174803 | 27 | 322 | 3.2 | 6.4 | 0.00 | 0.00 | 0.00 | 47 | 1018.4 |
| 20260901174703 | 27 | 322 | 3.2 | 6.4 | 0.00 | 0.00 | 0.00 | 47 | 1018.4 |
| 20260901174603 | 27 | 316 | 3.2 | 6.4 | 0.00 | 0.00 | 0.00 | 47 | 1018.4 |
| 20260901174529 | 27 | 304 | 3.2 | 6.4 | 0.00 | 0.00 | 0.00 | 47 | 1018.7 |
| 20260901174503 | 27 | 317 | 3.2 | 6.4 | 0.00 | 0.00 | 0.00 | 47 | 1018.4 |
| 20260901174403 | 27 | 316 | 3.2 | 6.4 | 0.00 | 0.00 | 0.00 | 47 | 1018.4 |
| 20260901174303 | 27 | 326 | 3.2 | 6.4 | 0.00 | 0.00 | 0.00 | 47 | 1018.3 |
| 20260901174103 | 27 | 322 | 3.2 | 6.4 | 0.00 | 0.00 | 0.00 | 47 | 1018.3 |
| 20260901174017 | 27 | 325 | 1.6 | 6.4 | 0.00 | 0.00 | 0.00 | 47 | 1018.5 |
| 20260901174003 | 27 | 330 | 3.2 | 6.4 | 0.00 | 0.00 | 0.00 | 47 | 1018.2 |
| 20260901173803 | 27 | 347 | 3.2 | 6.4 | 0.00 | 0.00 | 0.00 | 47 | 1018.3 |
| 20260901173703 | 27 | 354 | 3.2 | 6.4 | 0.00 | 0.00 | 0.00 | 47 | 1018.2 |
| 20260901173603 | 27 | 1 | 3.2 | 6.4 | 0.00 | 0.00 | 0.00 | 47 | 1018.2 |
| 20260901173504 | 27 | 315 | 1.6 | 6.4 | 0.00 | 0.00 | 0.00 | 46 | 1018.5 |
| 20260901173403 | 27 | 3 | 3.2 | 6.4 | 0.00 | 0.00 | 0.00 | 47 | 1018.2 |
| 20260901173303 | 27 | 351 | 3.2 | 6.4 | 0.00 | 0.00 | 0.00 | 47 | 1018.2 |
| 20260901173203 | 27 | 3 | 3.2 | 8.0 | 0.00 | 0.00 | 0.00 | 47 | 1018.2 |
| 20260901173015 | 27 | 9 | 3.2 | 6.4 | 0.00 | 0.00 | 0.00 | 47 | 1018.4 |
| 20260901172903 | 27 | 346 | 3.2 | 8.0 | 0.00 | 0.00 | 0.00 | 47 | 1018.2 |
| 20260901172803 | 27 | 344 | 3.2 | 8.0 | 0.00 | 0.00 | 0.00 | 47 | 1018.2 |
| 20260901172717 | 27 | 351 | 3.2 | 8.0 | 0.00 | 0.00 | 0.00 | 47 | 1018.2 |
| 20260901172603 | 27 | 351 | 3.2 | 8.0 | 0.00 | 0.00 | 0.00 | 47 | 1018.1 |
| 20260901172507 | 27 | 300 | 1.6 | 6.4 | 0.00 | 0.00 | 0.00 | 46 | 1018.4 |
| 20260901172403 | 27 | 351 | 3.2 | 8.0 | 0.00 | 0.00 | 0.00 | 47 | 1018.1 |
| 20260901172305 | 27 | 354 | 3.2 | 8.0 | 0.00 | 0.00 | 0.00 | 47 | 1018.1 |
| 20260901172203 | 27 | 356 | 3.2 | 8.0 | 0.00 | 0.00 | 0.00 | 47 | 1018.1 |
| 20260901172103 | 27 | 352 | 3.2 | 4.8 | 0.00 | 0.00 | 0.00 | 47 | 1018.0 |
| 20260901172008 | 27 | 82 | 1.6 | 4.8 | 0.00 | 0.00 | 0.00 | 46 | 1018.3 |
| 20260901172003 | 27 | 345 | 3.2 | 4.8 | 0.00 | 0.00 | 0.00 | 47 | 1018.1 |
| 20260901171903 | 27 | 3 | 3.2 | 4.8 | 0.00 | 0.00 | 0.00 | 46 | 1018.0 |
| 20260901171803 | 27 | 12 | 3.2 | 4.8 | 0.00 | 0.00 | 0.00 | 47 | 1018.0 |
| 20260901171703 | 27 | 6 | 3.2 | 6.4 | 0.00 | 0.00 | 0.00 | 47 | 1018.0 |
| 20260901171603 | 27 | 345 | 3.2 | 6.4 | 0.00 | 0.00 | 0.00 | 46 | 1018.0 |
| 20260901171518 | 27 | 340 | 0.0 | 6.4 | 0.00 | 0.00 | 0.00 | 46 | 1018.3 |
| 20260901171503 | 27 | 347 | 3.2 | 6.4 | 0.00 | 0.00 | 0.00 | 46 | 1018.0 |
| 20260901171403 | 27 | 356 | 3.2 | 6.4 | 0.00 | 0.00 | 0.00 | 46 | 1018.0 |
| 20260901171303 | 27 | 350 | 3.2 | 6.4 | 0.00 | 0.00 | 0.00 | 46 | 1017.9 |
| 20260901171103 | 27 | 343 | 3.2 | 6.4 | 0.00 | 0.00 | 0.00 | 46 | 1017.9 |
| 20260901171008 | 27 | 64 | 0.0 | 6.4 | 0.00 | 0.00 | 0.00 | 46 | 1018.2 |
| 20260901171003 | 27 | 355 | 3.2 | 6.4 | 0.00 | 0.00 | 0.00 | 46 | 1017.9 |
| 20260901170903 | 27 | 5 | 3.2 | 6.4 | 0.00 | 0.00 | 0.00 | 46 | 1017.9 |
| 20260901170803 | 27 | 4 | 3.2 | 6.4 | 0.00 | 0.00 | 0.00 | 46 | 1017.9 |
| 20260901170703 | 27 | 12 | 3.2 | 6.4 | 0.00 | 0.00 | 0.00 | 46 | 1017.9 |
| 20260901170603 | 27 | 59 | 3.2 | 3.2 | 0.00 | 0.00 | 0.00 | 46 | 1017.9 |
| 20260901170511 | 27 | 349 | 1.6 | 6.4 | 0.00 | 0.00 | 0.00 | 45 | 1018.2 |
| 20260901170503 | 27 | 71 | 3.2 | 9.7 | 0.00 | 0.00 | 0.00 | 46 | 1017.9 |
| 20260901170403 | 27 | 88 | 3.2 | 9.7 | 0.00 | 0.00 | 0.00 | 46 | 1017.9 |
| 20260901170203 | 28 | 21 | 3.2 | 9.7 | 0.00 | 0.00 | 0.00 | 46 | 1017.8 |
| 20260901170019 | 27 | 96 | 1.6 | 8.0 | 0.00 | 0.00 | 0.00 | 45 | 1018.1 |
| 20260901165903 | 28 | 328 | 3.2 | 9.7 | 0.00 | 0.00 | 0.00 | 46 | 1017.8 |
| 20260901165803 | 28 | 306 | 3.2 | 9.7 | 0.00 | 0.00 | 0.00 | 46 | 1017.8 |
| 20260901165603 | 28 | 292 | 3.2 | 9.7 | 0.00 | 0.00 | 0.00 | 46 | 1017.8 |
| 20260901165512 | 27 | 234 | 1.6 | 8.0 | 0.00 | 0.00 | 0.00 | 45 | 1018.1 |
| 20260901165503 | 28 | 305 | 3.2 | 9.7 | 0.00 | 0.00 | 0.00 | 46 | 1017.7 |
| 20260901165403 | 28 | 310 | 3.2 | 8.0 | 0.00 | 0.00 | 0.00 | 46 | 1017.8 |
| 20260901165306 | 28 | 346 | 3.2 | 4.8 | 0.00 | 0.00 | 0.00 | 46 | 1017.8 |
| 20260901165203 | 28 | 335 | 3.2 | 4.8 | 0.00 | 0.00 | 0.00 | 46 | 1017.8 |
| 20260901165104 | 28 | 335 | 3.2 | 4.8 | 0.00 | 0.00 | 0.00 | 46 | 1017.8 |
| 20260901165012 | 28 | 9 | 0.0 | 4.8 | 0.00 | 0.00 | 0.00 | 46 | 1018.1 |
| 20260901165004 | 28 | 326 | 3.2 | 4.8 | 0.00 | 0.00 | 0.00 | 46 | 1017.7 |
| 20260901164903 | 28 | 333 | 3.2 | 4.8 | 0.00 | 0.00 | 0.00 | 46 | 1017.7 |
| 20260901164803 | 28 | 327 | 3.2 | 4.8 | 0.00 | 0.00 | 0.00 | 46 | 1017.7 |
| 20260901164703 | 28 | 325 | 3.2 | 4.8 | 0.00 | 0.00 | 0.00 | 46 | 1017.7 |
| 20260901164603 | 28 | 333 | 3.2 | 4.8 | 0.00 | 0.00 | 0.00 | 46 | 1017.7 |
| 20260901164528 | 28 | 339 | 1.6 | 3.2 | 0.00 | 0.00 | 0.00 | 45 | 1018.0 |
| 20260901164503 | 28 | 327 | 3.2 | 4.8 | 0.00 | 0.00 | 0.00 | 46 | 1017.7 |
| 20260901164403 | 28 | 337 | 3.2 | 3.2 | 0.00 | 0.00 | 0.00 | 46 | 1017.6 |
| 20260901164303 | 28 | 329 | 3.2 | 4.8 | 0.00 | 0.00 | 0.00 | 46 | 1017.7 |
| 20260901164203 | 28 | 331 | 3.2 | 4.8 | 0.00 | 0.00 | 0.00 | 46 | 1017.6 |
| 20260901164103 | 28 | 324 | 3.2 | 4.8 | 0.00 | 0.00 | 0.00 | 46 | 1017.7 |
| 20260901164013 | 28 | 303 | 1.6 | 4.8 | 0.00 | 0.00 | 0.00 | 45 | 1018.0 |
| 20260901164003 | 28 | 345 | 3.2 | 4.8 | 0.00 | 0.00 | 0.00 | 46 | 1017.6 |
| 20260901163903 | 28 | 333 | 3.2 | 4.8 | 0.00 | 0.00 | 0.00 | 46 | 1017.6 |
| 20260901163803 | 28 | 337 | 3.2 | 4.8 | 0.00 | 0.00 | 0.00 | 46 | 1017.6 |
| 20260901163703 | 28 | 339 | 3.2 | 4.8 | 0.00 | 0.00 | 0.00 | 46 | 1017.6 |
| 20260901163515 | 28 | 300 | 1.6 | 4.8 | 0.00 | 0.00 | 0.00 | 45 | 1017.8 |
| 20260901163403 | 28 | 348 | 3.2 | 4.8 | 0.00 | 0.00 | 0.00 | 46 | 1017.6 |
| 20260901163303 | 28 | 39 | 3.2 | 4.8 | 0.00 | 0.00 | 0.00 | 46 | 1017.6 |
| 20260901163203 | 28 | 43 | 3.2 | 4.8 | 0.00 | 0.00 | 0.00 | 46 | 1017.6 |
| 20260901163103 | 28 | 35 | 3.2 | 4.8 | 0.00 | 0.00 | 0.00 | 46 | 1017.6 |
| 20260901163032 | 28 | 78 | 1.6 | 6.4 | 0.00 | 0.00 | 0.00 | 45 | 1017.8 |
| 20260901163003 | 28 | 33 | 3.2 | 3.2 | 0.00 | 0.00 | 0.00 | 46 | 1017.5 |
| 20260901162903 | 28 | 39 | 3.2 | 8.0 | 0.00 | 0.00 | 0.00 | 45 | 1017.5 |
| 20260901162803 | 28 | 3 | 3.2 | 8.0 | 0.00 | 0.00 | 0.00 | 45 | 1017.5 |
| 20260901162703 | 28 | 348 | 3.2 | 8.0 | 0.00 | 0.00 | 0.00 | 45 | 1017.5 |
| 20260901162617 | 28 | 346 | 3.2 | 8.0 | 0.00 | 0.00 | 0.00 | 45 | 1017.5 |
| 20260901162504 | 28 | 82 | 1.6 | 8.0 | 0.00 | 0.00 | 0.00 | 45 | 1017.7 |
| 20260901162306 | 28 | 328 | 3.2 | 8.0 | 0.00 | 0.00 | 0.00 | 45 | 1017.4 |
| 20260901162203 | 28 | 331 | 3.2 | 8.0 | 0.00 | 0.00 | 0.00 | 45 | 1017.5 |
| 20260901162103 | 28 | 329 | 3.2 | 8.0 | 0.00 | 0.00 | 0.00 | 45 | 1017.4 |
| 20260901162003 | 28 | 65 | 3.2 | 8.0 | 0.00 | 0.00 | 0.00 | 44 | 1017.7 |
| 20260901161903 | 28 | 335 | 3.2 | 8.0 | 0.00 | 0.00 | 0.00 | 45 | 1017.5 |
| 20260901161703 | 28 | 325 | 3.2 | 8.0 | 0.00 | 0.00 | 0.00 | 45 | 1017.4 |
| 20260901161603 | 28 | 322 | 3.2 | 8.0 | 0.00 | 0.00 | 0.00 | 45 | 1017.4 |
| 20260901161524 | 28 | 294 | 1.6 | 6.4 | 0.00 | 0.00 | 0.00 | 45 | 1017.7 |
| 20260901161503 | 28 | 333 | 3.2 | 8.0 | 0.00 | 0.00 | 0.00 | 45 | 1017.4 |
| 20260901161403 | 28 | 331 | 3.2 | 8.0 | 0.00 | 0.00 | 0.00 | 45 | 1017.4 |
| 20260901161303 | 28 | 331 | 3.2 | 8.0 | 0.00 | 0.00 | 0.00 | 45 | 1017.4 |
| 20260901161203 | 28 | 328 | 3.2 | 8.0 | 0.00 | 0.00 | 0.00 | 45 | 1017.4 |
| 20260901161103 | 28 | 332 | 3.2 | 8.0 | 0.00 | 0.00 | 0.00 | 45 | 1017.4 |
| 20260901161008 | 28 | 56 | 1.6 | 8.0 | 0.00 | 0.00 | 0.00 | 44 | 1017.7 |
| 20260901161003 | 28 | 328 | 3.2 | 8.0 | 0.00 | 0.00 | 0.00 | 45 | 1017.4 |
| 20260901160903 | 28 | 326 | 3.2 | 8.0 | 0.00 | 0.00 | 0.00 | 45 | 1017.4 |
| 20260901160803 | 28 | 338 | 3.2 | 16.1 | 0.00 | 0.00 | 0.00 | 45 | 1017.3 |
| 20260901160703 | 28 | 344 | 3.2 | 16.1 | 0.00 | 0.00 | 0.00 | 45 | 1017.3 |
| 20260901160603 | 28 | 340 | 3.2 | 16.1 | 0.00 | 0.00 | 0.00 | 45 | 1017.3 |
| 20260901160509 | 28 | 352 | 3.2 | 14.5 | 0.00 | 0.00 | 0.00 | 44 | 1017.6 |
| 20260901160503 | 28 | 341 | 3.2 | 16.1 | 0.00 | 0.00 | 0.00 | 45 | 1017.3 |
| 20260901160403 | 28 | 349 | 3.2 | 16.1 | 0.00 | 0.00 | 0.00 | 45 | 1017.3 |
| 20260901160303 | 28 | 353 | 3.2 | 16.1 | 0.00 | 0.00 | 0.00 | 45 | 1017.3 |
| 20260901160203 | 28 | 340 | 3.2 | 16.1 | 0.00 | 0.00 | 0.00 | 45 | 1017.3 |
| 20260901160020 | 28 | 102 | 3.2 | 14.5 | 0.00 | 0.00 | 0.00 | 44 | 1017.6 |
| 20260901160003 | 28 | 324 | 3.2 | 16.1 | 0.00 | 0.00 | 0.00 | 45 | 1017.4 |
| 20260901155903 | 28 | 327 | 3.2 | 16.1 | 0.00 | 0.00 | 0.00 | 44 | 1017.3 |
| 20260901155803 | 28 | 327 | 3.2 | 16.1 | 0.00 | 0.00 | 0.00 | 45 | 1017.3 |
| 20260901155703 | 29 | 334 | 3.2 | 14.5 | 0.00 | 0.00 | 0.00 | 45 | 1017.3 |
| 20260901155603 | 29 | 344 | 3.2 | 14.5 | 0.00 | 0.00 | 0.00 | 45 | 1017.3 |
| 20260901155510 | 28 | 360 | 4.8 | 12.9 | 0.00 | 0.00 | 0.00 | 44 | 1017.6 |
| 20260901155503 | 29 | 347 | 3.2 | 14.5 | 0.00 | 0.00 | 0.00 | 45 | 1017.3 |
| 20260901155403 | 29 | 355 | 3.2 | 14.5 | 0.00 | 0.00 | 0.00 | 45 | 1017.3 |
| 20260901155306 | 29 | 357 | 3.2 | 14.5 | 0.00 | 0.00 | 0.00 | 44 | 1017.3 |
| 20260901155203 | 29 | 9 | 3.2 | 8.0 | 0.00 | 0.00 | 0.00 | 45 | 1017.2 |
| 20260901155103 | 29 | 19 | 3.2 | 6.4 | 0.00 | 0.00 | 0.00 | 45 | 1017.2 |
| 20260901155013 | 28 | 344 | 3.2 | 6.4 | 0.00 | 0.00 | 0.00 | 44 | 1017.5 |
| 20260901155003 | 29 | 45 | 3.2 | 6.4 | 0.00 | 0.00 | 0.00 | 45 | 1017.3 |
| 20260901154903 | 29 | 44 | 3.2 | 6.4 | 0.00 | 0.00 | 0.00 | 45 | 1017.2 |
| 20260901154803 | 29 | 41 | 3.2 | 6.4 | 0.00 | 0.00 | 0.00 | 45 | 1017.2 |
| 20260901154703 | 29 | 17 | 3.2 | 6.4 | 0.00 | 0.00 | 0.00 | 44 | 1017.2 |
| 20260901154603 | 29 | 20 | 3.2 | 4.8 | 0.00 | 0.00 | 0.00 | 44 | 1017.3 |
| 20260901154525 | 28 | 92 | 1.6 | 6.4 | 0.00 | 0.00 | 0.00 | 44 | 1017.6 |
| 20260901154503 | 29 | 360 | 3.2 | 4.8 | 0.00 | 0.00 | 0.00 | 44 | 1017.3 |
| 20260901154403 | 29 | 343 | 3.2 | 6.4 | 0.00 | 0.00 | 0.00 | 44 | 1017.3 |
| 20260901154303 | 29 | 345 | 3.2 | 6.4 | 0.00 | 0.00 | 0.00 | 44 | 1017.2 |
| 20260901154203 | 29 | 28 | 3.2 | 6.4 | 0.00 | 0.00 | 0.00 | 44 | 1017.2 |
| 20260901154103 | 29 | 19 | 3.2 | 6.4 | 0.00 | 0.00 | 0.00 | 44 | 1017.2 |
| 20260901154011 | 28 | 95 | 1.6 | 6.4 | 0.00 | 0.00 | 0.00 | 44 | 1017.5 |
| 20260901154003 | 29 | 30 | 3.2 | 6.4 | 0.00 | 0.00 | 0.00 | 44 | 1017.2 |
| 20260901153903 | 29 | 68 | 3.2 | 6.4 | 0.00 | 0.00 | 0.00 | 44 | 1017.2 |
| 20260901153803 | 29 | 32 | 3.2 | 6.4 | 0.00 | 0.00 | 0.00 | 44 | 1017.2 |
| 20260901153703 | 29 | 8 | 3.2 | 6.4 | 0.00 | 0.00 | 0.00 | 44 | 1017.2 |
| 20260901153513 | 28 | 288 | 1.6 | 14.5 | 0.00 | 0.00 | 0.00 | 44 | 1017.5 |
| 20260901153503 | 29 | 334 | 3.2 | 6.4 | 0.00 | 0.00 | 0.00 | 44 | 1017.2 |
| 20260901153403 | 29 | 30 | 3.2 | 6.4 | 0.00 | 0.00 | 0.00 | 44 | 1017.2 |
| 20260901153303 | 29 | 336 | 3.2 | 16.1 | 0.00 | 0.00 | 0.00 | 44 | 1017.2 |
| 20260901153203 | 29 | 309 | 3.2 | 16.1 | 0.00 | 0.00 | 0.00 | 44 | 1017.2 |
| 20260901153118 | 29 | 306 | 3.2 | 16.1 | 0.00 | 0.00 | 0.00 | 44 | 1017.2 |
| 20260901153030 | 29 | 90 | 4.8 | 16.1 | 0.00 | 0.00 | 0.00 | 44 | 1017.5 |
| 20260901153003 | 29 | 299 | 3.2 | 16.1 | 0.00 | 0.00 | 0.00 | 44 | 1017.2 |
| 20260901152803 | 29 | 308 | 3.2 | 16.1 | 0.00 | 0.00 | 0.00 | 44 | 1017.2 |
| 20260901152703 | 29 | 316 | 3.2 | 16.1 | 0.00 | 0.00 | 0.00 | 44 | 1017.2 |
| 20260901152603 | 29 | 333 | 3.2 | 16.1 | 0.00 | 0.00 | 0.00 | 44 | 1017.2 |
| 20260901152517 | 29 | 288 | 4.8 | 16.1 | 0.00 | 0.00 | 0.00 | 43 | 1017.5 |
| 20260901152503 | 29 | 355 | 3.2 | 16.1 | 0.00 | 0.00 | 0.00 | 44 | 1017.1 |
| 20260901152403 | 29 | 344 | 3.2 | 16.1 | 0.00 | 0.00 | 0.00 | 44 | 1017.2 |
| 20260901152305 | 29 | 353 | 3.2 | 16.1 | 0.00 | 0.00 | 0.00 | 43 | 1017.1 |
| 20260901152203 | 30 | 17 | 3.2 | 16.1 | 0.00 | 0.00 | 0.00 | 43 | 1017.1 |
| 20260901152103 | 30 | 44 | 3.2 | 16.1 | 0.00 | 0.00 | 0.00 | 43 | 1017.1 |
| 20260901152017 | 29 | 299 | 4.8 | 14.5 | 0.00 | 0.00 | 0.00 | 43 | 1017.4 |
| 20260901152003 | 30 | 40 | 3.2 | 16.1 | 0.00 | 0.00 | 0.00 | 43 | 1017.1 |
| 20260901151903 | 30 | 22 | 3.2 | 16.1 | 0.00 | 0.00 | 0.00 | 43 | 1017.1 |
| 20260901151803 | 30 | 8 | 3.2 | 16.1 | 0.00 | 0.00 | 0.00 | 43 | 1017.0 |
| 20260901151703 | 30 | 354 | 3.2 | 11.3 | 0.00 | 0.00 | 0.00 | 43 | 1017.1 |
| 20260901151603 | 30 | 340 | 3.2 | 11.3 | 0.00 | 0.00 | 0.00 | 43 | 1017.0 |
| 20260901151525 | 29 | 65 | 4.8 | 12.9 | 0.00 | 0.00 | 0.00 | 43 | 1017.3 |
| 20260901151503 | 30 | 327 | 3.2 | 11.3 | 0.00 | 0.00 | 0.00 | 43 | 1017.0 |
| 20260901151403 | 30 | 325 | 3.2 | 11.3 | 0.00 | 0.00 | 0.00 | 43 | 1017.0 |
| 20260901151303 | 30 | 325 | 3.2 | 14.5 | 0.00 | 0.00 | 0.00 | 43 | 1017.0 |
| 20260901151103 | 30 | 314 | 3.2 | 14.5 | 0.00 | 0.00 | 0.00 | 43 | 1017.0 |
| 20260901151006 | 30 | 346 | 6.4 | 12.9 | 0.00 | 0.00 | 0.00 | 43 | 1017.3 |
| 20260901151003 | 30 | 304 | 3.2 | 14.5 | 0.00 | 0.00 | 0.00 | 43 | 1017.0 |
| 20260901150917 | 30 | 309 | 3.2 | 14.5 | 0.00 | 0.00 | 0.00 | 43 | 1017.0 |
| 20260901150818 | 30 | 307 | 3.2 | 14.5 | 0.00 | 0.00 | 0.00 | 43 | 1017.0 |
| 20260901150505 | 29 | 238 | 4.8 | 12.9 | 0.00 | 0.00 | 0.00 | 42 | 1017.3 |
| 20260901150503 | 30 | 315 | 3.2 | 14.5 | 0.00 | 0.00 | 0.00 | 43 | 1017.0 |
| 20260901150403 | 30 | 323 | 3.2 | 14.5 | 0.00 | 0.00 | 0.00 | 43 | 1017.0 |
| 20260901150303 | 30 | 338 | 3.2 | 14.5 | 0.00 | 0.00 | 0.00 | 43 | 1017.0 |
| 20260901150203 | 30 | 58 | 3.2 | 12.9 | 0.00 | 0.00 | 0.00 | 43 | 1017.0 |
| 20260901150103 | 30 | 41 | 3.2 | 12.9 | 0.00 | 0.00 | 0.00 | 43 | 1017.0 |
| 20260901150030 | 30 | 240 | 4.8 | 12.9 | 0.00 | 0.00 | 0.00 | 42 | 1017.2 |
| 20260901150003 | 30 | 48 | 3.2 | 12.9 | 0.00 | 0.00 | 0.00 | 43 | 1017.0 |
| 20260901145917 | 30 | 35 | 3.2 | 12.9 | 0.00 | 0.00 | 0.00 | 43 | 1016.9 |
| 20260901145803 | 30 | 53 | 3.2 | 12.9 | 0.00 | 0.00 | 0.00 | 43 | 1016.9 |
| 20260901145603 | 30 | 66 | 3.2 | 12.9 | 0.00 | 0.00 | 0.00 | 43 | 1016.8 |
| 20260901145507 | 30 | 201 | 6.4 | 14.5 | 0.00 | 0.00 | 0.00 | 42 | 1017.1 |
| 20260901145503 | 30 | 37 | 3.2 | 12.9 | 0.00 | 0.00 | 0.00 | 42 | 1016.9 |
| 20260901145403 | 30 | 34 | 3.2 | 12.9 | 0.00 | 0.00 | 0.00 | 42 | 1016.9 |
| 20260901145306 | 30 | 17 | 3.2 | 12.9 | 0.00 | 0.00 | 0.00 | 42 | 1016.9 |
| 20260901145203 | 30 | 345 | 3.2 | 12.9 | 0.00 | 0.00 | 0.00 | 42 | 1016.8 |
| 20260901145103 | 30 | 23 | 3.2 | 12.9 | 0.00 | 0.00 | 0.00 | 42 | 1016.9 |
| 20260901145009 | 30 | 53 | 4.8 | 14.5 | 0.00 | 0.00 | 0.00 | 42 | 1017.2 |
| 20260901144903 | 30 | 319 | 3.2 | 17.7 | 0.00 | 0.00 | 0.00 | 42 | 1016.9 |
| 20260901144803 | 30 | 338 | 3.2 | 17.7 | 0.00 | 0.00 | 0.00 | 42 | 1016.9 |
| 20260901144603 | 30 | 325 | 3.2 | 17.7 | 0.00 | 0.00 | 0.00 | 42 | 1016.9 |
| 20260901144536 | 30 | 310 | 6.4 | 17.7 | 0.00 | 0.00 | 0.00 | 41 | 1017.1 |
| 20260901144503 | 30 | 348 | 3.2 | 17.7 | 0.00 | 0.00 | 0.00 | 42 | 1016.9 |
| 20260901144403 | 30 | 357 | 3.2 | 17.7 | 0.00 | 0.00 | 0.00 | 42 | 1016.9 |
| 20260901144303 | 30 | 346 | 3.2 | 17.7 | 0.00 | 0.00 | 0.00 | 42 | 1016.9 |
| 20260901144203 | 30 | 337 | 3.2 | 17.7 | 0.00 | 0.00 | 0.00 | 42 | 1016.8 |
| 20260901144103 | 30 | 332 | 3.2 | 17.7 | 0.00 | 0.00 | 0.00 | 42 | 1016.8 |
| 20260901144010 | 30 | 219 | 8.0 | 17.7 | 0.00 | 0.00 | 0.00 | 42 | 1017.1 |
| 20260901144003 | 30 | 337 | 3.2 | 17.7 | 0.00 | 0.00 | 0.00 | 42 | 1016.8 |
| 20260901143903 | 30 | 328 | 3.2 | 16.1 | 0.00 | 0.00 | 0.00 | 42 | 1016.8 |
| 20260901143803 | 30 | 331 | 3.2 | 16.1 | 0.00 | 0.00 | 0.00 | 42 | 1016.9 |
| 20260901143703 | 30 | 337 | 3.2 | 16.1 | 0.00 | 0.00 | 0.00 | 42 | 1016.7 |
| 20260901143515 | 30 | 60 | 6.4 | 16.1 | 0.00 | 0.00 | 0.00 | 42 | 1017.1 |
| 20260901143503 | 30 | 338 | 3.2 | 16.1 | 0.00 | 0.00 | 0.00 | 42 | 1016.8 |
| 20260901143403 | 30 | 346 | 3.2 | 12.9 | 0.00 | 0.00 | 0.00 | 42 | 1016.8 |
| 20260901143303 | 30 | 357 | 3.2 | 12.9 | 0.00 | 0.00 | 0.00 | 42 | 1016.8 |
| 20260901143203 | 30 | 32 | 3.2 | 12.9 | 0.00 | 0.00 | 0.00 | 42 | 1016.8 |
| 20260901143103 | 30 | 37 | 3.2 | 12.9 | 0.00 | 0.00 | 0.00 | 42 | 1016.8 |
| 20260901143028 | 30 | 281 | 6.4 | 19.3 | 0.00 | 0.00 | 0.00 | 41 | 1017.1 |
| 20260901143003 | 30 | 31 | 3.2 | 20.9 | 0.00 | 0.00 | 0.00 | 42 | 1016.8 |
| 20260901142903 | 30 | 24 | 3.2 | 20.9 | 0.00 | 0.00 | 0.00 | 42 | 1016.8 |
| 20260901142803 | 30 | 18 | 3.2 | 20.9 | 0.00 | 0.00 | 0.00 | 42 | 1016.9 |
| 20260901142703 | 30 | 3 | 3.2 | 20.9 | 0.00 | 0.00 | 0.00 | 42 | 1016.8 |
| 20260901142603 | 30 | 359 | 3.2 | 20.9 | 0.00 | 0.00 | 0.00 | 41 | 1016.9 |
| 20260901142516 | 30 | 10 | 6.4 | 20.9 | 0.00 | 0.00 | 0.00 | 41 | 1017.2 |
| 20260901142503 | 30 | 3 | 3.2 | 20.9 | 0.00 | 0.00 | 0.00 | 41 | 1016.8 |
| 20260901142403 | 30 | 354 | 3.2 | 20.9 | 0.00 | 0.00 | 0.00 | 41 | 1016.8 |
| 20260901142305 | 30 | 6 | 3.2 | 20.9 | 0.00 | 0.00 | 0.00 | 41 | 1016.8 |
| 20260901142103 | 31 | 359 | 3.2 | 20.9 | 0.00 | 0.00 | 0.00 | 40 | 1016.8 |
| 20260901142014 | 30 | 296 | 9.7 | 20.9 | 0.00 | 0.00 | 0.00 | 40 | 1017.1 |
| 20260901142003 | 31 | 13 | 3.2 | 20.9 | 0.00 | 0.00 | 0.00 | 40 | 1016.7 |
| 20260901141903 | 31 | 56 | 3.2 | 17.7 | 0.00 | 0.00 | 0.00 | 40 | 1016.7 |
| 20260901141803 | 30 | 46 | 3.2 | 14.5 | 0.00 | 0.00 | 0.00 | 40 | 1016.7 |
| 20260901141703 | 30 | 45 | 3.2 | 14.5 | 0.00 | 0.00 | 0.00 | 40 | 1016.6 |
| 20260901141603 | 30 | 42 | 3.2 | 14.5 | 0.00 | 0.00 | 0.00 | 40 | 1016.6 |
| 20260901141528 | 30 | 99 | 3.2 | 14.5 | 0.00 | 0.00 | 0.00 | 40 | 1016.9 |
| 20260901141503 | 30 | 15 | 3.2 | 14.5 | 0.00 | 0.00 | 0.00 | 40 | 1016.7 |
| 20260901141403 | 30 | 5 | 3.2 | 14.5 | 0.00 | 0.00 | 0.00 | 40 | 1016.6 |
| 20260901141303 | 30 | 356 | 3.2 | 14.5 | 0.00 | 0.00 | 0.00 | 40 | 1016.6 |
| 20260901141203 | 30 | 340 | 3.2 | 12.9 | 0.00 | 0.00 | 0.00 | 40 | 1016.6 |
| 20260901141103 | 30 | 337 | 3.2 | 12.9 | 0.00 | 0.00 | 0.00 | 40 | 1016.6 |
| 20260901141017 | 30 | 5 | 4.8 | 12.9 | 0.00 | 0.00 | 0.00 | 39 | 1016.8 |
| 20260901141003 | 30 | 339 | 3.2 | 12.9 | 0.00 | 0.00 | 0.00 | 40 | 1016.6 |
| 20260901140903 | 30 | 326 | 3.2 | 12.9 | 0.00 | 0.00 | 0.00 | 40 | 1016.5 |
| 20260901140803 | 30 | 334 | 3.2 | 12.9 | 0.00 | 0.00 | 0.00 | 40 | 1016.6 |
| 20260901140703 | 30 | 324 | 3.2 | 12.9 | 0.00 | 0.00 | 0.00 | 40 | 1016.6 |
| 20260901140603 | 31 | 338 | 3.2 | 12.9 | 0.00 | 0.00 | 0.00 | 40 | 1016.5 |
| 20260901140506 | 30 | 322 | 3.2 | 11.3 | 0.00 | 0.00 | 0.00 | 40 | 1016.8 |
| 20260901140503 | 31 | 331 | 3.2 | 12.9 | 0.00 | 0.00 | 0.00 | 40 | 1016.5 |
| 20260901140403 | 31 | 328 | 3.2 | 12.9 | 0.00 | 0.00 | 0.00 | 40 | 1016.5 |
| 20260901140203 | 31 | 330 | 3.2 | 12.9 | 0.00 | 0.00 | 0.00 | 40 | 1016.6 |
| 20260901140103 | 31 | 336 | 3.2 | 12.9 | 0.00 | 0.00 | 0.00 | 40 | 1016.5 |
| 20260901140014 | 30 | 10 | 6.4 | 14.5 | 0.00 | 0.00 | 0.00 | 39 | 1016.8 |
| 20260901140003 | 31 | 332 | 3.2 | 12.9 | 0.00 | 0.00 | 0.00 | 40 | 1016.4 |
| 20260901135803 | 31 | 331 | 3.2 | 12.9 | 0.00 | 0.00 | 0.00 | 40 | 1016.5 |
| 20260901135703 | 31 | 340 | 3.2 | 16.1 | 0.00 | 0.00 | 0.00 | 39 | 1016.5 |
| 20260901135603 | 31 | 326 | 3.2 | 16.1 | 0.00 | 0.00 | 0.00 | 39 | 1016.4 |
| 20260901135509 | 31 | 302 | 6.4 | 14.5 | 0.00 | 0.00 | 0.00 | 38 | 1016.7 |
| 20260901135503 | 31 | 327 | 3.2 | 16.1 | 0.00 | 0.00 | 0.00 | 39 | 1016.5 |
| 20260901135403 | 31 | 320 | 3.2 | 16.1 | 0.00 | 0.00 | 0.00 | 38 | 1016.3 |
| 20260901135305 | 31 | 317 | 3.2 | 16.1 | 0.00 | 0.00 | 0.00 | 38 | 1016.4 |
| 20260901135203 | 31 | 313 | 3.2 | 16.1 | 0.00 | 0.00 | 0.00 | 38 | 1016.6 |
| 20260901135103 | 32 | 306 | 3.2 | 16.1 | 0.00 | 0.00 | 0.00 | 38 | 1016.4 |
| 20260901135011 | 31 | 321 | 6.4 | 14.5 | 0.00 | 0.00 | 0.00 | 37 | 1016.7 |
| 20260901134903 | 32 | 300 | 3.2 | 16.1 | 0.00 | 0.00 | 0.00 | 37 | 1016.5 |
| 20260901134803 | 32 | 295 | 3.2 | 16.1 | 0.00 | 0.00 | 0.00 | 36 | 1016.4 |
| 20260901134703 | 32 | 286 | 3.2 | 16.1 | 0.00 | 0.00 | 0.00 | 35 | 1016.4 |
| 20260901134603 | 32 | 287 | 3.2 | 12.9 | 0.00 | 0.00 | 0.00 | 35 | 1016.4 |